Latest Flight | Flight Log | Data Trends | Login | Join FlightData.com!
Date Range From To
Export: Google Earth
Flight Log - SR22T-238 - Click on row to view flight. Click on header to sort.
Date Origin Dest Depart Arrive Hobbs Flight Time Flight Distance Fuel Fuel/hr Fuel/nm Altitude Gnd Speed
Tue, Apr 27, 2021 SCBQ SCBQ 14:20 14:28 0.14 hrs 0.00 hrs 0.00 nm 0.01 gal 0.04 gal/hr 0.00 gal/nm 0 msl 0 kts
Tue, Apr 27, 2021 SCBQ SCBQ 12:59 14:09 1.11 hrs 0.78 hrs 132.85 nm 18.69 gal 16.78 gal/hr 0.14 gal/nm 9010 msl 162 kts
Tue, Apr 27, 2021     12:53 12:53 0.01 hrs 0.00 hrs 0.00 nm 0.00 gal 0.00 gal/hr 0.00 gal/nm 0 msl 0 kts
Tue, Apr 27, 2021 SCBQ SCBQ 11:32 11:38 0.09 hrs 0.00 hrs 0.00 nm 0.03 gal 0.28 gal/hr 0.00 gal/nm 0 msl 0 kts
Mon, Apr 26, 2021 SCBQ SCBQ 18:43 18:52 0.15 hrs 0.00 hrs 0.00 nm 0.04 gal 0.30 gal/hr 0.00 gal/nm 0 msl 0 kts
Mon, Apr 26, 2021 SCBQ SCBQ 12:07 12:08 0.02 hrs 0.00 hrs 0.00 nm 0.14 gal 6.30 gal/hr 0.00 gal/nm 0 msl 0 kts
Fri, Apr 23, 2021 SCBQ SCBQ 12:45 12:49 0.06 hrs 0.00 hrs 0.00 nm 0.06 gal 1.14 gal/hr 0.00 gal/nm 0 msl 0 kts
Thu, Apr 22, 2021 SCBQ SCBQ 14:12 14:14 0.04 hrs 0.00 hrs 0.00 nm 0.89 gal 21.50 gal/hr 0.00 gal/nm 0 msl 0 kts
Thu, Apr 22, 2021 SCBQ SCBQ 12:24 12:27 0.06 hrs 0.00 hrs 0.00 nm 0.82 gal 13.60 gal/hr 0.00 gal/nm 0 msl 0 kts
Tue, Apr 20, 2021     22:07 22:08 0.01 hrs 0.00 hrs 0.00 nm 0.04 gal 3.69 gal/hr 0.00 gal/nm 0 msl 0 kts
Tue, Apr 20, 2021 SCBQ SCBQ 17:28 17:46 0.29 hrs 0.00 hrs 0.00 nm 0.88 gal 3.02 gal/hr 0.00 gal/nm 0 msl 0 kts
Mon, Apr 19, 2021 SCFA SCBQ 18:58 22:26 3.3 hrs 3.07 hrs 611.33 nm 69.02 gal 20.93 gal/hr 0.11 gal/nm 19009 msl 189 kts
Mon, Apr 19, 2021 SCFA SCFA 18:00 18:07 0.11 hrs 0.00 hrs 0.00 nm 0.31 gal 2.97 gal/hr 0.00 gal/nm 0 msl 0 kts
Mon, Apr 19, 2021 SCBQ SCFA 13:05 17:36 4.33 hrs 3.99 hrs 644.73 nm 72.09 gal 16.65 gal/hr 0.11 gal/nm 10119 msl 154 kts
Mon, Apr 19, 2021     12:59 12:59 0.01 hrs 0.00 hrs 0.00 nm 0.00 gal 0.00 gal/hr 0.00 gal/nm 0 msl 0 kts
Mon, Apr 19, 2021 SCBQ SCBQ 12:06 12:09 0.06 hrs 0.00 hrs 0.00 nm 0.13 gal 2.31 gal/hr 0.00 gal/nm 0 msl 0 kts
Fri, Apr 16, 2021 SCHA SCBQ 19:44 22:01 2.18 hrs 1.95 hrs 395.73 nm 59.05 gal 27.04 gal/hr 0.15 gal/nm 17011 msl 194 kts
Fri, Apr 16, 2021 SCCL SCHA 19:08 19:37 0.45 hrs 0.23 hrs 30.41 nm 5.32 gal 11.82 gal/hr 0.18 gal/nm 2301 msl 123 kts
Fri, Apr 16, 2021     19:02 19:02 0.01 hrs 0.00 hrs 0.00 nm 0.00 gal 0.00 gal/hr 0.00 gal/nm 0 msl 0 kts
Fri, Apr 16, 2021 SCBQ SCCL 15:02 17:49 2.68 hrs 2.41 hrs 408.90 nm 44.87 gal 16.76 gal/hr 0.11 gal/nm 10012 msl 162 kts
Fri, Apr 16, 2021     14:58 14:59 0.01 hrs 0.00 hrs 0.00 nm 0.00 gal 0.00 gal/hr 0.00 gal/nm 0 msl 0 kts
Fri, Apr 16, 2021 SCBQ SCBQ 12:20 12:45 0.39 hrs 0.00 hrs 0.00 nm 0.03 gal 0.06 gal/hr 0.00 gal/nm 0 msl 0 kts
Thu, Apr 15, 2021 SCBQ SCBQ 19:13 21:09 1.85 hrs 1.59 hrs 262.93 nm 30.69 gal 16.60 gal/hr 0.12 gal/nm 7510 msl 158 kts
Thu, Apr 15, 2021     19:10 19:10 0 hrs 0.00 hrs 0.00 nm 0.38 gal 114.00 gal/hr 0.00 gal/nm 0 msl 0 kts
Thu, Apr 15, 2021 SCBQ SCBQ 17:00 17:12 0.19 hrs 0.00 hrs 0.00 nm 54.86 gal 284.58 gal/hr 0.00 gal/nm 0 msl 0 kts
Thu, Apr 15, 2021 SCBQ SCBQ 13:41 16:56 3.08 hrs 2.75 hrs 476.41 nm 55.06 gal 17.88 gal/hr 0.12 gal/nm 7509 msl 164 kts
Thu, Apr 15, 2021     13:37 13:37 0.01 hrs 0.00 hrs 0.00 nm 0.14 gal 12.60 gal/hr 0.00 gal/nm 0 msl 0 kts
Thu, Apr 15, 2021     13:34 13:34 0.01 hrs 0.00 hrs 0.00 nm 23.24 gal 2091.60 gal/hr 0.00 gal/nm 0 msl 0 kts
Thu, Apr 15, 2021 SCBQ SCBQ 13:16 13:22 0.09 hrs 0.00 hrs 0.00 nm 18.02 gal 199.61 gal/hr 0.00 gal/nm 0 msl 0 kts
Thu, Apr 15, 2021 SCBQ SCBQ 13:11 13:13 0.03 hrs 0.00 hrs 0.00 nm 24.58 gal 731.31 gal/hr 0.00 gal/nm 0 msl 0 kts
Thu, Apr 15, 2021 SCBQ SCBQ 12:30 12:32 0.02 hrs 0.00 hrs 0.00 nm 0.06 gal 2.73 gal/hr 0.00 gal/nm 0 msl 0 kts
Thu, Apr 15, 2021 SCBQ SCBQ 11:50 11:53 0.04 hrs 0.00 hrs 0.00 nm 20.41 gal 496.46 gal/hr 0.00 gal/nm 0 msl 0 kts
Wed, Apr 14, 2021 SCBQ SCBQ 20:06 21:56 1.75 hrs 1.38 hrs 212.28 nm 27.69 gal 15.80 gal/hr 0.13 gal/nm 5508 msl 147 kts
Wed, Apr 14, 2021     19:41 19:42 0.01 hrs 0.00 hrs 0.00 nm 23.33 gal 2153.54 gal/hr 0.00 gal/nm 0 msl 0 kts
Wed, Apr 14, 2021 SCBQ SCBQ 17:40 19:27 1.71 hrs 1.30 hrs 197.26 nm 28.21 gal 16.48 gal/hr 0.14 gal/nm 6514 msl 144 kts
Wed, Apr 14, 2021 SCBQ SCBQ 16:54 16:55 0.01 hrs 0.00 hrs 0.00 nm 21.45 gal 1456.98 gal/hr 0.00 gal/nm 0 msl 0 kts
Wed, Apr 14, 2021 SCBQ SCBQ 13:02 16:27 3.28 hrs 3.04 hrs 521.20 nm 55.59 gal 16.94 gal/hr 0.11 gal/nm 7513 msl 164 kts
Wed, Apr 14, 2021 SCBQ SCBQ 12:57 12:58 0.03 hrs 0.00 hrs 0.00 nm 0.00 gal 0.00 gal/hr 0.00 gal/nm 0 msl 0 kts
Wed, Apr 14, 2021 SCBQ SCBQ 12:27 12:29 0.02 hrs 0.00 hrs 0.00 nm 14.59 gal 664.86 gal/hr 0.00 gal/nm 0 msl 0 kts
Wed, Apr 14, 2021 SCBQ SCBQ 11:59 12:01 0.03 hrs 0.00 hrs 0.00 nm 0.04 gal 1.55 gal/hr 0.00 gal/nm 0 msl 0 kts
Tue, Apr 13, 2021 SCBQ SCBQ 17:56 20:23 2.33 hrs 1.95 hrs 317.55 nm 38.43 gal 16.47 gal/hr 0.12 gal/nm 7515 msl 154 kts
Tue, Apr 13, 2021     17:49 17:49 0 hrs 0.00 hrs 0.00 nm 0.18 gal 54.00 gal/hr 0.00 gal/nm 0 msl 0 kts
Tue, Apr 13, 2021     17:45 17:46 0.01 hrs 0.00 hrs 0.00 nm 0.26 gal 17.66 gal/hr 0.00 gal/nm 0 msl 0 kts
Tue, Apr 13, 2021 SCBQ SCBQ 17:13 17:17 0.06 hrs 0.00 hrs 0.00 nm 27.28 gal 454.67 gal/hr 0.00 gal/nm 0 msl 0 kts
Tue, Apr 13, 2021 SCBQ SCBQ 13:14 17:04 3.66 hrs 3.38 hrs 542.31 nm 58.60 gal 16.02 gal/hr 0.11 gal/nm 11013 msl 153 kts
Tue, Apr 13, 2021     13:06 13:06 0.01 hrs 0.00 hrs 0.00 nm 10.80 gal 1495.38 gal/hr 0.00 gal/nm 0 msl 0 kts
Tue, Apr 13, 2021 SCBQ SCBQ 11:44 11:46 0.03 hrs 0.00 hrs 0.00 nm 0.03 gal 0.93 gal/hr 0.00 gal/nm 0 msl 0 kts
Mon, Apr 12, 2021 SCBQ SCBQ 19:46 19:47 0.03 hrs 0.00 hrs 0.00 nm 22.24 gal 741.33 gal/hr 0.00 gal/nm 0 msl 0 kts
Mon, Apr 12, 2021 SCBQ SCBQ 18:09 19:24 1.2 hrs 0.95 hrs 140.30 nm 20.81 gal 17.41 gal/hr 0.15 gal/nm 6070 msl 141 kts
Mon, Apr 12, 2021 SCBQ SCBQ 18:06 18:07 0.01 hrs 0.00 hrs 0.00 nm 24.56 gal 1668.23 gal/hr 0.00 gal/nm 0 msl 0 kts
Mon, Apr 12, 2021     16:00 16:01 0.01 hrs 0.00 hrs 0.00 nm 1.09 gal 156.96 gal/hr 0.00 gal/nm 0 msl 0 kts
Mon, Apr 12, 2021     15:59 16:00 0.01 hrs 0.00 hrs 0.00 nm 22.52 gal 1529.66 gal/hr 0.00 gal/nm 0 msl 0 kts
Mon, Apr 12, 2021 SCBQ SCBQ 14:31 15:52 1.3 hrs 0.98 hrs 131.21 nm 18.60 gal 14.32 gal/hr 0.14 gal/nm 4588 msl 129 kts
Mon, Apr 12, 2021     14:26 14:26 0.01 hrs 0.00 hrs 0.00 nm 21.25 gal 2942.31 gal/hr 0.00 gal/nm 0 msl 0 kts
Mon, Apr 12, 2021 SCBQ SCBQ 11:40 11:44 0.06 hrs 0.00 hrs 0.00 nm 0.07 gal 1.25 gal/hr 0.00 gal/nm 0 msl 0 kts
Fri, Apr 9, 2021     19:14 19:15 0.02 hrs 0.00 hrs 0.00 nm 12.74 gal 694.91 gal/hr 0.00 gal/nm 0 msl 0 kts
Fri, Apr 9, 2021 SCBQ SCBQ 17:06 19:09 1.94 hrs 1.71 hrs 264.95 nm 34.11 gal 17.57 gal/hr 0.13 gal/nm 5509 msl 147 kts
Fri, Apr 9, 2021 SCBQ SCBQ 15:40 15:41 0.03 hrs 0.00 hrs 0.00 nm 0.64 gal 24.51 gal/hr 0.00 gal/nm 0 msl 0 kts
Fri, Apr 9, 2021 SCBQ SCBQ 14:50 15:22 0.53 hrs 0.22 hrs 25.29 nm 5.16 gal 9.80 gal/hr 0.20 gal/nm 4543 msl 115 kts
Fri, Apr 9, 2021 SCBQ SCBQ 12:24 12:25 0.01 hrs 0.00 hrs 0.00 nm 24.23 gal 1645.81 gal/hr 0.00 gal/nm 0 msl 0 kts
Thu, Apr 8, 2021 SCBQ SCBQ 14:12 14:16 0.07 hrs 0.00 hrs 0.00 nm 22.05 gal 325.33 gal/hr 0.00 gal/nm 0 msl 0 kts
Thu, Apr 8, 2021 SCBQ SCBQ 12:44 14:04 1.27 hrs 0.93 hrs 136.14 nm 21.44 gal 16.85 gal/hr 0.16 gal/nm 5866 msl 140 kts
Thu, Apr 8, 2021     12:37 12:38 0.01 hrs 0.00 hrs 0.00 nm 23.93 gal 2208.92 gal/hr 0.00 gal/nm 0 msl 0 kts
Thu, Apr 8, 2021 SCBQ SCBQ 11:44 11:47 0.05 hrs 0.00 hrs 0.00 nm 24.96 gal 510.55 gal/hr 0.00 gal/nm 0 msl 0 kts
Wed, Apr 7, 2021     20:37 20:38 0.02 hrs 0.00 hrs 0.00 nm 15.73 gal 845.19 gal/hr 0.00 gal/nm 0 msl 0 kts
Wed, Apr 7, 2021 SCBQ SCBQ 18:25 20:32 2.02 hrs 1.55 hrs 244.12 nm 33.92 gal 16.82 gal/hr 0.14 gal/nm 5517 msl 150 kts
Wed, Apr 7, 2021 SCBQ SCBQ 17:15 17:17 0.03 hrs 0.00 hrs 0.00 nm 0.37 gal 11.01 gal/hr 0.00 gal/nm 0 msl 0 kts
Wed, Apr 7, 2021 SCBQ SCBQ 15:42 17:09 1.4 hrs 0.96 hrs 141.27 nm 20.97 gal 15.01 gal/hr 0.15 gal/nm 5945 msl 139 kts
Wed, Apr 7, 2021 SCBQ SCBQ 15:35 15:36 0.01 hrs 0.00 hrs 0.00 nm 24.06 gal 1634.26 gal/hr 0.00 gal/nm 0 msl 0 kts
Wed, Apr 7, 2021 SCBQ SCBQ 14:53 14:55 0.03 hrs 0.00 hrs 0.00 nm 22.51 gal 757.35 gal/hr 0.00 gal/nm 0 msl 0 kts
Wed, Apr 7, 2021 SCBQ SCBQ 13:05 14:47 1.64 hrs 1.07 hrs 158.95 nm 24.64 gal 15.06 gal/hr 0.16 gal/nm 6614 msl 142 kts
Wed, Apr 7, 2021 SCBQ SCBQ 12:51 12:52 0.02 hrs 0.00 hrs 0.00 nm 24.42 gal 1112.81 gal/hr 0.00 gal/nm 0 msl 0 kts
Wed, Apr 7, 2021 SCBQ SCBQ 11:44 11:46 0.03 hrs 0.00 hrs 0.00 nm 24.17 gal 719.11 gal/hr 0.00 gal/nm 0 msl 0 kts
Tue, Apr 6, 2021     20:48 20:49 0.01 hrs 0.00 hrs 0.00 nm 0.13 gal 8.83 gal/hr 0.00 gal/nm 0 msl 0 kts
Tue, Apr 6, 2021 SCBQ SCBQ 19:13 20:36 1.35 hrs 1.08 hrs 140.06 nm 21.35 gal 15.80 gal/hr 0.15 gal/nm 4617 msl 126 kts
Tue, Apr 6, 2021     19:10 19:11 0 hrs 0.00 hrs 0.00 nm 14.84 gal 4856.73 gal/hr 0.00 gal/nm 0 msl 0 kts
Tue, Apr 6, 2021 SCBQ SCBQ 18:08 18:11 0.05 hrs 0.00 hrs 0.00 nm 0.01 gal 0.19 gal/hr 0.00 gal/nm 0 msl 0 kts
Tue, Apr 6, 2021 SCBQ SCBQ 14:18 14:31 0.2 hrs 0.00 hrs 0.00 nm 0.68 gal 3.41 gal/hr 0.00 gal/nm 0 msl 0 kts
Tue, Apr 6, 2021 SCBQ SCBQ 14:00 14:09 0.15 hrs 0.00 hrs 0.00 nm 0.77 gal 5.25 gal/hr 0.00 gal/nm 0 msl 0 kts
Mon, Apr 5, 2021     18:19 18:20 0.02 hrs 0.00 hrs 0.00 nm 0.49 gal 26.73 gal/hr 0.00 gal/nm 0 msl 0 kts
Mon, Apr 5, 2021 SCBQ SCBQ 18:07 18:14 0.11 hrs 0.00 hrs 0.00 nm 26.91 gal 245.88 gal/hr 0.00 gal/nm 0 msl 0 kts
Mon, Apr 5, 2021 SCBQ SCBQ 16:11 17:58 1.71 hrs 1.18 hrs 161.45 nm 26.24 gal 15.34 gal/hr 0.16 gal/nm 6918 msl 131 kts
Mon, Apr 5, 2021 SCBQ SCBQ 16:01 16:01 0.01 hrs 0.00 hrs 0.00 nm 23.30 gal 2150.77 gal/hr 0.00 gal/nm 0 msl 0 kts
Mon, Apr 5, 2021 SCBQ SCBQ 12:01 12:04 0.05 hrs 0.00 hrs 0.00 nm 0.02 gal 0.39 gal/hr 0.00 gal/nm 0 msl 0 kts
Mon, Apr 5, 2021     11:53 11:53 0.01 hrs 0.00 hrs 0.00 nm 0.02 gal 2.77 gal/hr 0.00 gal/nm 0 msl 0 kts
Thu, Apr 1, 2021     15:49 15:49 0.01 hrs 0.00 hrs 0.00 nm 0.04 gal 5.54 gal/hr 0.00 gal/nm 0 msl 0 kts
Wed, Mar 31, 2021 SCBQ SCBQ 13:13 13:14 0.01 hrs 0.00 hrs 0.00 nm 23.90 gal 1623.40 gal/hr 0.00 gal/nm 0 msl 0 kts
Tue, Mar 30, 2021     22:11 22:12 0.01 hrs 0.00 hrs 0.00 nm 0.11 gal 10.15 gal/hr 0.00 gal/nm 0 msl 0 kts
Tue, Mar 30, 2021 SCBQ SCBQ 18:28 22:04 3.4 hrs 3.06 hrs 509.76 nm 64.24 gal 18.87 gal/hr 0.13 gal/nm 17009 msl 157 kts
Tue, Mar 30, 2021     16:58 16:58 0.01 hrs 0.00 hrs 0.00 nm 3.13 gal 450.72 gal/hr 0.00 gal/nm 0 msl 0 kts
Tue, Mar 30, 2021 SCBQ SCBQ 11:31 11:33 0.03 hrs 0.00 hrs 0.00 nm 24.65 gal 954.19 gal/hr 0.00 gal/nm 0 msl 0 kts
Mon, Mar 29, 2021 SCBQ SCBQ 10:59 11:01 0.03 hrs 0.00 hrs 0.00 nm 0.11 gal 4.26 gal/hr 0.00 gal/nm 0 msl 0 kts
Mon, Mar 29, 2021 SCBQ SCBQ 10:43 10:46 0.05 hrs 0.00 hrs 0.00 nm 0.02 gal 0.29 gal/hr 0.00 gal/nm 0 msl 0 kts
Mon, Mar 29, 2021     10:41 10:42 0 hrs 0.00 hrs 0.00 nm 15.31 gal 5010.55 gal/hr 0.00 gal/nm 0 msl 0 kts
Fri, Mar 26, 2021     11:55 11:56 0.01 hrs 0.00 hrs 0.00 nm 0.03 gal 2.70 gal/hr 0.00 gal/nm 0 msl 0 kts
Fri, Mar 26, 2021 SCBQ SCBQ 10:55 10:57 0.04 hrs 0.00 hrs 0.00 nm 0.01 gal 0.26 gal/hr 0.00 gal/nm 0 msl 0 kts
Thu, Mar 25, 2021     20:09 20:09 0.01 hrs 0.00 hrs 0.00 nm 0.06 gal 8.31 gal/hr 0.00 gal/nm 0 msl 0 kts
Thu, Mar 25, 2021 SCBQ SCBQ 18:41 20:00 1.26 hrs 0.84 hrs 109.29 nm 17.81 gal 14.17 gal/hr 0.16 gal/nm 5629 msl 123 kts
Thu, Mar 25, 2021     18:39 18:39 0.01 hrs 0.00 hrs 0.00 nm 0.73 gal 101.08 gal/hr 0.00 gal/nm 0 msl 0 kts
Thu, Mar 25, 2021 SCBQ SCBQ 16:44 16:47 0.04 hrs 0.00 hrs 0.00 nm 0.24 gal 6.45 gal/hr 0.00 gal/nm 0 msl 0 kts
Thu, Mar 25, 2021 SCBQ SCBQ 11:05 11:08 0.05 hrs 0.00 hrs 0.00 nm 24.48 gal 500.73 gal/hr 0.00 gal/nm 0 msl 0 kts
Wed, Mar 24, 2021 SCBQ SCBQ 19:34 19:39 0.09 hrs 0.00 hrs 0.00 nm 10.98 gal 121.25 gal/hr 0.00 gal/nm 0 msl 0 kts
Wed, Mar 24, 2021 SCBQ SCBQ 18:02 19:22 1.28 hrs 0.91 hrs 144.83 nm 26.18 gal 20.46 gal/hr 0.18 gal/nm 7519 msl 153 kts
Wed, Mar 24, 2021     17:58 17:59 0.01 hrs 0.00 hrs 0.00 nm 23.61 gal 2179.38 gal/hr 0.00 gal/nm 0 msl 0 kts
Wed, Mar 24, 2021     17:36 17:36 0.01 hrs 0.00 hrs 0.00 nm 0.02 gal 2.77 gal/hr 0.00 gal/nm 0 msl 0 kts
Wed, Mar 24, 2021     11:17 11:18 0.02 hrs 0.00 hrs 0.00 nm 0.09 gal 4.91 gal/hr 0.00 gal/nm 0 msl 0 kts
Mon, Mar 22, 2021 SCBQ SCBQ 11:39 11:49 0.17 hrs 0.00 hrs 0.00 nm 0.02 gal 0.13 gal/hr 0.00 gal/nm 0 msl 0 kts
Fri, Mar 19, 2021 SCBQ SCBQ 13:53 13:55 0.04 hrs 0.00 hrs 0.00 nm 0.03 gal 0.80 gal/hr 0.00 gal/nm 0 msl 0 kts
Fri, Mar 19, 2021 SCBQ SCBQ 11:05 11:09 0.07 hrs 0.00 hrs 0.00 nm 0.02 gal 0.28 gal/hr 0.00 gal/nm 0 msl 0 kts
Thu, Mar 18, 2021 SCBQ SCBQ 13:58 14:01 0.06 hrs 0.00 hrs 0.00 nm 0.68 gal 12.06 gal/hr 0.00 gal/nm 0 msl 0 kts
Thu, Mar 18, 2021 SCBQ SCBQ 13:55 13:57 0.03 hrs 0.00 hrs 0.00 nm 1.03 gal 39.87 gal/hr 0.00 gal/nm 0 msl 0 kts
Thu, Mar 18, 2021 SCBQ SCBQ 11:49 11:51 0.03 hrs 0.00 hrs 0.00 nm 23.86 gal 923.61 gal/hr 0.00 gal/nm 0 msl 0 kts
Thu, Mar 18, 2021 SCBQ SCBQ 11:15 11:22 0.12 hrs 0.00 hrs 0.00 nm 23.89 gal 204.29 gal/hr 0.00 gal/nm 0 msl 0 kts
Mon, Mar 15, 2021 SCBQ SCBQ 12:20 12:23 0.05 hrs 0.00 hrs 0.00 nm 0.54 gal 10.23 gal/hr 0.00 gal/nm 0 msl 0 kts
Mon, Mar 15, 2021 SCBQ SCBQ 12:04 12:07 0.06 hrs 0.00 hrs 0.00 nm 22.75 gal 354.55 gal/hr 0.00 gal/nm 0 msl 0 kts
Mon, Mar 15, 2021 SCBQ SCBQ 11:58 12:02 0.08 hrs 0.00 hrs 0.00 nm 0.24 gal 3.12 gal/hr 0.00 gal/nm 0 msl 0 kts
Mon, Mar 15, 2021 SCBQ SCBQ 11:40 11:57 0.28 hrs 0.00 hrs 0.00 nm 1.03 gal 3.67 gal/hr 0.00 gal/nm 0 msl 0 kts
Mon, Mar 15, 2021 SCBQ SCBQ 11:34 11:39 0.09 hrs 0.00 hrs 0.00 nm 0.27 gal 3.06 gal/hr 0.00 gal/nm 0 msl 0 kts
Fri, Mar 12, 2021 SCBQ SCBQ 16:32 16:54 0.37 hrs 0.00 hrs 0.00 nm 1.29 gal 3.48 gal/hr 0.00 gal/nm 0 msl 0 kts
Fri, Mar 12, 2021 SCBQ SCBQ 16:04 16:22 0.29 hrs 0.00 hrs 0.00 nm 1.90 gal 6.51 gal/hr 0.00 gal/nm 0 msl 0 kts
Thu, Mar 11, 2021 SCBQ SCBQ 17:17 17:19 0.03 hrs 0.00 hrs 0.00 nm 0.83 gal 27.93 gal/hr 0.00 gal/nm 0 msl 0 kts
Thu, Mar 11, 2021 SCBQ SCBQ 17:11 17:14 0.05 hrs 0.00 hrs 0.00 nm 0.48 gal 9.14 gal/hr 0.00 gal/nm 0 msl 0 kts
Wed, Mar 10, 2021 SCBQ SCBQ 14:27 14:29 0.03 hrs 0.01 hrs 0.00 nm 0.37 gal 11.01 gal/hr 0.00 gal/nm 11736 msl 0 kts
Wed, Mar 10, 2021 SCBQ SCBQ 14:17 14:26 0.15 hrs 0.01 hrs 0.00 nm 0.87 gal 5.91 gal/hr 0.00 gal/nm 13276 msl 0 kts
Wed, Mar 10, 2021 SCBQ SCBQ 14:12 14:16 0.07 hrs 0.00 hrs 0.00 nm 4.43 gal 65.36 gal/hr 0.00 gal/nm 0 msl 0 kts
Wed, Mar 10, 2021 SCBQ SCBQ 14:04 14:11 0.12 hrs 0.00 hrs 0.00 nm 0.08 gal 0.66 gal/hr 0.00 gal/nm 0 msl 0 kts
Wed, Mar 10, 2021 SCBQ SCBQ 13:37 14:03 0.43 hrs 0.06 hrs 0.01 nm 0.78 gal 1.82 gal/hr 78.00 gal/nm 15154 msl 0 kts
Wed, Mar 10, 2021 SCBQ SCBQ 13:06 13:10 0.06 hrs 0.01 hrs 0.01 nm 0.68 gal 11.33 gal/hr 68.00 gal/nm 2473 msl 0 kts
Wed, Mar 10, 2021 SCBQ SCBQ 12:42 13:05 0.37 hrs 0.14 hrs 0.03 nm 0.72 gal 1.94 gal/hr 24.00 gal/nm 14966 msl 0 kts
Tue, Mar 9, 2021 SCBQ SCBQ 17:10 17:12 0.03 hrs 0.00 hrs 0.00 nm 0.05 gal 1.49 gal/hr 0.00 gal/nm 0 msl 0 kts
Tue, Mar 9, 2021 SCBQ SCBQ 17:04 17:09 0.09 hrs 0.00 hrs 0.00 nm 0.11 gal 1.21 gal/hr 0.00 gal/nm 0 msl 0 kts
Mon, Mar 8, 2021 SCBQ SCBQ 18:28 19:29 0.02 hrs 0.00 hrs 0.00 nm 0.12 gal 5.40 gal/hr 0.00 gal/nm 0 msl 0 kts
Thu, Mar 4, 2021     20:38 21:39 0.01 hrs 0.00 hrs 0.00 nm 0.32 gal 21.74 gal/hr 0.00 gal/nm 0 msl 0 kts
Fri, Feb 26, 2021     18:33 18:34 0.01 hrs 0.00 hrs 0.00 nm 0.07 gal 6.30 gal/hr 0.00 gal/nm 0 msl 0 kts
Thu, Feb 25, 2021 SCBQ SCBQ 16:28 16:39 0.17 hrs 0.00 hrs 0.00 nm 0.83 gal 4.87 gal/hr 0.00 gal/nm 0 msl 0 kts
Thu, Feb 25, 2021     16:26 16:27 0.01 hrs 0.00 hrs 0.00 nm 0.16 gal 10.87 gal/hr 0.00 gal/nm 0 msl 0 kts
Thu, Feb 25, 2021 SCBQ SCBQ 16:13 16:18 0.09 hrs 0.00 hrs 0.00 nm 0.22 gal 2.54 gal/hr 0.00 gal/nm 0 msl 0 kts
Thu, Feb 25, 2021 SCBQ SCBQ 12:20 12:33 0.2 hrs 0.00 hrs 0.00 nm 0.35 gal 1.75 gal/hr 0.00 gal/nm 0 msl 0 kts
Thu, Feb 25, 2021     12:19 12:20 0.01 hrs 0.00 hrs 0.00 nm 0.06 gal 8.64 gal/hr 0.00 gal/nm 0 msl 0 kts
Thu, Feb 25, 2021     12:17 12:18 0.02 hrs 0.00 hrs 0.00 nm 0.12 gal 6.55 gal/hr 0.00 gal/nm 0 msl 0 kts
Thu, Feb 25, 2021     12:16 12:16 0 hrs 0.00 hrs 0.00 nm 0.01 gal 3.00 gal/hr 0.00 gal/nm 0 msl 0 kts
Thu, Feb 25, 2021 SCBQ SCBQ 12:13 12:15 0.04 hrs 0.00 hrs 0.00 nm 0.17 gal 4.53 gal/hr 0.00 gal/nm 0 msl 0 kts
Wed, Feb 24, 2021     16:55 16:56 0.01 hrs 0.00 hrs 0.00 nm 0.15 gal 10.19 gal/hr 0.00 gal/nm 0 msl 0 kts
Wed, Feb 24, 2021 SCBQ SCBQ 11:46 11:48 0.03 hrs 0.00 hrs 0.00 nm 0.14 gal 4.17 gal/hr 0.00 gal/nm 0 msl 0 kts
Tue, Feb 23, 2021 SCBQ SCBQ 11:25 11:31 0.09 hrs 0.00 hrs 0.00 nm 0.20 gal 2.22 gal/hr 0.00 gal/nm 0 msl 0 kts
Tue, Feb 23, 2021 SCBQ SCBQ 11:09 11:19 0.17 hrs 0.00 hrs 0.00 nm 0.81 gal 4.87 gal/hr 0.00 gal/nm 0 msl 0 kts
Mon, Feb 22, 2021 SCBQ SCBQ 17:45 17:47 0.03 hrs 0.00 hrs 0.00 nm 0.17 gal 5.06 gal/hr 0.00 gal/nm 0 msl 0 kts
Mon, Feb 22, 2021 SCBQ SCBQ 12:55 13:02 0.13 hrs 0.00 hrs 0.00 nm 1.00 gal 7.78 gal/hr 0.00 gal/nm 0 msl 0 kts
Thu, Feb 18, 2021 SCBQ SCBQ 17:01 17:03 0.03 hrs 0.00 hrs 0.00 nm 0.13 gal 4.37 gal/hr 0.00 gal/nm 0 msl 0 kts
Fri, Feb 12, 2021 SCBQ SCBQ 16:22 16:27 0.09 hrs 0.00 hrs 0.00 nm 0.21 gal 2.42 gal/hr 0.00 gal/nm 0 msl 0 kts
Fri, Feb 12, 2021 SCBQ SCBQ 13:22 14:35 1.19 hrs 0.00 hrs 0.00 nm 0.86 gal 0.72 gal/hr 0.00 gal/nm 0 msl 0 kts
Wed, Feb 10, 2021     13:31 13:31 0.02 hrs 0.00 hrs 0.00 nm 0.21 gal 14.00 gal/hr 0.00 gal/nm 0 msl 0 kts
Wed, Feb 10, 2021 SCBQ SCBQ 11:43 12:44 0.03 hrs 0.00 hrs 0.00 nm 0.14 gal 5.42 gal/hr 0.00 gal/nm 0 msl 0 kts
Thu, Jan 28, 2021 SCBQ SCBQ 16:45 16:57 0.19 hrs 0.00 hrs 0.00 nm 0.07 gal 0.36 gal/hr 0.00 gal/nm 0 msl 0 kts
Tue, Jan 26, 2021 SCBQ SCBQ 17:05 17:14 0.14 hrs 0.00 hrs 0.00 nm 0.19 gal 1.32 gal/hr 0.00 gal/nm 0 msl 0 kts
Tue, Jan 26, 2021 SCBQ SCBQ 11:19 11:23 0.07 hrs 0.00 hrs 0.00 nm 0.24 gal 3.57 gal/hr 0.00 gal/nm 0 msl 0 kts
Tue, Jan 26, 2021 SCBQ SCBQ 10:57 11:18 0.34 hrs 0.00 hrs 0.03 nm 27.54 gal 81.73 gal/hr 918.00 gal/nm 1825 msl 83 kts
Fri, Jan 22, 2021 SCBQ SCBQ 17:21 17:27 0.1 hrs 0.00 hrs 0.00 nm 0.08 gal 0.82 gal/hr 0.00 gal/nm 0 msl 0 kts
Fri, Jan 22, 2021 SCBQ SCBQ 17:07 17:19 0.19 hrs 0.00 hrs 0.00 nm 0.22 gal 1.14 gal/hr 0.00 gal/nm 0 msl 0 kts
Thu, Jan 21, 2021 SCBQ SCBQ 18:12 18:27 0.23 hrs 0.12 hrs 0.06 nm 0.74 gal 3.21 gal/hr 12.33 gal/nm 1891 msl 0 kts
Thu, Jan 21, 2021 SCBQ SCBQ 12:21 12:27 0.1 hrs 0.00 hrs 0.00 nm 0.25 gal 2.45 gal/hr 0.00 gal/nm 0 msl 0 kts
Thu, Jan 21, 2021     12:20 12:20 0.01 hrs 0.00 hrs 0.00 nm 0.22 gal 19.80 gal/hr 0.00 gal/nm 0 msl 0 kts
Wed, Jan 20, 2021     12:09 12:10 0.02 hrs 0.00 hrs 0.00 nm 0.11 gal 4.95 gal/hr 0.00 gal/nm 0 msl 0 kts
Tue, Jan 19, 2021 SCBQ SCBQ 12:53 12:58 0.07 hrs 0.00 hrs 0.00 nm 0.24 gal 3.36 gal/hr 0.00 gal/nm 0 msl 0 kts
Tue, Jan 19, 2021 SCBQ SCBQ 12:47 12:52 0.08 hrs 0.00 hrs 0.00 nm 0.24 gal 3.02 gal/hr 0.00 gal/nm 0 msl 0 kts
Tue, Jan 19, 2021 SCBQ SCBQ 12:42 12:47 0.08 hrs 0.00 hrs 0.00 nm 0.46 gal 5.56 gal/hr 0.00 gal/nm 0 msl 0 kts
Mon, Jan 18, 2021 SCBQ SCBQ 18:45 18:49 0.05 hrs 0.00 hrs 0.00 nm 0.11 gal 2.26 gal/hr 0.00 gal/nm 0 msl 0 kts
Mon, Jan 18, 2021 SCBQ SCBQ 18:42 18:45 0.05 hrs 0.00 hrs 0.00 nm 0.20 gal 4.42 gal/hr 0.00 gal/nm 0 msl 0 kts
Mon, Jan 18, 2021 SCBQ SCBQ 18:40 18:41 0.03 hrs 0.00 hrs 0.00 nm 25.51 gal 858.28 gal/hr 0.00 gal/nm 0 msl 0 kts
Mon, Jan 18, 2021 SCBQ SCBQ 11:40 12:57 0.27 hrs 0.00 hrs 0.00 nm 0.83 gal 3.09 gal/hr 0.00 gal/nm 0 msl 0 kts
Mon, Jan 18, 2021     11:39 11:39 0.01 hrs 0.00 hrs 0.00 nm 0.11 gal 9.90 gal/hr 0.00 gal/nm 0 msl 0 kts
Tue, Jan 12, 2021 SCBQ SCBQ 12:00 12:14 0.22 hrs 0.00 hrs 0.00 nm 1.34 gal 6.20 gal/hr 0.00 gal/nm 0 msl 0 kts
Tue, Jan 12, 2021 SCBQ SCBQ 11:43 11:53 0.17 hrs 0.00 hrs 0.00 nm 25.16 gal 151.21 gal/hr 0.00 gal/nm 0 msl 0 kts
Mon, Jan 11, 2021 SCBQ SCBQ 16:03 16:26 0.39 hrs 0.00 hrs 0.00 nm 1.83 gal 4.75 gal/hr 0.00 gal/nm 0 msl 0 kts
Mon, Jan 11, 2021     11:21 11:21 0.01 hrs 0.00 hrs 0.00 nm 21.89 gal 3030.92 gal/hr 0.00 gal/nm 0 msl 0 kts
Thu, Jan 7, 2021     12:02 12:03 0.01 hrs 0.00 hrs 0.00 nm 0.03 gal 2.70 gal/hr 0.00 gal/nm 0 msl 0 kts
Thu, Jan 7, 2021     11:59 12:00 0.02 hrs 0.00 hrs 0.00 nm 0.07 gal 3.82 gal/hr 0.00 gal/nm 0 msl 0 kts
Thu, Dec 31, 2020     11:02 11:03 0.01 hrs 0.00 hrs 0.00 nm 0.03 gal 4.32 gal/hr 0.00 gal/nm 0 msl 0 kts
Thu, Dec 24, 2020 SCBQ SCBQ 11:50 11:51 0.02 hrs 0.00 hrs 0.00 nm 0.06 gal 2.70 gal/hr 0.00 gal/nm 0 msl 0 kts
Fri, Dec 11, 2020     18:38 18:38 0 hrs 0.00 hrs 0.00 nm 0.02 gal 6.00 gal/hr 0.00 gal/nm 0 msl 0 kts
Fri, Dec 11, 2020 SCBQ SCBQ 18:35 18:37 0.03 hrs 0.00 hrs 0.00 nm 24.63 gal 732.79 gal/hr 0.00 gal/nm 0 msl 0 kts
Fri, Dec 11, 2020 SCEL SCBQ 18:02 18:26 0.39 hrs 0.11 hrs 13.81 nm 3.55 gal 9.18 gal/hr 0.26 gal/nm 3621 msl 114 kts
Fri, Dec 11, 2020 SCEL SCEL 17:58 17:59 0.02 hrs 0.00 hrs 0.00 nm 0.19 gal 8.55 gal/hr 0.00 gal/nm 0 msl 0 kts
Fri, Dec 11, 2020     17:54 17:54 0.01 hrs 0.00 hrs 0.00 nm 0.01 gal 1.38 gal/hr 0.00 gal/nm 0 msl 0 kts
Fri, Dec 11, 2020 SCEL SCEL 01:42 01:50 0.12 hrs 0.00 hrs 0.00 nm 0.00 gal 0.00 gal/hr 0.00 gal/nm 0 msl 0 kts
Thu, Dec 10, 2020 SCBQ SCEL 23:54 01:36 1.64 hrs 1.15 hrs 174.73 nm 26.60 gal 16.23 gal/hr 0.15 gal/nm 7016 msl 145 kts
Thu, Dec 10, 2020     23:52 23:52 0 hrs 0.00 hrs 0.00 nm 0.00 gal 0.00 gal/hr 0.00 gal/nm 0 msl 0 kts
Thu, Dec 10, 2020 SCBQ SCBQ 20:47 20:48 0.02 hrs 0.00 hrs 0.00 nm 11.05 gal 602.73 gal/hr 0.00 gal/nm 0 msl 0 kts
Thu, Dec 10, 2020 SCBQ SCBQ 11:08 11:09 0.02 hrs 0.00 hrs 0.00 nm 0.09 gal 4.10 gal/hr 0.00 gal/nm 0 msl 0 kts
Thu, Dec 10, 2020 SCBQ SCBQ 10:57 11:01 0.08 hrs 0.00 hrs 0.00 nm 24.51 gal 308.52 gal/hr 0.00 gal/nm 0 msl 0 kts
Wed, Dec 9, 2020 SCBQ SCBQ 11:10 11:14 0.07 hrs 0.00 hrs 0.00 nm 24.43 gal 360.44 gal/hr 0.00 gal/nm 0 msl 0 kts
Mon, Dec 7, 2020 SCBQ SCBQ 16:43 16:47 0.08 hrs 0.00 hrs 0.00 nm 52.72 gal 697.76 gal/hr 0.00 gal/nm 0 msl 0 kts
Mon, Dec 7, 2020 SCBQ SCBQ 14:20 16:28 2.03 hrs 1.63 hrs 243.54 nm 35.87 gal 17.70 gal/hr 0.15 gal/nm 8084 msl 142 kts
Mon, Dec 7, 2020 SCBQ SCBQ 14:15 14:16 0.01 hrs 0.00 hrs 0.00 nm 23.77 gal 1614.57 gal/hr 0.00 gal/nm 0 msl 0 kts
Mon, Dec 7, 2020 SCBQ SCBQ 13:52 13:59 0.12 hrs 0.00 hrs 0.00 nm 20.15 gal 172.30 gal/hr 0.00 gal/nm 0 msl 0 kts
Mon, Dec 7, 2020 SCBQ SCBQ 12:12 13:44 1.5 hrs 1.05 hrs 146.95 nm 23.26 gal 15.51 gal/hr 0.16 gal/nm 6014 msl 136 kts
Mon, Dec 7, 2020 SCBQ SCBQ 12:05 12:05 0.01 hrs 0.00 hrs 0.00 nm 24.35 gal 2191.50 gal/hr 0.00 gal/nm 0 msl 0 kts
Mon, Dec 7, 2020     11:01 11:02 0.01 hrs 0.00 hrs 0.00 nm 0.17 gal 15.69 gal/hr 0.00 gal/nm 0 msl 0 kts
Mon, Dec 7, 2020 SCBQ SCBQ 10:46 10:49 0.05 hrs 0.00 hrs 0.00 nm 0.81 gal 15.43 gal/hr 0.00 gal/nm 0 msl 0 kts
Fri, Dec 4, 2020 SCBQ SCBQ 15:17 18:37 3.18 hrs 2.84 hrs 393.42 nm 58.64 gal 18.46 gal/hr 0.15 gal/nm 5512 msl 131 kts
Fri, Dec 4, 2020     15:13 15:13 0.01 hrs 0.00 hrs 0.00 nm 0.00 gal 0.00 gal/hr 0.00 gal/nm 0 msl 0 kts
Fri, Dec 4, 2020     14:59 14:59 0.01 hrs 0.00 hrs 0.00 nm 22.73 gal 3147.23 gal/hr 0.00 gal/nm 0 msl 0 kts
Fri, Dec 4, 2020 SCBQ SCBQ 14:31 14:55 0.39 hrs 0.00 hrs 0.00 nm 0.34 gal 0.86 gal/hr 0.00 gal/nm 0 msl 0 kts
Fri, Dec 4, 2020 SCBQ SCBQ 11:37 11:47 0.17 hrs 0.00 hrs 0.00 nm 22.80 gal 131.12 gal/hr 0.00 gal/nm 0 msl 0 kts
Thu, Dec 3, 2020 SCBQ SCBQ 14:17 14:20 0.03 hrs 0.00 hrs 0.00 nm 0.02 gal 0.60 gal/hr 0.00 gal/nm 0 msl 0 kts
Thu, Dec 3, 2020 SCBQ SCBQ 13:42 13:43 0.03 hrs 0.00 hrs 0.00 nm 0.03 gal 1.00 gal/hr 0.00 gal/nm 0 msl 0 kts
Thu, Dec 3, 2020     11:17 11:17 0 hrs 0.00 hrs 0.00 nm 12.91 gal 3873.00 gal/hr 0.00 gal/nm 0 msl 0 kts
Tue, Dec 1, 2020 SCBQ SCBQ 18:43 18:54 0.17 hrs 0.00 hrs 0.00 nm 0.90 gal 5.17 gal/hr 0.00 gal/nm 0 msl 0 kts
Tue, Dec 1, 2020 SCBQ SCBQ 17:20 17:25 0.09 hrs 0.00 hrs 0.00 nm 9.75 gal 112.50 gal/hr 0.00 gal/nm 0 msl 0 kts
Tue, Dec 1, 2020     17:19 17:19 0 hrs 0.00 hrs 0.00 nm 0.14 gal 42.00 gal/hr 0.00 gal/nm 0 msl 0 kts
Mon, Nov 30, 2020 SCBQ SCBQ 18:02 18:08 0.09 hrs 0.00 hrs 0.00 nm 0.20 gal 2.11 gal/hr 0.00 gal/nm 0 msl 0 kts
Mon, Nov 30, 2020 SCBQ SCBQ 17:28 17:38 0.17 hrs 0.00 hrs 0.00 nm 0.76 gal 4.38 gal/hr 0.00 gal/nm 0 msl 0 kts
Mon, Nov 30, 2020 SCBQ SCBQ 17:01 17:20 0.32 hrs 0.00 hrs 0.00 nm 1.38 gal 4.39 gal/hr 0.00 gal/nm 0 msl 0 kts
Thu, Nov 26, 2020 SCBQ SCBQ 18:43 18:52 0.14 hrs 0.00 hrs 0.00 nm 0.30 gal 2.21 gal/hr 0.00 gal/nm 0 msl 0 kts
Thu, Nov 26, 2020 SCBQ SCBQ 16:11 16:12 0.03 hrs 0.00 hrs 0.00 nm 0.13 gal 4.98 gal/hr 0.00 gal/nm 0 msl 0 kts
Thu, Nov 26, 2020     16:06 16:07 0.01 hrs 0.00 hrs 0.00 nm 0.13 gal 12.00 gal/hr 0.00 gal/nm 0 msl 0 kts
Thu, Nov 26, 2020 SCBQ SCBQ 12:28 12:38 0.15 hrs 0.00 hrs 0.00 nm 0.88 gal 5.71 gal/hr 0.00 gal/nm 0 msl 0 kts
Thu, Nov 26, 2020 SCBQ SCBQ 12:19 12:23 0.08 hrs 0.00 hrs 0.00 nm 0.18 gal 2.44 gal/hr 0.00 gal/nm 0 msl 0 kts
Wed, Nov 25, 2020 SCBQ SCBQ 16:56 17:02 0.1 hrs 0.00 hrs 0.00 nm 0.29 gal 2.84 gal/hr 0.00 gal/nm 0 msl 0 kts
Wed, Nov 25, 2020 SCBQ SCBQ 16:49 16:56 0.11 hrs 0.00 hrs 0.00 nm 0.28 gal 2.47 gal/hr 0.00 gal/nm 0 msl 0 kts
Wed, Nov 25, 2020 SCBQ SCBQ 13:54 13:56 0.04 hrs 0.00 hrs 0.00 nm 0.11 gal 2.66 gal/hr 0.00 gal/nm 0 msl 0 kts
Wed, Nov 25, 2020 SCBQ SCBQ 12:06 13:47 1.6 hrs 1.25 hrs 158.29 nm 26.54 gal 16.61 gal/hr 0.17 gal/nm 7332 msl 119 kts
Wed, Nov 25, 2020 SCBQ SCBQ 12:02 12:02 0.01 hrs 0.00 hrs 0.00 nm 25.28 gal 2275.20 gal/hr 0.00 gal/nm 0 msl 0 kts
Wed, Nov 25, 2020     11:01 11:02 0.01 hrs 0.00 hrs 0.00 nm 0.11 gal 10.15 gal/hr 0.00 gal/nm 0 msl 0 kts
Tue, Nov 24, 2020     19:37 19:38 0.01 hrs 0.00 hrs 0.00 nm 0.07 gal 6.46 gal/hr 0.00 gal/nm 0 msl 0 kts
Tue, Nov 24, 2020 SCBQ SCBQ 18:06 19:28 1.33 hrs 0.87 hrs 119.52 nm 21.75 gal 16.41 gal/hr 0.18 gal/nm 7267 msl 132 kts
Tue, Nov 24, 2020 SCBQ SCBQ 17:58 17:59 0.02 hrs 0.00 hrs 0.00 nm 0.52 gal 28.36 gal/hr 0.00 gal/nm 0 msl 0 kts
Tue, Nov 24, 2020     16:35 16:36 0.01 hrs 0.00 hrs 0.00 nm 0.10 gal 13.85 gal/hr 0.00 gal/nm 0 msl 0 kts
Tue, Nov 24, 2020 SCBQ SCBQ 15:09 16:16 1.06 hrs 0.84 hrs 138.41 nm 20.28 gal 19.12 gal/hr 0.15 gal/nm 4575 msl 155 kts
Tue, Nov 24, 2020     15:06 15:06 0 hrs 0.00 hrs 0.00 nm 15.33 gal 4599.00 gal/hr 0.00 gal/nm 0 msl 0 kts
Tue, Nov 24, 2020 SCBQ SCBQ 14:48 14:50 0.03 hrs 0.00 hrs 0.00 nm 23.45 gal 788.97 gal/hr 0.00 gal/nm 0 msl 0 kts
Tue, Nov 24, 2020 SCBQ SCBQ 13:36 14:35 0.97 hrs 0.68 hrs 78.70 nm 15.85 gal 16.41 gal/hr 0.20 gal/nm 4518 msl 113 kts
Tue, Nov 24, 2020     13:32 13:32 0 hrs 0.00 hrs 0.00 nm 0.22 gal 66.00 gal/hr 0.00 gal/nm 0 msl 0 kts
Tue, Nov 24, 2020 SCBQ SCBQ 13:01 13:03 0.03 hrs 0.00 hrs 0.00 nm 28.81 gal 857.16 gal/hr 0.00 gal/nm 0 msl 0 kts
Tue, Nov 24, 2020 SCBQ SCBQ 12:01 12:53 0.84 hrs 0.58 hrs 65.46 nm 13.25 gal 15.77 gal/hr 0.20 gal/nm 4545 msl 111 kts
Tue, Nov 24, 2020     11:57 11:58 0.01 hrs 0.00 hrs 0.00 nm 0.64 gal 59.08 gal/hr 0.00 gal/nm 0 msl 0 kts
Tue, Nov 24, 2020 SCBQ SCBQ 11:04 11:11 0.11 hrs 0.00 hrs 0.00 nm 22.66 gal 214.67 gal/hr 0.00 gal/nm 0 msl 0 kts
Mon, Nov 23, 2020     19:37 19:38 0.01 hrs 0.00 hrs 0.00 nm 0.20 gal 13.58 gal/hr 0.00 gal/nm 0 msl 0 kts
Mon, Nov 23, 2020 SCBQ SCBQ 18:24 19:31 1.07 hrs 0.78 hrs 104.89 nm 17.13 gal 16.07 gal/hr 0.16 gal/nm 4672 msl 128 kts
Mon, Nov 23, 2020     17:28 17:29 0 hrs 0.00 hrs 0.00 nm 0.02 gal 6.55 gal/hr 0.00 gal/nm 0 msl 0 kts
Mon, Nov 23, 2020     17:18 17:19 0 hrs 0.00 hrs 0.00 nm 0.08 gal 26.18 gal/hr 0.00 gal/nm 0 msl 0 kts
Mon, Nov 23, 2020 SCBQ SCBQ 11:00 11:03 0.04 hrs 0.00 hrs 0.00 nm 25.62 gal 623.19 gal/hr 0.00 gal/nm 0 msl 0 kts
Fri, Nov 20, 2020 SCBQ SCBQ 13:37 13:41 0.07 hrs 0.00 hrs 0.00 nm 0.08 gal 1.12 gal/hr 0.00 gal/nm 0 msl 0 kts
Fri, Nov 20, 2020 SCBQ SCBQ 12:49 13:14 0.42 hrs 0.00 hrs 0.00 nm 23.90 gal 57.36 gal/hr 0.00 gal/nm 0 msl 0 kts
Fri, Nov 20, 2020 SCBQ SCBQ 12:27 12:34 0.1 hrs 0.00 hrs 0.00 nm 0.39 gal 3.84 gal/hr 0.00 gal/nm 0 msl 0 kts
Fri, Nov 20, 2020 SCBQ SCBQ 12:16 12:24 0.14 hrs 0.00 hrs 0.00 nm 25.18 gal 185.00 gal/hr 0.00 gal/nm 0 msl 0 kts
Fri, Nov 20, 2020 SCBQ SCBQ 12:00 12:14 0.23 hrs 0.00 hrs 0.00 nm 1.04 gal 4.51 gal/hr 0.00 gal/nm 0 msl 0 kts
Thu, Nov 19, 2020 SCBQ SCBQ 18:26 18:28 0.03 hrs 0.00 hrs 0.00 nm 26.33 gal 783.37 gal/hr 0.00 gal/nm 0 msl 0 kts
Thu, Nov 19, 2020     18:21 18:21 0 hrs 0.00 hrs 0.00 nm 0.01 gal 3.00 gal/hr 0.00 gal/nm 0 msl 0 kts
Thu, Nov 19, 2020 SCBQ SCBQ 18:16 18:21 0.08 hrs 0.00 hrs 0.00 nm 0.16 gal 2.02 gal/hr 0.00 gal/nm 0 msl 0 kts
Thu, Nov 19, 2020 SCBQ SCBQ 15:09 15:12 0.05 hrs 0.00 hrs 0.00 nm 0.17 gal 3.24 gal/hr 0.00 gal/nm 0 msl 0 kts
Thu, Nov 19, 2020 SCBQ SCBQ 14:49 15:08 0.31 hrs 0.00 hrs 0.00 nm 0.02 gal 0.08 gal/hr 0.00 gal/nm 0 msl 0 kts
Wed, Nov 18, 2020 SCBQ SCBQ 16:27 16:33 0.1 hrs 0.00 hrs 0.00 nm 0.43 gal 4.36 gal/hr 0.00 gal/nm 0 msl 0 kts
Wed, Nov 18, 2020 SCBQ SCBQ 16:23 16:25 0.03 hrs 0.00 hrs 0.00 nm 0.07 gal 2.22 gal/hr 0.00 gal/nm 0 msl 0 kts
Wed, Nov 18, 2020     16:21 16:22 0.02 hrs 0.00 hrs 0.00 nm 0.07 gal 3.61 gal/hr 0.00 gal/nm 0 msl 0 kts
Wed, Nov 18, 2020 SCBQ SCBQ 16:10 16:19 0.15 hrs 0.00 hrs 0.00 nm 0.62 gal 4.08 gal/hr 0.00 gal/nm 0 msl 0 kts
Wed, Nov 18, 2020 SCBQ SCBQ 16:05 16:07 0.03 hrs 0.00 hrs 0.00 nm 0.29 gal 9.76 gal/hr 0.00 gal/nm 0 msl 0 kts
Mon, Nov 16, 2020     17:59 17:59 0.01 hrs 0.00 hrs 0.00 nm 0.02 gal 2.25 gal/hr 0.00 gal/nm 0 msl 0 kts
Mon, Nov 16, 2020     17:52 17:53 0.01 hrs 0.00 hrs 0.00 nm 0.06 gal 4.23 gal/hr 0.00 gal/nm 0 msl 0 kts
Mon, Nov 16, 2020     17:50 17:50 0.02 hrs 0.00 hrs 0.00 nm 0.07 gal 4.36 gal/hr 0.00 gal/nm 0 msl 0 kts
Mon, Nov 16, 2020 SCBQ SCBQ 17:45 17:47 0.02 hrs 0.00 hrs 0.00 nm 0.07 gal 3.21 gal/hr 0.00 gal/nm 0 msl 0 kts
Fri, Nov 13, 2020     17:50 17:51 0.02 hrs 0.00 hrs 0.00 nm 0.00 gal 0.14 gal/hr 0.00 gal/nm 0 msl 0 kts
Fri, Nov 13, 2020 SCBQ SCBQ 13:34 13:42 0.13 hrs 0.00 hrs 0.00 nm 0.77 gal 5.85 gal/hr 0.00 gal/nm 0 msl 0 kts
Fri, Nov 13, 2020 SCBQ SCBQ 13:17 13:31 0.23 hrs 0.00 hrs 0.00 nm 1.93 gal 8.22 gal/hr 0.00 gal/nm 0 msl 0 kts
Fri, Nov 13, 2020 SCBQ SCBQ 13:10 13:14 0.07 hrs 0.00 hrs 0.00 nm 0.19 gal 2.80 gal/hr 0.00 gal/nm 0 msl 0 kts
Fri, Nov 13, 2020 SCBQ SCBQ 13:04 13:06 0.03 hrs 0.00 hrs 0.00 nm 0.04 gal 1.24 gal/hr 0.00 gal/nm 0 msl 0 kts
Fri, Nov 13, 2020 SCBQ SCBQ 12:51 13:01 0.16 hrs 0.00 hrs 0.00 nm 0.48 gal 2.95 gal/hr 0.00 gal/nm 0 msl 0 kts
Thu, Nov 12, 2020 SCBQ SCBQ 11:31 11:42 0.18 hrs 0.00 hrs 0.00 nm 0.66 gal 3.71 gal/hr 0.00 gal/nm 0 msl 0 kts
Thu, Nov 12, 2020 SCBQ SCBQ 11:12 11:13 0.02 hrs 0.00 hrs 0.00 nm 34.97 gal 1907.45 gal/hr 0.00 gal/nm 0 msl 0 kts
Thu, Nov 12, 2020 SCBQ SCBQ 10:39 10:43 0.06 hrs 0.00 hrs 0.00 nm 0.09 gal 1.50 gal/hr 0.00 gal/nm 0 msl 0 kts
Wed, Nov 11, 2020 SCBQ SCBQ 19:23 19:33 0.17 hrs 0.00 hrs 0.00 nm 0.48 gal 2.91 gal/hr 0.00 gal/nm 0 msl 0 kts
Wed, Nov 11, 2020 SCBQ SCBQ 17:34 17:39 0.07 hrs 0.00 hrs 0.00 nm 0.15 gal 2.29 gal/hr 0.00 gal/nm 0 msl 0 kts
Wed, Nov 11, 2020 SCBQ SCBQ 14:58 16:38 1.58 hrs 1.38 hrs 225.91 nm 30.07 gal 19.05 gal/hr 0.13 gal/nm 8149 msl 156 kts
Wed, Nov 11, 2020 SCBQ SCBQ 14:24 14:27 0.06 hrs 0.00 hrs 0.00 nm 0.01 gal 0.14 gal/hr 0.00 gal/nm 0 msl 0 kts
Wed, Nov 11, 2020 SCBQ SCBQ 13:06 14:15 1.08 hrs 0.81 hrs 138.35 nm 20.51 gal 18.95 gal/hr 0.15 gal/nm 6517 msl 160 kts
Wed, Nov 11, 2020 SCBQ SCBQ 11:09 11:11 0.04 hrs 0.00 hrs 0.00 nm 0.17 gal 4.53 gal/hr 0.00 gal/nm 0 msl 0 kts
Tue, Nov 10, 2020 SCBQ SCBQ 19:00 19:44 0.72 hrs 0.51 hrs 75.03 nm 10.81 gal 15.03 gal/hr 0.14 gal/nm 4551 msl 144 kts
Tue, Nov 10, 2020     18:58 18:58 0 hrs 0.00 hrs 0.00 nm 0.13 gal 39.00 gal/hr 0.00 gal/nm 0 msl 0 kts
Tue, Nov 10, 2020 SCBQ SCBQ 18:35 18:37 0.03 hrs 0.00 hrs 0.00 nm 23.80 gal 708.10 gal/hr 0.00 gal/nm 0 msl 0 kts
Tue, Nov 10, 2020     18:32 18:33 0.01 hrs 0.00 hrs 0.00 nm 0.40 gal 57.60 gal/hr 0.00 gal/nm 0 msl 0 kts
Tue, Nov 10, 2020 SCBQ SCBQ 17:48 17:54 0.11 hrs 0.00 hrs 0.00 nm 0.36 gal 3.27 gal/hr 0.00 gal/nm 0 msl 0 kts
Tue, Nov 10, 2020 SCBQ SCBQ 11:27 11:30 0.05 hrs 0.00 hrs 0.00 nm 0.05 gal 1.20 gal/hr 0.00 gal/nm 0 msl 0 kts
Mon, Nov 9, 2020     19:45 19:46 0.01 hrs 0.00 hrs 0.00 nm 0.01 gal 0.89 gal/hr 0.00 gal/nm 0 msl 0 kts
Mon, Nov 9, 2020     19:44 19:44 0 hrs 0.00 hrs 0.00 nm 0.02 gal 6.00 gal/hr 0.00 gal/nm 0 msl 0 kts
Mon, Nov 9, 2020 SCBQ SCBQ 19:28 19:32 0.06 hrs 0.00 hrs 0.00 nm 0.00 gal 0.03 gal/hr 0.00 gal/nm 0 msl 0 kts
Mon, Nov 9, 2020 SCBQ SCBQ 18:01 19:15 1.19 hrs 0.99 hrs 151.94 nm 20.85 gal 17.59 gal/hr 0.14 gal/nm 4704 msl 147 kts
Mon, Nov 9, 2020 SCBQ SCBQ 17:55 17:58 0.05 hrs 0.00 hrs 0.00 nm 25.73 gal 490.10 gal/hr 0.00 gal/nm 0 msl 0 kts
Mon, Nov 9, 2020     17:50 17:50 0.01 hrs 0.00 hrs 0.00 nm 0.33 gal 45.69 gal/hr 0.00 gal/nm 0 msl 0 kts
Mon, Nov 9, 2020 SCBQ SCBQ 17:39 17:41 0.03 hrs 0.00 hrs 0.00 nm 12.23 gal 473.42 gal/hr 0.00 gal/nm 0 msl 0 kts
Mon, Nov 9, 2020 SCBQ SCBQ 17:29 17:33 0.08 hrs 0.00 hrs 0.00 nm 0.27 gal 3.57 gal/hr 0.00 gal/nm 0 msl 0 kts
Mon, Nov 9, 2020 SCBQ SCBQ 10:56 10:57 0.01 hrs 0.00 hrs 0.00 nm 23.80 gal 2196.92 gal/hr 0.00 gal/nm 0 msl 0 kts
Mon, Nov 9, 2020     10:54 10:55 0 hrs 0.00 hrs 0.00 nm 14.18 gal 4640.73 gal/hr 0.00 gal/nm 0 msl 0 kts
Fri, Nov 6, 2020 SCBQ SCBQ 21:21 21:23 0.03 hrs 0.00 hrs 0.00 nm 0.25 gal 8.41 gal/hr 0.00 gal/nm 0 msl 0 kts
Fri, Nov 6, 2020 SCBQ SCBQ 20:56 20:58 0.03 hrs 0.00 hrs 0.00 nm 20.43 gal 687.36 gal/hr 0.00 gal/nm 0 msl 0 kts
Fri, Nov 6, 2020     20:55 20:55 0 hrs 0.00 hrs 0.00 nm 0.35 gal 105.00 gal/hr 0.00 gal/nm 0 msl 0 kts
Fri, Nov 6, 2020 SCBQ SCBQ 19:15 19:52 0.6 hrs 0.00 hrs 0.00 nm 3.50 gal 5.81 gal/hr 0.00 gal/nm 0 msl 0 kts
Fri, Nov 6, 2020 SCBQ SCBQ 19:13 19:14 0.01 hrs 0.00 hrs 0.00 nm 24.74 gal 1680.45 gal/hr 0.00 gal/nm 0 msl 0 kts
Fri, Nov 6, 2020     16:20 16:20 0.01 hrs 0.00 hrs 0.00 nm 0.15 gal 20.77 gal/hr 0.00 gal/nm 0 msl 0 kts
Fri, Nov 6, 2020 SCBQ SCBQ 14:06 14:08 0.03 hrs 0.00 hrs 0.00 nm 0.64 gal 19.04 gal/hr 0.00 gal/nm 0 msl 0 kts
Fri, Nov 6, 2020     11:38 11:38 0.02 hrs 0.00 hrs 0.00 nm 0.26 gal 17.33 gal/hr 0.00 gal/nm 0 msl 0 kts
Fri, Nov 6, 2020     11:17 11:17 0 hrs 0.00 hrs 0.00 nm 0.07 gal 21.00 gal/hr 0.00 gal/nm 0 msl 0 kts
Fri, Nov 6, 2020 SCBQ SCBQ 11:00 11:12 0.21 hrs 0.00 hrs 0.00 nm 0.03 gal 0.13 gal/hr 0.00 gal/nm 0 msl 0 kts
Tue, Nov 3, 2020 SCBQ SCBQ 18:49 18:56 0.13 hrs 0.00 hrs 0.00 nm 0.39 gal 3.03 gal/hr 0.00 gal/nm 0 msl 0 kts
Tue, Nov 3, 2020 SCBQ SCBQ 13:29 13:43 0.23 hrs 0.00 hrs 0.22 nm 1.09 gal 4.72 gal/hr 4.95 gal/nm 1835 msl 54 kts
Mon, Nov 2, 2020 SCBQ SCBQ 13:44 13:57 0.22 hrs 0.00 hrs 0.00 nm 0.83 gal 3.77 gal/hr 0.00 gal/nm 0 msl 0 kts
Mon, Nov 2, 2020     13:42 13:43 0.02 hrs 0.00 hrs 0.00 nm 0.04 gal 2.29 gal/hr 0.00 gal/nm 0 msl 0 kts
Mon, Nov 2, 2020 SCBQ SCBQ 13:38 13:41 0.05 hrs 0.00 hrs 0.00 nm 0.05 gal 1.09 gal/hr 0.00 gal/nm 0 msl 0 kts
Fri, Oct 30, 2020 SCBQ SCBQ 18:31 18:47 0.26 hrs 0.00 hrs 0.00 nm 1.21 gal 4.70 gal/hr 0.00 gal/nm 0 msl 0 kts
Fri, Oct 30, 2020 SCBQ SCBQ 16:55 17:28 0.55 hrs 0.00 hrs 0.00 nm 0.52 gal 0.95 gal/hr 0.00 gal/nm 0 msl 0 kts
Fri, Oct 30, 2020 SCBQ SCBQ 16:48 16:50 0.04 hrs 0.00 hrs 0.00 nm 0.15 gal 3.62 gal/hr 0.00 gal/nm 0 msl 0 kts
Thu, Oct 29, 2020 SCBQ SCBQ 19:07 19:23 0.27 hrs 0.00 hrs 0.00 nm 0.50 gal 1.89 gal/hr 0.00 gal/nm 0 msl 0 kts
Fri, Oct 23, 2020 SCBQ SCBQ 15:09 15:24 0.25 hrs 0.00 hrs 0.00 nm 0.63 gal 2.58 gal/hr 0.00 gal/nm 0 msl 0 kts
Fri, Oct 23, 2020 SCBQ SCBQ 14:19 14:31 0.2 hrs 0.00 hrs 0.00 nm 0.76 gal 3.78 gal/hr 0.00 gal/nm 0 msl 0 kts
Fri, Oct 23, 2020 SCBQ SCBQ 13:36 13:41 0.07 hrs 0.00 hrs 0.00 nm 0.23 gal 3.22 gal/hr 0.00 gal/nm 0 msl 0 kts
Fri, Oct 23, 2020 SCBQ SCBQ 13:27 13:36 0.13 hrs 0.00 hrs 0.00 nm 0.72 gal 5.45 gal/hr 0.00 gal/nm 0 msl 0 kts
Thu, Oct 22, 2020 SCBQ SCBQ 11:13 11:17 0.06 hrs 0.00 hrs 0.00 nm 0.14 gal 2.50 gal/hr 0.00 gal/nm 0 msl 0 kts
Thu, Oct 15, 2020 SCBQ SCBQ 16:43 16:44 0.02 hrs 0.00 hrs 0.00 nm 0.19 gal 8.55 gal/hr 0.00 gal/nm 0 msl 0 kts
Thu, Oct 8, 2020 SCBQ SCBQ 13:37 14:07 0.48 hrs 0.00 hrs 0.00 nm 0.29 gal 0.60 gal/hr 0.00 gal/nm 0 msl 0 kts
Thu, Oct 8, 2020 SCBQ SCBQ 13:13 13:35 0.33 hrs 0.00 hrs 0.00 nm 0.50 gal 1.50 gal/hr 0.00 gal/nm 0 msl 0 kts
Wed, Oct 7, 2020     16:37 16:37 0.01 hrs 0.00 hrs 0.00 nm 0.25 gal 34.62 gal/hr 0.00 gal/nm 0 msl 0 kts
Thu, Oct 1, 2020 SCBQ SCBQ 17:33 17:52 0.31 hrs 0.00 hrs 0.00 nm 0.14 gal 0.46 gal/hr 0.00 gal/nm 0 msl 0 kts
Thu, Oct 1, 2020 SCBQ SCBQ 17:17 17:22 0.09 hrs 0.00 hrs 0.00 nm 25.84 gal 298.15 gal/hr 0.00 gal/nm 0 msl 0 kts
Thu, Oct 1, 2020 SCBQ SCBQ 13:02 13:15 0.23 hrs 0.00 hrs 0.00 nm 0.62 gal 2.71 gal/hr 0.00 gal/nm 0 msl 0 kts
Tue, Sep 29, 2020 SCBQ SCBQ 11:49 12:18 0.47 hrs 0.00 hrs 0.00 nm 26.05 gal 55.00 gal/hr 0.00 gal/nm 0 msl 0 kts
Thu, Sep 17, 2020 SCBQ SCBQ 13:04 13:12 0.14 hrs 0.00 hrs 0.00 nm 0.12 gal 0.83 gal/hr 0.00 gal/nm 0 msl 0 kts
Thu, Sep 17, 2020 SCBQ SCBQ 12:43 12:44 0.03 hrs 0.00 hrs 0.00 nm 0.38 gal 14.55 gal/hr 0.00 gal/nm 0 msl 0 kts
Wed, Sep 16, 2020 SCBQ SCBQ 11:23 11:34 0.19 hrs 0.00 hrs 0.00 nm 24.27 gal 130.99 gal/hr 0.00 gal/nm 0 msl 0 kts
Tue, Sep 15, 2020 SCBQ SCBQ 17:13 17:30 0.29 hrs 0.00 hrs 0.00 nm 1.00 gal 3.43 gal/hr 0.00 gal/nm 0 msl 0 kts
Mon, Sep 14, 2020 SCBQ SCBQ 16:01 16:28 0.44 hrs 0.00 hrs 0.00 nm 2.28 gal 5.18 gal/hr 0.00 gal/nm 0 msl 0 kts
Mon, Sep 14, 2020 SCBQ SCBQ 12:48 12:50 0.04 hrs 0.00 hrs 0.00 nm 26.40 gal 704.00 gal/hr 0.00 gal/nm 0 msl 0 kts
Thu, Sep 10, 2020 SCBQ SCBQ 18:22 18:26 0.06 hrs 0.00 hrs 0.00 nm 0.57 gal 9.50 gal/hr 0.00 gal/nm 0 msl 0 kts
Thu, Sep 10, 2020 SCBQ SCBQ 18:12 18:15 0.06 hrs 0.00 hrs 0.00 nm 0.09 gal 1.40 gal/hr 0.00 gal/nm 0 msl 0 kts
Thu, Sep 10, 2020 SCBQ SCBQ 16:07 16:21 0.23 hrs 0.00 hrs 0.00 nm 0.59 gal 2.56 gal/hr 0.00 gal/nm 0 msl 0 kts
Thu, Sep 10, 2020 SCBQ SCBQ 14:39 14:42 0.05 hrs 0.00 hrs 0.00 nm 0.12 gal 2.29 gal/hr 0.00 gal/nm 0 msl 0 kts
Thu, Sep 10, 2020 SCBQ SCBQ 14:19 14:21 0.04 hrs 0.00 hrs 0.00 nm 24.44 gal 651.73 gal/hr 0.00 gal/nm 0 msl 0 kts
Tue, Sep 8, 2020 SCBQ SCBQ 16:43 16:51 0.13 hrs 0.00 hrs 0.00 nm 0.84 gal 6.53 gal/hr 0.00 gal/nm 0 msl 0 kts
Tue, Sep 8, 2020 SCBQ SCBQ 13:53 13:57 0.06 hrs 0.00 hrs 0.00 nm 0.17 gal 2.66 gal/hr 0.00 gal/nm 0 msl 0 kts
Tue, Sep 8, 2020 SCBQ SCBQ 13:27 13:34 0.11 hrs 0.00 hrs 0.00 nm 25.29 gal 231.08 gal/hr 0.00 gal/nm 0 msl 0 kts
Tue, Sep 8, 2020 SCBQ SCBQ 12:25 12:34 0.16 hrs 0.00 hrs 0.00 nm 27.17 gal 171.00 gal/hr 0.00 gal/nm 0 msl 0 kts
Tue, Sep 8, 2020 SCBQ SCBQ 10:58 11:03 0.08 hrs 0.00 hrs 0.00 nm 0.64 gal 7.71 gal/hr 0.00 gal/nm 0 msl 0 kts
Mon, Sep 7, 2020 SCBQ SCBQ 16:15 16:41 0.43 hrs 0.00 hrs 0.00 nm 2.17 gal 5.02 gal/hr 0.00 gal/nm 0 msl 0 kts
Mon, Sep 7, 2020 SCBQ SCBQ 16:03 16:04 0.02 hrs 0.00 hrs 0.00 nm 26.01 gal 1418.73 gal/hr 0.00 gal/nm 0 msl 0 kts
Fri, Sep 4, 2020 SCBQ SCBQ 14:09 14:36 0.44 hrs 0.00 hrs 0.00 nm 3.19 gal 7.25 gal/hr 0.00 gal/nm 0 msl 0 kts
Wed, Sep 2, 2020     18:48 18:48 0 hrs 0.00 hrs 0.00 nm 0.25 gal 75.00 gal/hr 0.00 gal/nm 0 msl 0 kts
Wed, Sep 2, 2020     18:35 18:35 0.01 hrs 0.00 hrs 0.00 nm 22.14 gal 3065.54 gal/hr 0.00 gal/nm 0 msl 0 kts
Wed, Sep 2, 2020 SCBQ SCBQ 18:24 18:25 0.01 hrs 0.00 hrs 0.00 nm 26.00 gal 1766.04 gal/hr 0.00 gal/nm 0 msl 0 kts
Wed, Sep 2, 2020 SCBQ SCBQ 18:20 18:22 0.05 hrs 0.00 hrs 0.00 nm 16.21 gal 358.01 gal/hr 0.00 gal/nm 0 msl 0 kts
Wed, Sep 2, 2020 SCBQ SCBQ 18:15 18:18 0.06 hrs 0.00 hrs 0.00 nm 23.46 gal 367.20 gal/hr 0.00 gal/nm 0 msl 0 kts
Wed, Sep 2, 2020 SCBQ SCBQ 16:39 17:56 1.23 hrs 0.87 hrs 105.86 nm 16.49 gal 13.40 gal/hr 0.16 gal/nm 4688 msl 115 kts
Wed, Sep 2, 2020     16:36 16:37 0.01 hrs 0.00 hrs 0.00 nm 24.03 gal 3460.32 gal/hr 0.00 gal/nm 0 msl 0 kts
Wed, Sep 2, 2020 SCBQ SCBQ 16:00 16:01 0.02 hrs 0.00 hrs 0.00 nm 0.16 gal 7.20 gal/hr 0.00 gal/nm 0 msl 0 kts
Wed, Sep 2, 2020 SCBQ SCBQ 14:19 15:54 1.52 hrs 1.26 hrs 219.38 nm 28.60 gal 18.84 gal/hr 0.13 gal/nm 5636 msl 165 kts
Wed, Sep 2, 2020     14:16 14:16 0.01 hrs 0.00 hrs 0.00 nm 0.19 gal 26.31 gal/hr 0.00 gal/nm 0 msl 0 kts
Wed, Sep 2, 2020     12:20 12:21 0.01 hrs 0.00 hrs 0.00 nm 5.63 gal 382.42 gal/hr 0.00 gal/nm 0 msl 0 kts
Wed, Sep 2, 2020 SCBQ SCBQ 11:51 11:52 0.01 hrs 0.00 hrs 0.00 nm 25.62 gal 2364.92 gal/hr 0.00 gal/nm 0 msl 0 kts
Tue, Sep 1, 2020     20:25 20:26 0.01 hrs 0.00 hrs 0.00 nm 14.63 gal 993.74 gal/hr 0.00 gal/nm 0 msl 0 kts
Tue, Sep 1, 2020 SCBQ SCBQ 18:24 20:18 1.81 hrs 1.37 hrs 223.75 nm 27.32 gal 15.12 gal/hr 0.12 gal/nm 13010 msl 155 kts
Tue, Sep 1, 2020     18:21 18:22 0.01 hrs 0.00 hrs 0.00 nm 24.97 gal 2304.92 gal/hr 0.00 gal/nm 0 msl 0 kts
Tue, Sep 1, 2020 SCBQ SCBQ 12:13 12:14 0.02 hrs 0.00 hrs 0.00 nm 28.46 gal 1552.36 gal/hr 0.00 gal/nm 0 msl 0 kts
Mon, Aug 31, 2020 SCBQ SCBQ 18:47 20:00 1.16 hrs 0.84 hrs 100.55 nm 15.90 gal 13.69 gal/hr 0.16 gal/nm 4547 msl 113 kts
Mon, Aug 31, 2020     18:44 18:44 0.01 hrs 0.00 hrs 0.00 nm 0.79 gal 71.10 gal/hr 0.00 gal/nm 0 msl 0 kts
Mon, Aug 31, 2020     18:27 18:28 0.02 hrs 0.00 hrs 0.00 nm 0.46 gal 30.67 gal/hr 0.00 gal/nm 0 msl 0 kts
Mon, Aug 31, 2020 SCBQ SCBQ 17:04 18:22 1.24 hrs 0.86 hrs 121.54 nm 18.18 gal 14.72 gal/hr 0.15 gal/nm 7209 msl 133 kts
Mon, Aug 31, 2020     17:02 17:02 0.01 hrs 0.00 hrs 0.00 nm 22.80 gal 3156.92 gal/hr 0.00 gal/nm 0 msl 0 kts
Mon, Aug 31, 2020 SCBQ SCBQ 16:32 16:34 0.04 hrs 0.00 hrs 0.00 nm 50.71 gal 1225.21 gal/hr 0.00 gal/nm 0 msl 0 kts
Mon, Aug 31, 2020 SCBQ SCBQ 14:22 16:24 1.94 hrs 1.61 hrs 264.24 nm 32.85 gal 16.93 gal/hr 0.12 gal/nm 5514 msl 156 kts
Mon, Aug 31, 2020     14:19 14:19 0 hrs 0.00 hrs 0.00 nm 14.79 gal 4437.00 gal/hr 0.00 gal/nm 0 msl 0 kts
Mon, Aug 31, 2020 SCBQ SCBQ 11:51 11:53 0.04 hrs 0.00 hrs 0.00 nm 24.65 gal 652.50 gal/hr 0.00 gal/nm 0 msl 0 kts
Fri, Aug 28, 2020     12:32 12:32 0 hrs 0.00 hrs 0.00 nm 0.07 gal 21.00 gal/hr 0.00 gal/nm 0 msl 0 kts
Fri, Aug 28, 2020 SCBQ SCBQ 12:27 12:31 0.06 hrs 0.00 hrs 0.00 nm 26.40 gal 413.22 gal/hr 0.00 gal/nm 0 msl 0 kts
Fri, Aug 28, 2020 SCBQ SCBQ 11:44 11:45 0.01 hrs 0.00 hrs 0.00 nm 18.35 gal 1246.42 gal/hr 0.00 gal/nm 0 msl 0 kts
Thu, Aug 27, 2020     20:30 20:31 0.01 hrs 0.00 hrs 0.00 nm 0.35 gal 23.77 gal/hr 0.00 gal/nm 0 msl 0 kts
Thu, Aug 27, 2020 SCIE SCBQ 18:36 20:21 1.67 hrs 1.48 hrs 251.32 nm 31.83 gal 19.09 gal/hr 0.13 gal/nm 8031 msl 161 kts
Thu, Aug 27, 2020 SCEL SCIE 16:13 18:14 1.89 hrs 1.54 hrs 284.92 nm 32.12 gal 17.02 gal/hr 0.11 gal/nm 9011 msl 173 kts
Thu, Aug 27, 2020 SCBQ SCEL 15:21 15:51 0.49 hrs 0.15 hrs 20.71 nm 4.28 gal 8.77 gal/hr 0.21 gal/nm 3546 msl 132 kts
Thu, Aug 27, 2020 SCBQ SCBQ 11:55 11:56 0.02 hrs 0.00 hrs 0.00 nm 24.95 gal 1122.75 gal/hr 0.00 gal/nm 0 msl 0 kts
Wed, Aug 26, 2020 SCBQ SCBQ 20:27 20:29 0.03 hrs 0.00 hrs 0.00 nm 0.32 gal 10.77 gal/hr 0.00 gal/nm 0 msl 0 kts
Wed, Aug 26, 2020 SCBQ SCBQ 18:50 20:14 1.36 hrs 1.01 hrs 132.97 nm 21.53 gal 15.83 gal/hr 0.16 gal/nm 7311 msl 128 kts
Wed, Aug 26, 2020     18:44 18:45 0 hrs 0.00 hrs 0.00 nm 15.42 gal 5046.55 gal/hr 0.00 gal/nm 0 msl 0 kts
Wed, Aug 26, 2020 SCBQ SCBQ 11:58 12:02 0.06 hrs 0.00 hrs 0.00 nm 0.04 gal 0.63 gal/hr 0.00 gal/nm 0 msl 0 kts
Wed, Aug 26, 2020 SCBQ SCBQ 11:53 11:55 0.02 hrs 0.00 hrs 0.00 nm 24.95 gal 1136.96 gal/hr 0.00 gal/nm 0 msl 0 kts
Fri, Aug 21, 2020 SCBQ SCBQ 16:50 16:52 0.04 hrs 0.00 hrs 0.00 nm 24.62 gal 594.85 gal/hr 0.00 gal/nm 0 msl 0 kts
Fri, Aug 21, 2020 SCBQ SCBQ 15:59 16:38 0.62 hrs 0.35 hrs 45.72 nm 9.37 gal 15.19 gal/hr 0.21 gal/nm 4664 msl 122 kts
Fri, Aug 21, 2020     15:57 15:57 0 hrs 0.00 hrs 0.00 nm 15.63 gal 4689.00 gal/hr 0.00 gal/nm 0 msl 0 kts
Fri, Aug 21, 2020 SCBQ SCBQ 15:30 15:32 0.04 hrs 0.00 hrs 0.00 nm 24.59 gal 655.73 gal/hr 0.00 gal/nm 0 msl 0 kts
Fri, Aug 21, 2020 SCBQ SCBQ 13:41 15:17 1.55 hrs 1.11 hrs 143.79 nm 24.39 gal 15.79 gal/hr 0.17 gal/nm 7303 msl 124 kts
Fri, Aug 21, 2020 SCBQ SCBQ 13:31 13:32 0.01 hrs 0.00 hrs 0.00 nm 23.04 gal 2126.77 gal/hr 0.00 gal/nm 0 msl 0 kts
Fri, Aug 21, 2020 SCBQ SCBQ 12:42 13:09 0.43 hrs 0.27 hrs 31.23 nm 5.74 gal 13.44 gal/hr 0.18 gal/nm 4506 msl 110 kts
Fri, Aug 21, 2020 SCBQ SCBQ 12:34 12:39 0.09 hrs 0.00 hrs 0.00 nm 0.30 gal 3.43 gal/hr 0.00 gal/nm 0 msl 0 kts
Fri, Aug 21, 2020 SCBQ SCBQ 12:26 12:32 0.1 hrs 0.00 hrs 0.00 nm 0.10 gal 1.00 gal/hr 0.00 gal/nm 0 msl 0 kts
Fri, Aug 21, 2020 SCBQ SCBQ 12:20 12:22 0.03 hrs 0.00 hrs 0.00 nm 0.21 gal 7.07 gal/hr 0.00 gal/nm 0 msl 0 kts
Fri, Aug 21, 2020 SCBQ SCBQ 11:59 12:00 0.03 hrs 0.00 hrs 0.00 nm 24.49 gal 816.33 gal/hr 0.00 gal/nm 0 msl 0 kts
Thu, Aug 20, 2020     18:49 18:50 0.01 hrs 0.00 hrs 0.00 nm 0.18 gal 12.23 gal/hr 0.00 gal/nm 0 msl 0 kts
Thu, Aug 20, 2020 SCBQ SCBQ 17:35 18:27 0.86 hrs 0.45 hrs 52.67 nm 10.33 gal 12.07 gal/hr 0.20 gal/nm 4575 msl 116 kts
Thu, Aug 20, 2020     17:32 17:33 0 hrs 0.00 hrs 0.00 nm 0.06 gal 19.64 gal/hr 0.00 gal/nm 0 msl 0 kts
Thu, Aug 20, 2020     17:06 17:07 0.01 hrs 0.00 hrs 0.00 nm 7.63 gal 518.26 gal/hr 0.00 gal/nm 0 msl 0 kts
Thu, Aug 20, 2020 SCBQ SCBQ 16:58 17:02 0.06 hrs 0.00 hrs 0.00 nm 24.26 gal 379.72 gal/hr 0.00 gal/nm 0 msl 0 kts
Thu, Aug 20, 2020 SCBQ SCBQ 14:24 14:36 0.19 hrs 0.00 hrs 0.00 nm 1.36 gal 7.05 gal/hr 0.00 gal/nm 0 msl 0 kts
Thu, Aug 20, 2020 SCBQ SCBQ 13:27 13:29 0.03 hrs 0.00 hrs 0.00 nm 0.41 gal 13.79 gal/hr 0.00 gal/nm 0 msl 0 kts
Thu, Aug 20, 2020     13:23 13:24 0.01 hrs 0.00 hrs 0.00 nm 0.19 gal 17.10 gal/hr 0.00 gal/nm 0 msl 0 kts
Wed, Aug 19, 2020 SCBQ SCBQ 19:58 20:03 0.08 hrs 0.00 hrs 0.00 nm 20.05 gal 253.26 gal/hr 0.00 gal/nm 0 msl 0 kts
Wed, Aug 19, 2020 SCBQ SCBQ 18:09 19:51 1.64 hrs 1.30 hrs 210.92 nm 25.99 gal 15.84 gal/hr 0.12 gal/nm 8513 msl 154 kts
Wed, Aug 19, 2020 SCBQ SCBQ 18:03 18:04 0.01 hrs 0.00 hrs 0.00 nm 26.97 gal 1831.92 gal/hr 0.00 gal/nm 0 msl 0 kts
Wed, Aug 19, 2020 SCBQ SCBQ 17:42 17:43 0.02 hrs 0.00 hrs 0.00 nm 0.20 gal 9.00 gal/hr 0.00 gal/nm 0 msl 0 kts
Wed, Aug 19, 2020 SCBQ SCBQ 15:32 17:33 1.91 hrs 1.52 hrs 247.63 nm 32.55 gal 17.00 gal/hr 0.13 gal/nm 8514 msl 154 kts
Wed, Aug 19, 2020     15:27 15:27 0.01 hrs 0.00 hrs 0.00 nm 22.11 gal 3061.38 gal/hr 0.00 gal/nm 0 msl 0 kts
Wed, Aug 19, 2020 SCBQ SCBQ 12:05 12:06 0.02 hrs 0.00 hrs 0.00 nm 21.23 gal 1194.19 gal/hr 0.00 gal/nm 0 msl 0 kts
Tue, Aug 18, 2020 SCBQ SCBQ 20:21 20:23 0.03 hrs 0.00 hrs 0.00 nm 0.45 gal 13.50 gal/hr 0.00 gal/nm 0 msl 0 kts
Tue, Aug 18, 2020 SCBQ SCBQ 18:42 20:10 1.41 hrs 0.92 hrs 122.77 nm 16.38 gal 11.59 gal/hr 0.13 gal/nm 4726 msl 127 kts
Tue, Aug 18, 2020 SCBQ SCBQ 18:23 18:26 0.06 hrs 0.00 hrs 0.00 nm 0.13 gal 2.16 gal/hr 0.00 gal/nm 0 msl 0 kts
Tue, Aug 18, 2020 SCBQ SCBQ 16:03 18:10 2.03 hrs 1.61 hrs 257.48 nm 34.71 gal 17.06 gal/hr 0.13 gal/nm 8547 msl 152 kts
Tue, Aug 18, 2020 SCBQ SCBQ 15:59 15:59 0.01 hrs 0.00 hrs 0.00 nm 24.14 gal 2172.60 gal/hr 0.00 gal/nm 0 msl 0 kts
Tue, Aug 18, 2020 SCBQ SCBQ 14:56 14:59 0.04 hrs 0.00 hrs 0.00 nm 0.08 gal 1.95 gal/hr 0.00 gal/nm 0 msl 0 kts
Tue, Aug 18, 2020 SCBQ SCBQ 13:01 14:36 1.51 hrs 1.17 hrs 189.02 nm 20.03 gal 13.30 gal/hr 0.11 gal/nm 7512 msl 153 kts
Tue, Aug 18, 2020     12:56 12:57 0.01 hrs 0.00 hrs 0.00 nm 0.00 gal 0.00 gal/hr 0.00 gal/nm 0 msl 0 kts
Tue, Aug 18, 2020     12:27 12:28 0.01 hrs 0.00 hrs 0.00 nm 0.00 gal 0.00 gal/hr 0.00 gal/nm 0 msl 0 kts
Tue, Aug 18, 2020     12:02 12:03 0.01 hrs 0.00 hrs 0.00 nm 0.20 gal 13.58 gal/hr 0.00 gal/nm 0 msl 0 kts
Tue, Aug 18, 2020 SCBQ SCBQ 11:48 11:55 0.12 hrs 0.00 hrs 0.00 nm 0.22 gal 1.88 gal/hr 0.00 gal/nm 0 msl 0 kts
Mon, Aug 17, 2020 SCBQ SCBQ 17:24 19:23 1.89 hrs 1.64 hrs 261.26 nm 34.83 gal 18.42 gal/hr 0.13 gal/nm 7505 msl 151 kts
Mon, Aug 17, 2020     17:20 17:20 0 hrs 0.00 hrs 0.00 nm 15.47 gal 4641.00 gal/hr 0.00 gal/nm 0 msl 0 kts
Mon, Aug 17, 2020 SCBQ SCBQ 11:59 12:00 0.01 hrs 0.00 hrs 0.00 nm 24.82 gal 1685.89 gal/hr 0.00 gal/nm 0 msl 0 kts
Fri, Aug 14, 2020 SCBQ SCBQ 18:00 19:06 1.06 hrs 0.66 hrs 96.01 nm 13.91 gal 13.12 gal/hr 0.14 gal/nm 4581 msl 138 kts
Fri, Aug 14, 2020     17:57 17:57 0 hrs 0.00 hrs 0.00 nm 15.16 gal 4548.00 gal/hr 0.00 gal/nm 0 msl 0 kts
Fri, Aug 14, 2020     15:05 15:06 0.02 hrs 0.00 hrs 0.00 nm 0.06 gal 3.27 gal/hr 0.00 gal/nm 0 msl 0 kts
Fri, Aug 14, 2020 SCBQ SCBQ 13:02 14:56 1.83 hrs 1.20 hrs 151.16 nm 25.10 gal 13.74 gal/hr 0.17 gal/nm 8095 msl 120 kts
Fri, Aug 14, 2020 SCBQ SCBQ 12:50 12:50 0.01 hrs 0.00 hrs 0.00 nm 25.94 gal 2334.60 gal/hr 0.00 gal/nm 0 msl 0 kts
Fri, Aug 14, 2020 SCBQ SCBQ 11:50 11:52 0.03 hrs 0.00 hrs 0.00 nm 28.95 gal 974.02 gal/hr 0.00 gal/nm 0 msl 0 kts
Thu, Aug 13, 2020 SCBQ SCBQ 19:28 19:30 0.02 hrs 0.00 hrs 0.00 nm 24.86 gal 1132.86 gal/hr 0.00 gal/nm 0 msl 0 kts
Thu, Aug 13, 2020 SCBQ SCBQ 17:22 19:13 1.78 hrs 1.30 hrs 166.67 nm 28.91 gal 16.28 gal/hr 0.17 gal/nm 7878 msl 123 kts
Thu, Aug 13, 2020 SCBQ SCBQ 17:11 17:13 0.02 hrs 0.00 hrs 0.00 nm 25.99 gal 1184.35 gal/hr 0.00 gal/nm 0 msl 0 kts
Thu, Aug 13, 2020 SCBQ SCBQ 15:58 16:01 0.05 hrs 0.00 hrs 0.00 nm 0.13 gal 2.66 gal/hr 0.00 gal/nm 0 msl 0 kts
Thu, Aug 13, 2020 SCBQ SCBQ 13:28 15:47 2.2 hrs 1.94 hrs 315.22 nm 41.13 gal 18.71 gal/hr 0.13 gal/nm 6010 msl 154 kts
Thu, Aug 13, 2020     13:23 13:23 0 hrs 0.00 hrs 0.00 nm 16.43 gal 4929.00 gal/hr 0.00 gal/nm 0 msl 0 kts
Thu, Aug 13, 2020 SCBQ SCBQ 12:04 12:08 0.06 hrs 0.00 hrs 0.00 nm 26.94 gal 449.00 gal/hr 0.00 gal/nm 0 msl 0 kts
Wed, Aug 12, 2020     20:34 20:34 0.01 hrs 0.00 hrs 0.00 nm 0.12 gal 10.80 gal/hr 0.00 gal/nm 0 msl 0 kts
Wed, Aug 12, 2020 SCBQ SCBQ 20:31 20:33 0.04 hrs 0.00 hrs 0.00 nm 0.07 gal 1.87 gal/hr 0.00 gal/nm 0 msl 0 kts
Wed, Aug 12, 2020 SCBQ SCBQ 20:27 20:30 0.05 hrs 0.00 hrs 0.00 nm 0.19 gal 3.89 gal/hr 0.00 gal/nm 0 msl 0 kts
Wed, Aug 12, 2020 SCBQ SCBQ 18:57 20:19 1.31 hrs 1.02 hrs 167.29 nm 23.43 gal 17.82 gal/hr 0.14 gal/nm 6507 msl 157 kts
Wed, Aug 12, 2020     18:53 18:53 0 hrs 0.00 hrs 0.00 nm 17.68 gal 5304.00 gal/hr 0.00 gal/nm 0 msl 0 kts
Wed, Aug 12, 2020 SCBQ SCBQ 18:12 18:14 0.03 hrs 0.00 hrs 0.00 nm 25.24 gal 977.03 gal/hr 0.00 gal/nm 0 msl 0 kts
Wed, Aug 12, 2020 SCBQ SCBQ 17:20 17:28 0.13 hrs 0.00 hrs 0.00 nm 0.83 gal 6.61 gal/hr 0.00 gal/nm 0 msl 0 kts
Wed, Aug 12, 2020 SCBQ SCBQ 17:02 17:16 0.23 hrs 0.00 hrs 0.00 nm 0.89 gal 3.87 gal/hr 0.00 gal/nm 0 msl 0 kts
Tue, Aug 11, 2020     19:44 19:45 0.01 hrs 0.00 hrs 0.00 nm 0.08 gal 7.38 gal/hr 0.00 gal/nm 0 msl 0 kts
Tue, Aug 11, 2020     15:53 15:53 0.01 hrs 0.00 hrs 0.00 nm 0.30 gal 41.54 gal/hr 0.00 gal/nm 0 msl 0 kts
Tue, Aug 11, 2020 SCER SCBQ 14:43 15:24 0.66 hrs 0.50 hrs 82.54 nm 10.87 gal 16.40 gal/hr 0.13 gal/nm 4725 msl 157 kts
Tue, Aug 11, 2020     14:37 14:37 0 hrs 0.00 hrs 0.00 nm 14.46 gal 4338.00 gal/hr 0.00 gal/nm 0 msl 0 kts
Tue, Aug 11, 2020 SCEL SCER 13:34 14:20 0.72 hrs 0.47 hrs 79.58 nm 9.93 gal 13.81 gal/hr 0.12 gal/nm 6010 msl 160 kts
Tue, Aug 11, 2020 SCBQ SCEL 12:36 12:57 0.35 hrs 0.14 hrs 17.12 nm 3.83 gal 10.99 gal/hr 0.22 gal/nm 4017 msl 122 kts
Tue, Aug 11, 2020 SCBQ SCBQ 12:22 12:22 0.01 hrs 0.00 hrs 0.00 nm 20.02 gal 2772.00 gal/hr 0.00 gal/nm 0 msl 0 kts
Tue, Aug 11, 2020 SCBQ SCBQ 12:02 12:03 0.02 hrs 0.00 hrs 0.00 nm 23.19 gal 1284.37 gal/hr 0.00 gal/nm 0 msl 0 kts
Mon, Aug 10, 2020 SCBQ SCBQ 20:26 20:28 0.02 hrs 0.00 hrs 0.00 nm 0.24 gal 10.80 gal/hr 0.00 gal/nm 0 msl 0 kts
Mon, Aug 10, 2020 SCBQ SCBQ 19:10 20:20 1.11 hrs 0.80 hrs 135.53 nm 18.04 gal 16.20 gal/hr 0.13 gal/nm 5655 msl 161 kts
Mon, Aug 10, 2020     19:07 19:07 0 hrs 0.00 hrs 0.00 nm 15.56 gal 4668.00 gal/hr 0.00 gal/nm 0 msl 0 kts
Mon, Aug 10, 2020 SCBQ SCBQ 12:11 12:12 0.02 hrs 0.00 hrs 0.00 nm 24.75 gal 1113.75 gal/hr 0.00 gal/nm 0 msl 0 kts
Fri, Aug 7, 2020 SCBQ SCBQ 16:59 17:02 0.04 hrs 0.00 hrs 0.00 nm 0.69 gal 16.78 gal/hr 0.00 gal/nm 0 msl 0 kts
Fri, Aug 7, 2020     16:53 16:53 0.01 hrs 0.00 hrs 0.00 nm 0.03 gal 4.15 gal/hr 0.00 gal/nm 0 msl 0 kts
Fri, Aug 7, 2020 SCBQ SCBQ 16:15 16:52 0.59 hrs 0.33 hrs 49.21 nm 6.61 gal 11.13 gal/hr 0.13 gal/nm 4509 msl 141 kts
Fri, Aug 7, 2020     16:11 16:12 0 hrs 0.00 hrs 0.00 nm 0.03 gal 9.82 gal/hr 0.00 gal/nm 0 msl 0 kts
Fri, Aug 7, 2020 SCBQ SCBQ 11:44 11:45 0.02 hrs 0.00 hrs 0.00 nm 24.17 gal 1087.65 gal/hr 0.00 gal/nm 0 msl 0 kts
Thu, Aug 6, 2020 SCBQ SCBQ 20:18 20:20 0.03 hrs 0.00 hrs 0.00 nm 23.78 gal 920.52 gal/hr 0.00 gal/nm 0 msl 0 kts
Thu, Aug 6, 2020 SCBQ SCBQ 18:20 20:09 1.73 hrs 1.39 hrs 213.93 nm 23.25 gal 13.43 gal/hr 0.11 gal/nm 6514 msl 146 kts
Thu, Aug 6, 2020     18:16 18:16 0.01 hrs 0.00 hrs 0.00 nm 0.56 gal 77.54 gal/hr 0.00 gal/nm 0 msl 0 kts
Thu, Aug 6, 2020     15:17 15:17 0 hrs 0.00 hrs 0.00 nm 0.06 gal 18.00 gal/hr 0.00 gal/nm 0 msl 0 kts
Thu, Aug 6, 2020     15:16 15:17 0.01 hrs 0.00 hrs 0.00 nm 0.02 gal 1.36 gal/hr 0.00 gal/nm 0 msl 0 kts
Wed, Aug 5, 2020 SCBQ SCBQ 18:49 18:53 0.07 hrs 0.00 hrs 0.00 nm 0.18 gal 2.66 gal/hr 0.00 gal/nm 0 msl 0 kts
Wed, Aug 5, 2020 SCBQ SCBQ 18:37 18:40 0.05 hrs 0.00 hrs 0.00 nm 0.05 gal 1.11 gal/hr 0.00 gal/nm 0 msl 0 kts
Wed, Aug 5, 2020 SCBQ SCBQ 18:34 18:36 0.04 hrs 0.00 hrs 0.00 nm 25.86 gal 624.81 gal/hr 0.00 gal/nm 0 msl 0 kts
Wed, Aug 5, 2020 SCBQ SCBQ 17:26 18:22 0.88 hrs 0.56 hrs 88.18 nm 12.78 gal 14.48 gal/hr 0.14 gal/nm 6014 msl 150 kts
Wed, Aug 5, 2020 SCBQ SCBQ 16:04 16:07 0.06 hrs 0.00 hrs 0.00 nm 24.64 gal 410.67 gal/hr 0.00 gal/nm 0 msl 0 kts
Tue, Aug 4, 2020 SCBQ SCBQ 19:48 20:01 0.2 hrs 0.00 hrs 0.00 nm 1.70 gal 8.34 gal/hr 0.00 gal/nm 0 msl 0 kts
Tue, Aug 4, 2020 SCBQ SCBQ 19:07 19:15 0.13 hrs 0.00 hrs 0.00 nm 0.38 gal 2.85 gal/hr 0.00 gal/nm 0 msl 0 kts
Thu, Jul 23, 2020     15:02 15:02 0.01 hrs 0.00 hrs 0.00 nm 0.16 gal 14.40 gal/hr 0.00 gal/nm 0 msl 0 kts
Fri, Jul 17, 2020 SCBQ SCBQ 20:29 20:42 0.21 hrs 0.00 hrs 0.00 nm 2.27 gal 10.92 gal/hr 0.00 gal/nm 0 msl 0 kts
Fri, Jul 17, 2020 SCBQ SCBQ 19:19 19:28 0.15 hrs 0.00 hrs 0.00 nm 1.21 gal 8.01 gal/hr 0.00 gal/nm 0 msl 0 kts
Fri, Jul 17, 2020 SCBQ SCBQ 15:47 16:01 0.24 hrs 0.00 hrs 0.00 nm 2.15 gal 9.02 gal/hr 0.00 gal/nm 0 msl 0 kts
Wed, Jul 15, 2020 SCBQ SCBQ 18:54 18:55 0.02 hrs 0.00 hrs 0.00 nm 0.08 gal 3.60 gal/hr 0.00 gal/nm 0 msl 0 kts
Wed, Jul 15, 2020 SCEL SCBQ 17:32 18:48 1.2 hrs 0.93 hrs 143.28 nm 19.40 gal 16.17 gal/hr 0.14 gal/nm 4506 msl 146 kts
Wed, Jul 15, 2020     17:26 17:26 0.01 hrs 0.00 hrs 0.00 nm 0.70 gal 96.92 gal/hr 0.00 gal/nm 0 msl 0 kts
Wed, Jul 15, 2020 SCEL SCEL 17:05 17:11 0.09 hrs 0.00 hrs 0.00 nm 0.49 gal 5.38 gal/hr 0.00 gal/nm 0 msl 0 kts
Wed, Jul 15, 2020 SCEL SCEL 16:46 16:51 0.08 hrs 0.00 hrs 0.00 nm 0.34 gal 4.09 gal/hr 0.00 gal/nm 0 msl 0 kts
Wed, Jul 15, 2020 SCEL SCEL 14:06 14:25 0.31 hrs 0.00 hrs 0.00 nm 1.29 gal 4.21 gal/hr 0.00 gal/nm 0 msl 0 kts
Wed, Jul 15, 2020     13:13 13:13 0.01 hrs 0.00 hrs 0.00 nm 0.05 gal 4.50 gal/hr 0.00 gal/nm 0 msl 0 kts
Fri, Jul 10, 2020     13:01 13:01 0 hrs 0.00 hrs 0.00 nm 0.24 gal 72.00 gal/hr 0.00 gal/nm 0 msl 0 kts
Fri, Jul 10, 2020     13:00 13:00 0 hrs 0.00 hrs 0.00 nm 0.04 gal 12.00 gal/hr 0.00 gal/nm 0 msl 0 kts
Fri, Jul 10, 2020 SCEL SCEL 12:37 12:42 0.08 hrs 0.00 hrs 0.00 nm 0.36 gal 4.60 gal/hr 0.00 gal/nm 0 msl 0 kts
Fri, Jul 10, 2020 SCBQ SCEL 12:04 12:27 0.38 hrs 0.15 hrs 21.70 nm 4.08 gal 10.77 gal/hr 0.19 gal/nm 3618 msl 142 kts
Fri, Jul 10, 2020     12:01 12:02 0.01 hrs 0.00 hrs 0.00 nm 0.87 gal 120.46 gal/hr 0.00 gal/nm 0 msl 0 kts
Fri, Jul 10, 2020 SCBQ SCBQ 11:17 11:21 0.07 hrs 0.00 hrs 0.00 nm 0.17 gal 2.51 gal/hr 0.00 gal/nm 0 msl 0 kts
Thu, Jul 9, 2020 SCBQ SCBQ 19:42 19:43 0.02 hrs 0.00 hrs 0.00 nm 0.33 gal 14.85 gal/hr 0.00 gal/nm 0 msl 0 kts
Thu, Jul 9, 2020 SCBQ SCBQ 18:06 19:33 1.38 hrs 0.94 hrs 120.12 nm 22.18 gal 16.05 gal/hr 0.18 gal/nm 7613 msl 120 kts
Thu, Jul 9, 2020 SCBQ SCBQ 18:01 18:02 0.01 hrs 0.00 hrs 0.00 nm 23.92 gal 2208.00 gal/hr 0.00 gal/nm 0 msl 0 kts
Thu, Jul 9, 2020 SCBQ SCBQ 16:50 16:54 0.08 hrs 0.00 hrs 0.00 nm 0.01 gal 0.14 gal/hr 0.00 gal/nm 0 msl 0 kts
Thu, Jul 9, 2020 SCBQ SCBQ 15:16 16:42 1.37 hrs 0.92 hrs 116.33 nm 21.36 gal 15.58 gal/hr 0.18 gal/nm 7853 msl 119 kts
Thu, Jul 9, 2020 SCBQ SCBQ 15:08 15:09 0.01 hrs 0.00 hrs 0.00 nm 24.07 gal 2221.85 gal/hr 0.00 gal/nm 0 msl 0 kts
Thu, Jul 9, 2020 SCBQ SCBQ 12:56 13:01 0.08 hrs 0.00 hrs 0.00 nm 0.01 gal 0.18 gal/hr 0.00 gal/nm 0 msl 0 kts
Wed, Jul 8, 2020 SCBQ SCBQ 20:28 20:31 0.04 hrs 0.00 hrs 0.00 nm 0.05 gal 1.34 gal/hr 0.00 gal/nm 0 msl 0 kts
Wed, Jul 8, 2020 SCBQ SCBQ 19:19 20:03 0.69 hrs 0.49 hrs 69.64 nm 11.72 gal 16.91 gal/hr 0.17 gal/nm 5063 msl 132 kts
Wed, Jul 8, 2020     19:16 19:17 0.01 hrs 0.00 hrs 0.00 nm 0.24 gal 34.56 gal/hr 0.00 gal/nm 0 msl 0 kts
Wed, Jul 8, 2020 SCBQ SCBQ 15:31 15:33 0.03 hrs 0.00 hrs 0.00 nm 0.47 gal 13.98 gal/hr 0.00 gal/nm 0 msl 0 kts
Wed, Jul 8, 2020 SCBQ SCBQ 15:00 15:15 0.25 hrs 0.00 hrs 0.00 nm 1.87 gal 7.58 gal/hr 0.00 gal/nm 0 msl 0 kts
Wed, Jul 8, 2020     13:30 13:31 0.02 hrs 0.00 hrs 0.00 nm 0.11 gal 6.00 gal/hr 0.00 gal/nm 0 msl 0 kts
Wed, Jul 8, 2020     13:21 13:22 0.01 hrs 0.00 hrs 0.00 nm 0.04 gal 5.76 gal/hr 0.00 gal/nm 0 msl 0 kts
Wed, Jul 8, 2020 SCBQ SCBQ 13:00 13:14 0.23 hrs 0.00 hrs 0.00 nm 1.40 gal 5.96 gal/hr 0.00 gal/nm 0 msl 0 kts
Tue, Jul 7, 2020 SCBQ SCBQ 16:01 16:08 0.12 hrs 0.00 hrs 0.00 nm 0.01 gal 0.12 gal/hr 0.00 gal/nm 0 msl 0 kts
Tue, Jul 7, 2020 SCBQ SCBQ 14:53 15:43 0.8 hrs 0.45 hrs 69.79 nm 11.21 gal 14.09 gal/hr 0.16 gal/nm 4651 msl 148 kts
Tue, Jul 7, 2020     14:48 14:48 0 hrs 0.00 hrs 0.00 nm 14.85 gal 4455.00 gal/hr 0.00 gal/nm 0 msl 0 kts
Tue, Jul 7, 2020 SCBQ SCBQ 14:22 14:30 0.13 hrs 0.00 hrs 0.00 nm 0.01 gal 0.06 gal/hr 0.00 gal/nm 0 msl 0 kts
Tue, Jul 7, 2020 SCBQ SCBQ 13:03 14:15 1.15 hrs 0.96 hrs 141.61 nm 20.61 gal 17.94 gal/hr 0.15 gal/nm 6907 msl 141 kts
Tue, Jul 7, 2020 SCBQ SCBQ 13:00 13:00 0.01 hrs 0.00 hrs 0.00 nm 22.97 gal 3180.46 gal/hr 0.00 gal/nm 0 msl 0 kts
Tue, Jul 7, 2020 SCBQ SCBQ 12:02 12:05 0.06 hrs 0.00 hrs 0.00 nm 0.02 gal 0.36 gal/hr 0.00 gal/nm 0 msl 0 kts
Mon, Jul 6, 2020 SCBQ SCBQ 18:55 19:00 0.08 hrs 0.00 hrs 0.00 nm 0.01 gal 0.13 gal/hr 0.00 gal/nm 0 msl 0 kts
Mon, Jul 6, 2020 SCBQ SCBQ 16:37 18:21 1.64 hrs 1.41 hrs 225.10 nm 30.88 gal 18.88 gal/hr 0.14 gal/nm 8511 msl 151 kts
Mon, Jul 6, 2020 SCBQ SCBQ 16:07 16:15 0.14 hrs 0.00 hrs 0.00 nm 0.02 gal 0.15 gal/hr 0.00 gal/nm 0 msl 0 kts
Mon, Jul 6, 2020 SCEL SCBQ 13:36 15:52 2.16 hrs 1.84 hrs 264.29 nm 30.13 gal 13.93 gal/hr 0.11 gal/nm 6514 msl 137 kts
Mon, Jul 6, 2020 SCBQ SCEL 13:01 13:28 0.42 hrs 0.14 hrs 20.29 nm 4.30 gal 10.13 gal/hr 0.21 gal/nm 3545 msl 136 kts
Mon, Jul 6, 2020 SCBQ SCBQ 12:51 12:53 0.04 hrs 0.00 hrs 0.00 nm 8.23 gal 219.47 gal/hr 0.00 gal/nm 0 msl 0 kts
Mon, Jul 6, 2020 SCBQ SCBQ 11:19 11:23 0.06 hrs 0.00 hrs 0.00 nm 0.02 gal 0.32 gal/hr 0.00 gal/nm 0 msl 0 kts
Fri, Jul 3, 2020 SCBQ SCBQ 19:18 19:21 0.05 hrs 0.00 hrs 0.00 nm 37.01 gal 704.95 gal/hr 0.00 gal/nm 0 msl 0 kts
Fri, Jul 3, 2020 SCBQ SCBQ 17:28 19:10 1.61 hrs 1.22 hrs 179.63 nm 25.49 gal 15.79 gal/hr 0.14 gal/nm 4614 msl 140 kts
Fri, Jul 3, 2020     17:22 17:23 0.01 hrs 0.00 hrs 0.00 nm 0.44 gal 40.62 gal/hr 0.00 gal/nm 0 msl 0 kts
Fri, Jul 3, 2020     17:08 17:08 0.01 hrs 0.00 hrs 0.00 nm 0.19 gal 12.91 gal/hr 0.00 gal/nm 0 msl 0 kts
Fri, Jul 3, 2020 SCEL SCBQ 16:40 17:01 0.34 hrs 0.10 hrs 13.41 nm 3.34 gal 9.81 gal/hr 0.25 gal/nm 3550 msl 122 kts
Fri, Jul 3, 2020     16:38 16:38 0.01 hrs 0.00 hrs 0.00 nm 0.75 gal 103.85 gal/hr 0.00 gal/nm 0 msl 0 kts
Fri, Jul 3, 2020 SCEL SCEL 15:01 15:10 0.15 hrs 0.00 hrs 0.00 nm 0.53 gal 3.61 gal/hr 0.00 gal/nm 0 msl 0 kts
Fri, Jul 3, 2020     14:57 14:58 0.01 hrs 0.00 hrs 0.00 nm 21.51 gal 3097.44 gal/hr 0.00 gal/nm 0 msl 0 kts
Fri, Jul 3, 2020 SCEL SCEL 01:12 01:20 0.13 hrs 0.00 hrs 0.00 nm 0.62 gal 4.83 gal/hr 0.00 gal/nm 0 msl 0 kts
Fri, Jul 3, 2020 SCEL SCEL 00:09 01:02 0.85 hrs 0.49 hrs 82.37 nm 11.67 gal 13.69 gal/hr 0.14 gal/nm 7017 msl 159 kts
Fri, Jul 3, 2020 SCEL SCEL 00:03 00:08 0.07 hrs 0.00 hrs 0.00 nm 0.63 gal 8.82 gal/hr 0.00 gal/nm 0 msl 0 kts
Thu, Jul 2, 2020 SCEL SCEL 23:54 23:58 0.08 hrs 0.00 hrs 0.00 nm 0.32 gal 4.24 gal/hr 0.00 gal/nm 0 msl 0 kts
Thu, Jul 2, 2020 SCEL SCEL 23:01 23:47 0.74 hrs 0.51 hrs 83.99 nm 12.11 gal 16.41 gal/hr 0.14 gal/nm 7014 msl 158 kts
Thu, Jul 2, 2020 SCEL SCEL 22:55 22:58 0.05 hrs 0.00 hrs 0.00 nm 0.14 gal 3.11 gal/hr 0.00 gal/nm 0 msl 0 kts
Thu, Jul 2, 2020 SCBQ SCEL 21:49 22:43 0.86 hrs 0.54 hrs 89.18 nm 12.69 gal 14.76 gal/hr 0.14 gal/nm 7075 msl 154 kts
Thu, Jul 2, 2020     21:05 21:06 0.01 hrs 0.00 hrs 0.00 nm 17.40 gal 1204.62 gal/hr 0.00 gal/nm 0 msl 0 kts
Thu, Jul 2, 2020 SCBQ SCBQ 19:54 21:00 1.05 hrs 0.69 hrs 88.24 nm 15.57 gal 14.85 gal/hr 0.18 gal/nm 4640 msl 120 kts
Thu, Jul 2, 2020 SCBQ SCBQ 19:34 19:35 0.02 hrs 0.00 hrs 0.00 nm 30.35 gal 1365.75 gal/hr 0.00 gal/nm 0 msl 0 kts
Thu, Jul 2, 2020 SCBQ SCBQ 17:09 17:14 0.08 hrs 0.00 hrs 0.00 nm 0.01 gal 0.07 gal/hr 0.00 gal/nm 0 msl 0 kts
Thu, Jul 2, 2020 SCBQ SCBQ 17:01 17:08 0.11 hrs 0.00 hrs 0.00 nm 0.02 gal 0.18 gal/hr 0.00 gal/nm 0 msl 0 kts
Thu, Jul 2, 2020 SCBQ SCBQ 16:38 16:55 0.28 hrs 0.00 hrs 0.00 nm 3.11 gal 11.10 gal/hr 0.00 gal/nm 0 msl 0 kts
Thu, Jul 2, 2020 SCBQ SCBQ 15:19 15:21 0.03 hrs 0.00 hrs 0.00 nm 0.09 gal 3.00 gal/hr 0.00 gal/nm 0 msl 0 kts
Thu, Jul 2, 2020 SCBQ SCBQ 14:38 14:39 0.03 hrs 0.00 hrs 0.00 nm 0.37 gal 12.33 gal/hr 0.00 gal/nm 0 msl 0 kts
Tue, Jun 30, 2020 SCBQ SCBQ 20:47 20:49 0.05 hrs 0.00 hrs 0.00 nm 0.08 gal 1.77 gal/hr 0.00 gal/nm 0 msl 0 kts
Tue, Jun 30, 2020 SCBQ SCBQ 17:36 20:23 2.66 hrs 2.35 hrs 406.23 nm 54.28 gal 20.43 gal/hr 0.13 gal/nm 7773 msl 165 kts
Tue, Jun 30, 2020 SCBQ SCBQ 17:32 17:34 0.03 hrs 0.00 hrs 0.00 nm 13.73 gal 461.94 gal/hr 0.00 gal/nm 0 msl 0 kts
Tue, Jun 30, 2020 SCBQ SCBQ 17:09 17:12 0.05 hrs 0.00 hrs 0.00 nm 0.05 gal 1.11 gal/hr 0.00 gal/nm 0 msl 0 kts
Tue, Jun 30, 2020 SCBQ SCBQ 15:37 17:03 1.37 hrs 1.11 hrs 163.02 nm 21.36 gal 15.62 gal/hr 0.13 gal/nm 4633 msl 140 kts
Tue, Jun 30, 2020     15:34 15:34 0 hrs 0.00 hrs 0.00 nm 15.46 gal 4638.00 gal/hr 0.00 gal/nm 0 msl 0 kts
Tue, Jun 30, 2020 SCBQ SCBQ 15:17 15:20 0.06 hrs 0.00 hrs 0.00 nm 0.00 gal 0.01 gal/hr 0.00 gal/nm 0 msl 0 kts
Tue, Jun 30, 2020 SCBQ SCBQ 13:14 15:05 1.76 hrs 1.50 hrs 223.90 nm 29.47 gal 16.73 gal/hr 0.13 gal/nm 5513 msl 142 kts
Tue, Jun 30, 2020     13:10 13:10 0.01 hrs 0.00 hrs 0.00 nm 0.07 gal 9.69 gal/hr 0.00 gal/nm 0 msl 0 kts
Tue, Jun 30, 2020 SCBQ SCBQ 12:45 12:49 0.07 hrs 0.00 hrs 0.00 nm 0.07 gal 0.98 gal/hr 0.00 gal/nm 0 msl 0 kts
Tue, Jun 30, 2020 SCBQ SCBQ 12:03 12:10 0.12 hrs 0.00 hrs 0.00 nm 0.02 gal 0.16 gal/hr 0.00 gal/nm 0 msl 0 kts
Fri, Jun 26, 2020 SCBQ SCBQ 19:24 19:27 0.06 hrs 0.00 hrs 0.00 nm 40.55 gal 719.11 gal/hr 0.00 gal/nm 0 msl 0 kts
Fri, Jun 26, 2020 SCBQ SCBQ 16:20 19:16 2.8 hrs 2.42 hrs 355.03 nm 39.52 gal 14.11 gal/hr 0.11 gal/nm 7509 msl 139 kts
Fri, Jun 26, 2020     16:17 16:17 0.01 hrs 0.00 hrs 0.00 nm 0.09 gal 12.46 gal/hr 0.00 gal/nm 0 msl 0 kts
Fri, Jun 26, 2020     15:32 15:33 0.01 hrs 0.00 hrs 0.00 nm 0.04 gal 3.69 gal/hr 0.00 gal/nm 0 msl 0 kts
Fri, Jun 26, 2020 SCBQ SCBQ 15:26 15:28 0.04 hrs 0.00 hrs 0.00 nm 35.45 gal 856.51 gal/hr 0.00 gal/nm 0 msl 0 kts
Fri, Jun 26, 2020 SCBQ SCBQ 13:15 15:18 1.95 hrs 1.63 hrs 274.66 nm 36.11 gal 18.54 gal/hr 0.13 gal/nm 7517 msl 160 kts
Fri, Jun 26, 2020     13:12 13:12 0 hrs 0.00 hrs 0.00 nm 15.14 gal 4542.00 gal/hr 0.00 gal/nm 0 msl 0 kts
Fri, Jun 26, 2020 SCBQ SCBQ 12:43 12:45 0.03 hrs 0.00 hrs 0.00 nm 0.11 gal 4.26 gal/hr 0.00 gal/nm 0 msl 0 kts
Thu, Jun 25, 2020 SCBQ SCBQ 20:04 20:13 0.15 hrs 0.00 hrs 0.00 nm 39.40 gal 267.12 gal/hr 0.00 gal/nm 0 msl 0 kts
Thu, Jun 25, 2020 SCBQ SCBQ 17:37 19:55 2.18 hrs 1.81 hrs 294.59 nm 38.59 gal 17.72 gal/hr 0.13 gal/nm 6509 msl 154 kts
Thu, Jun 25, 2020 SCBQ SCBQ 17:32 17:32 0.02 hrs 0.00 hrs 0.00 nm 0.00 gal 0.02 gal/hr 0.00 gal/nm 0 msl 0 kts
Thu, Jun 25, 2020 SCBQ SCBQ 17:00 17:04 0.07 hrs 0.00 hrs 0.00 nm 33.16 gal 489.25 gal/hr 0.00 gal/nm 0 msl 0 kts
Thu, Jun 25, 2020 SCBQ SCBQ 12:50 16:54 3.89 hrs 3.53 hrs 571.92 nm 66.69 gal 17.16 gal/hr 0.12 gal/nm 8507 msl 154 kts
Thu, Jun 25, 2020     12:45 12:46 0.02 hrs 0.00 hrs 0.00 nm 0.00 gal 0.00 gal/hr 0.00 gal/nm 0 msl 0 kts
Thu, Jun 25, 2020     12:43 12:43 0 hrs 0.00 hrs 0.00 nm 0.00 gal 0.00 gal/hr 0.00 gal/nm 0 msl 0 kts
Thu, Jun 25, 2020 SCBQ SCBQ 12:01 12:14 0.2 hrs 0.00 hrs 0.00 nm 0.03 gal 0.13 gal/hr 0.00 gal/nm 0 msl 0 kts
Wed, Jun 24, 2020 SCBQ SCBQ 19:26 21:08 1.61 hrs 1.30 hrs 196.45 nm 27.99 gal 17.38 gal/hr 0.14 gal/nm 8015 msl 143 kts
Wed, Jun 24, 2020     19:20 19:20 0 hrs 0.00 hrs 0.00 nm 14.78 gal 4434.00 gal/hr 0.00 gal/nm 0 msl 0 kts
Wed, Jun 24, 2020 SCBQ SCBQ 19:16 19:17 0.03 hrs 0.00 hrs 0.00 nm 0.03 gal 1.02 gal/hr 0.00 gal/nm 0 msl 0 kts
Wed, Jun 24, 2020 SCBQ SCBQ 17:28 19:06 1.58 hrs 1.27 hrs 159.23 nm 26.46 gal 16.75 gal/hr 0.17 gal/nm 6305 msl 120 kts
Wed, Jun 24, 2020     17:22 17:22 0.01 hrs 0.00 hrs 0.00 nm 26.55 gal 3676.15 gal/hr 0.00 gal/nm 0 msl 0 kts
Wed, Jun 24, 2020 SCBQ SCBQ 15:39 15:42 0.05 hrs 0.00 hrs 0.00 nm 0.20 gal 4.09 gal/hr 0.00 gal/nm 0 msl 0 kts
Wed, Jun 24, 2020     15:15 15:15 0 hrs 0.00 hrs 0.00 nm 0.01 gal 3.00 gal/hr 0.00 gal/nm 0 msl 0 kts
Wed, Jun 24, 2020     15:13 15:13 0.01 hrs 0.00 hrs 0.00 nm 0.05 gal 4.50 gal/hr 0.00 gal/nm 0 msl 0 kts
Fri, Jun 19, 2020     17:57 17:58 0.01 hrs 0.00 hrs 0.00 nm 0.26 gal 17.66 gal/hr 0.00 gal/nm 0 msl 0 kts
Fri, Jun 19, 2020 SCBQ SCBQ 16:03 17:30 1.42 hrs 0.95 hrs 108.79 nm 20.79 gal 14.67 gal/hr 0.19 gal/nm 7426 msl 112 kts
Fri, Jun 19, 2020     15:53 15:54 0.01 hrs 0.00 hrs 0.00 nm 0.05 gal 3.40 gal/hr 0.00 gal/nm 0 msl 0 kts
Fri, Jun 19, 2020 SCBQ SCBQ 12:49 12:55 0.1 hrs 0.00 hrs 0.00 nm 0.38 gal 3.74 gal/hr 0.00 gal/nm 0 msl 0 kts
Thu, Jun 18, 2020 SCBQ SCBQ 19:57 20:09 0.2 hrs 0.00 hrs 0.00 nm 0.33 gal 1.64 gal/hr 0.00 gal/nm 0 msl 0 kts
Thu, Jun 18, 2020 SCBQ SCBQ 19:44 19:46 0.03 hrs 0.00 hrs 0.00 nm 24.60 gal 827.66 gal/hr 0.00 gal/nm 0 msl 0 kts
Thu, Jun 18, 2020     19:36 19:37 0 hrs 0.00 hrs 0.00 nm 0.01 gal 3.27 gal/hr 0.00 gal/nm 0 msl 0 kts
Thu, Jun 18, 2020 SCBQ SCBQ 19:13 19:16 0.05 hrs 0.00 hrs 0.00 nm 40.32 gal 768.00 gal/hr 0.00 gal/nm 0 msl 0 kts
Thu, Jun 18, 2020 SCEL SCBQ 18:46 19:09 0.38 hrs 0.10 hrs 13.38 nm 3.05 gal 8.04 gal/hr 0.23 gal/nm 3737 msl 130 kts
Thu, Jun 18, 2020     18:36 18:36 0.01 hrs 0.00 hrs 0.00 nm 0.02 gal 2.77 gal/hr 0.00 gal/nm 0 msl 0 kts
Thu, Jun 18, 2020     18:25 18:25 0.01 hrs 0.00 hrs 0.00 nm 0.03 gal 4.15 gal/hr 0.00 gal/nm 0 msl 0 kts
Thu, Jun 18, 2020 SCBQ SCEL 15:31 18:16 2.59 hrs 2.00 hrs 320.07 nm 40.17 gal 15.49 gal/hr 0.13 gal/nm 5660 msl 148 kts
Thu, Jun 18, 2020     15:27 15:27 0 hrs 0.00 hrs 0.00 nm 0.43 gal 129.00 gal/hr 0.00 gal/nm 0 msl 0 kts
Thu, Jun 18, 2020     15:24 15:25 0.01 hrs 0.00 hrs 0.00 nm 0.08 gal 11.52 gal/hr 0.00 gal/nm 0 msl 0 kts
Thu, Jun 18, 2020 SCBQ SCBQ 15:00 15:01 0.03 hrs 0.00 hrs 0.00 nm 0.08 gal 3.06 gal/hr 0.00 gal/nm 0 msl 0 kts
Thu, Jun 18, 2020 SCBQ SCBQ 13:15 14:48 1.48 hrs 1.14 hrs 153.79 nm 23.57 gal 15.95 gal/hr 0.15 gal/nm 6324 msl 128 kts
Thu, Jun 18, 2020     13:13 13:13 0 hrs 0.00 hrs 0.00 nm 15.35 gal 4605.00 gal/hr 0.00 gal/nm 0 msl 0 kts
Thu, Jun 18, 2020 SCBQ SCBQ 11:51 11:54 0.05 hrs 0.00 hrs 0.00 nm 0.21 gal 4.30 gal/hr 0.00 gal/nm 0 msl 0 kts
Wed, Jun 17, 2020 SCBQ SCBQ 14:57 14:58 0.02 hrs 0.00 hrs 0.00 nm 11.86 gal 533.70 gal/hr 0.00 gal/nm 0 msl 0 kts
Tue, Jun 16, 2020     20:17 20:18 0.01 hrs 0.00 hrs 0.00 nm 0.12 gal 8.15 gal/hr 0.00 gal/nm 0 msl 0 kts
Tue, Jun 16, 2020 SCBQ SCBQ 19:11 20:11 0.97 hrs 0.74 hrs 96.60 nm 14.85 gal 15.37 gal/hr 0.15 gal/nm 4564 msl 127 kts
Tue, Jun 16, 2020     19:08 19:08 0.01 hrs 0.00 hrs 0.00 nm 0.20 gal 27.69 gal/hr 0.00 gal/nm 0 msl 0 kts
Tue, Jun 16, 2020 SCBQ SCBQ 16:33 16:36 0.05 hrs 0.00 hrs 0.00 nm 25.92 gal 493.71 gal/hr 0.00 gal/nm 0 msl 0 kts
Tue, Jun 16, 2020 SCBQ SCBQ 14:46 16:23 1.52 hrs 1.23 hrs 190.31 nm 25.01 gal 16.50 gal/hr 0.13 gal/nm 6510 msl 145 kts
Tue, Jun 16, 2020     14:43 14:43 0.01 hrs 0.00 hrs 0.00 nm 0.30 gal 41.54 gal/hr 0.00 gal/nm 0 msl 0 kts
Tue, Jun 16, 2020 SCBQ SCBQ 12:04 12:07 0.05 hrs 0.00 hrs 0.00 nm 0.47 gal 9.61 gal/hr 0.00 gal/nm 0 msl 0 kts
Mon, Jun 15, 2020     20:17 20:18 0 hrs 0.00 hrs 0.00 nm 1.16 gal 348.00 gal/hr 0.00 gal/nm 0 msl 0 kts
Mon, Jun 15, 2020 SCBQ SCBQ 17:49 20:11 2.28 hrs 1.91 hrs 284.95 nm 37.59 gal 16.51 gal/hr 0.13 gal/nm 7604 msl 143 kts
Mon, Jun 15, 2020     17:45 17:46 0.01 hrs 0.00 hrs 0.00 nm 0.67 gal 61.85 gal/hr 0.00 gal/nm 0 msl 0 kts
Mon, Jun 15, 2020 SCBQ SCBQ 12:43 12:45 0.03 hrs 0.00 hrs 0.00 nm 0.28 gal 8.33 gal/hr 0.00 gal/nm 0 msl 0 kts
Fri, Jun 12, 2020     18:04 18:05 0.01 hrs 0.00 hrs 0.00 nm 0.16 gal 10.87 gal/hr 0.00 gal/nm 0 msl 0 kts
Fri, Jun 12, 2020 SCBQ SCBQ 17:32 17:35 0.06 hrs 0.00 hrs 0.00 nm 0.42 gal 7.45 gal/hr 0.00 gal/nm 0 msl 0 kts
Fri, Jun 12, 2020 SCBQ SCBQ 13:55 14:11 0.27 hrs 0.00 hrs 0.00 nm 1.68 gal 6.15 gal/hr 0.00 gal/nm 0 msl 0 kts
Thu, Jun 11, 2020 SCBQ SCBQ 18:43 18:58 0.24 hrs 0.00 hrs 0.00 nm 1.27 gal 5.26 gal/hr 0.00 gal/nm 0 msl 0 kts
Thu, Jun 11, 2020 SCBQ SCBQ 14:56 14:59 0.05 hrs 0.00 hrs 0.00 nm 0.08 gal 1.78 gal/hr 0.00 gal/nm 0 msl 0 kts
Thu, Jun 11, 2020     14:47 14:48 0.02 hrs 0.00 hrs 0.00 nm 0.08 gal 4.36 gal/hr 0.00 gal/nm 0 msl 0 kts
Wed, Jun 10, 2020 SCBQ SCBQ 14:53 15:08 0.24 hrs 0.00 hrs 0.00 nm 1.10 gal 4.55 gal/hr 0.00 gal/nm 0 msl 0 kts
Tue, Jun 9, 2020 SCBQ SCBQ 18:42 18:55 0.21 hrs 0.00 hrs 0.00 nm 1.04 gal 4.93 gal/hr 0.00 gal/nm 0 msl 0 kts
Mon, Jun 8, 2020 SCBQ SCBQ 19:34 19:41 0.12 hrs 0.00 hrs 0.00 nm 0.60 gal 4.78 gal/hr 0.00 gal/nm 0 msl 0 kts
Mon, Jun 8, 2020 SCBQ SCBQ 13:56 14:08 0.2 hrs 0.00 hrs 0.00 nm 0.89 gal 4.52 gal/hr 0.00 gal/nm 0 msl 0 kts
Mon, Jun 8, 2020 SCBQ SCBQ 12:12 12:29 0.27 hrs 0.00 hrs 0.00 nm 0.19 gal 0.71 gal/hr 0.00 gal/nm 0 msl 0 kts
Fri, Jun 5, 2020 SCBQ SCBQ 19:22 19:27 0.09 hrs 0.00 hrs 0.00 nm 34.15 gal 394.04 gal/hr 0.00 gal/nm 0 msl 0 kts
Fri, Jun 5, 2020 SCBQ SCBQ 17:27 19:14 1.66 hrs 1.38 hrs 236.58 nm 31.97 gal 19.31 gal/hr 0.14 gal/nm 5829 msl 158 kts
Fri, Jun 5, 2020 SCBQ SCBQ 16:57 17:00 0.05 hrs 0.00 hrs 0.00 nm 0.01 gal 0.21 gal/hr 0.00 gal/nm 0 msl 0 kts
Fri, Jun 5, 2020 SCBQ SCBQ 14:03 16:48 2.63 hrs 2.31 hrs 345.52 nm 37.81 gal 14.39 gal/hr 0.11 gal/nm 8504 msl 143 kts
Fri, Jun 5, 2020     13:59 14:00 0.01 hrs 0.00 hrs 0.00 nm 0.04 gal 5.76 gal/hr 0.00 gal/nm 0 msl 0 kts
Fri, Jun 5, 2020 SCBQ SCBQ 13:46 13:47 0.03 hrs 0.00 hrs 0.00 nm 0.07 gal 2.68 gal/hr 0.00 gal/nm 0 msl 0 kts
Fri, Jun 5, 2020 SCBQ SCBQ 13:14 13:39 0.41 hrs 0.20 hrs 25.23 nm 5.25 gal 12.84 gal/hr 0.21 gal/nm 4619 msl 119 kts
Fri, Jun 5, 2020     13:08 13:08 0 hrs 0.00 hrs 0.00 nm 0.00 gal 0.00 gal/hr 0.00 gal/nm 0 msl 0 kts
Fri, Jun 5, 2020 SCBQ SCBQ 12:05 12:12 0.11 hrs 0.00 hrs 0.00 nm 0.01 gal 0.12 gal/hr 0.00 gal/nm 0 msl 0 kts
Thu, Jun 4, 2020 SCBQ SCBQ 18:20 20:12 1.79 hrs 1.48 hrs 234.21 nm 30.20 gal 16.87 gal/hr 0.13 gal/nm 9572 msl 151 kts
Thu, Jun 4, 2020 SCBQ SCBQ 15:47 15:56 0.14 hrs 0.00 hrs 0.00 nm 0.09 gal 0.63 gal/hr 0.00 gal/nm 0 msl 0 kts
Thu, Jun 4, 2020 SCBQ SCBQ 15:25 15:31 0.11 hrs 0.00 hrs 0.00 nm 0.01 gal 0.07 gal/hr 0.00 gal/nm 0 msl 0 kts
Thu, Jun 4, 2020     15:21 15:21 0 hrs 0.00 hrs 0.00 nm 0.03 gal 9.00 gal/hr 0.00 gal/nm 0 msl 0 kts
Thu, Jun 4, 2020 SCBQ SCBQ 13:14 15:11 1.87 hrs 1.52 hrs 255.52 nm 28.74 gal 15.36 gal/hr 0.11 gal/nm 8512 msl 161 kts
Thu, Jun 4, 2020     13:11 13:11 0.01 hrs 0.00 hrs 0.00 nm 0.00 gal 0.00 gal/hr 0.00 gal/nm 0 msl 0 kts
Thu, Jun 4, 2020 SCBQ SCBQ 12:01 12:05 0.07 hrs 0.00 hrs 0.00 nm 0.05 gal 0.68 gal/hr 0.00 gal/nm 0 msl 0 kts
Wed, Jun 3, 2020 SCBQ SCBQ 20:19 20:22 0.05 hrs 0.00 hrs 0.00 nm 0.02 gal 0.34 gal/hr 0.00 gal/nm 0 msl 0 kts
Wed, Jun 3, 2020 SCBQ SCBQ 17:42 20:02 2.24 hrs 1.97 hrs 312.35 nm 35.99 gal 16.07 gal/hr 0.12 gal/nm 8520 msl 151 kts
Wed, Jun 3, 2020 SCBQ SCBQ 17:24 17:28 0.06 hrs 0.00 hrs 0.00 nm 0.02 gal 0.24 gal/hr 0.00 gal/nm 0 msl 0 kts
Wed, Jun 3, 2020     14:56 14:56 0 hrs 0.00 hrs 0.00 nm 0.04 gal 12.00 gal/hr 0.00 gal/nm 0 msl 0 kts
Wed, Jun 3, 2020 SCBQ SCBQ 14:51 14:53 0.03 hrs 0.00 hrs 0.00 nm 0.09 gal 3.03 gal/hr 0.00 gal/nm 0 msl 0 kts
Wed, Jun 3, 2020 SCBQ SCBQ 14:41 14:50 0.14 hrs 0.00 hrs 0.00 nm 0.88 gal 6.12 gal/hr 0.00 gal/nm 0 msl 0 kts
Wed, Jun 3, 2020 SCBQ SCBQ 14:37 14:40 0.05 hrs 0.00 hrs 0.00 nm 0.50 gal 9.54 gal/hr 0.00 gal/nm 0 msl 0 kts
Wed, Jun 3, 2020 SCBQ SCBQ 14:27 14:32 0.08 hrs 0.00 hrs 0.00 nm 0.62 gal 8.23 gal/hr 0.00 gal/nm 0 msl 0 kts
Wed, Jun 3, 2020 SCBQ SCBQ 14:11 14:21 0.16 hrs 0.00 hrs 0.00 nm 0.82 gal 5.19 gal/hr 0.00 gal/nm 0 msl 0 kts
Wed, Jun 3, 2020 SCBQ SCBQ 14:00 14:07 0.11 hrs 0.00 hrs 0.00 nm 0.70 gal 6.38 gal/hr 0.00 gal/nm 0 msl 0 kts
Wed, Jun 3, 2020 SCBQ SCBQ 13:48 13:54 0.09 hrs 0.00 hrs 0.00 nm 0.81 gal 8.57 gal/hr 0.00 gal/nm 0 msl 0 kts
Wed, Jun 3, 2020 SCBQ SCBQ 13:34 13:46 0.2 hrs 0.00 hrs 0.00 nm 1.13 gal 5.52 gal/hr 0.00 gal/nm 0 msl 0 kts
Wed, Jun 3, 2020 SCBQ SCBQ 12:36 12:50 0.22 hrs 0.00 hrs 0.00 nm 2.34 gal 10.49 gal/hr 0.00 gal/nm 0 msl 0 kts
Tue, Jun 2, 2020 SCBQ SCBQ 20:15 20:25 0.15 hrs 0.00 hrs 0.00 nm 1.15 gal 7.41 gal/hr 0.00 gal/nm 0 msl 0 kts
Tue, Jun 2, 2020 SCBQ SCBQ 19:59 20:11 0.19 hrs 0.00 hrs 0.00 nm 1.27 gal 6.58 gal/hr 0.00 gal/nm 0 msl 0 kts
Tue, Jun 2, 2020 SCBQ SCBQ 19:14 19:27 0.22 hrs 0.00 hrs 0.00 nm 1.13 gal 5.13 gal/hr 0.00 gal/nm 0 msl 0 kts
Tue, Jun 2, 2020 SCBQ SCBQ 15:09 15:17 0.13 hrs 0.00 hrs 0.00 nm 0.93 gal 7.04 gal/hr 0.00 gal/nm 0 msl 0 kts
Tue, Jun 2, 2020 SCBQ SCBQ 14:49 14:59 0.16 hrs 0.00 hrs 0.00 nm 1.78 gal 10.94 gal/hr 0.00 gal/nm 0 msl 0 kts
Tue, Jun 2, 2020 SCBQ SCBQ 14:03 14:23 0.32 hrs 0.00 hrs 0.00 nm 2.64 gal 8.19 gal/hr 0.00 gal/nm 0 msl 0 kts
Tue, Jun 2, 2020     14:01 14:01 0 hrs 0.00 hrs 0.00 nm 14.77 gal 4431.00 gal/hr 0.00 gal/nm 0 msl 0 kts
Mon, Jun 1, 2020 SCBQ SCBQ 18:46 18:47 0.02 hrs 0.00 hrs 0.00 nm 0.10 gal 4.56 gal/hr 0.00 gal/nm 0 msl 0 kts
Mon, Jun 1, 2020 SCBQ SCBQ 17:30 18:34 1.02 hrs 0.68 hrs 115.68 nm 14.88 gal 14.60 gal/hr 0.13 gal/nm 7510 msl 162 kts
Mon, Jun 1, 2020     17:26 17:26 0 hrs 0.00 hrs 0.00 nm 9.85 gal 2955.00 gal/hr 0.00 gal/nm 0 msl 0 kts
Mon, Jun 1, 2020     12:17 12:18 0.01 hrs 0.00 hrs 0.00 nm 0.02 gal 1.85 gal/hr 0.00 gal/nm 0 msl 0 kts
Mon, Jun 1, 2020 SCBQ SCBQ 12:09 12:10 0.03 hrs 0.00 hrs 0.00 nm 0.06 gal 2.00 gal/hr 0.00 gal/nm 0 msl 0 kts
Fri, May 29, 2020     19:25 19:25 0.01 hrs 0.00 hrs 0.00 nm 0.24 gal 21.60 gal/hr 0.00 gal/nm 0 msl 0 kts
Fri, May 29, 2020 SCEL SCBQ 18:38 19:08 0.48 hrs 0.15 hrs 19.68 nm 3.99 gal 8.23 gal/hr 0.20 gal/nm 3166 msl 127 kts
Fri, May 29, 2020     18:34 18:35 0.01 hrs 0.00 hrs 0.00 nm 0.23 gal 15.62 gal/hr 0.00 gal/nm 0 msl 0 kts
Fri, May 29, 2020 SCEL SCEL 17:49 17:54 0.08 hrs 0.00 hrs 0.00 nm 1.00 gal 12.63 gal/hr 0.00 gal/nm 0 msl 0 kts
Thu, May 28, 2020     13:11 13:12 0.01 hrs 0.00 hrs 0.00 nm 0.25 gal 23.08 gal/hr 0.00 gal/nm 0 msl 0 kts
Thu, May 28, 2020     12:26 12:27 0.02 hrs 0.00 hrs 0.00 nm 0.13 gal 7.09 gal/hr 0.00 gal/nm 0 msl 0 kts
Thu, May 28, 2020     11:55 11:56 0.01 hrs 0.00 hrs 0.00 nm 0.02 gal 1.80 gal/hr 0.00 gal/nm 0 msl 0 kts
Thu, May 28, 2020     11:39 11:40 0.02 hrs 0.00 hrs 0.00 nm 0.11 gal 6.00 gal/hr 0.00 gal/nm 0 msl 0 kts
Wed, May 27, 2020     15:33 15:34 0.02 hrs 0.00 hrs 0.00 nm 0.19 gal 10.21 gal/hr 0.00 gal/nm 0 msl 0 kts
Wed, May 27, 2020     13:05 13:08 0.05 hrs 0.00 hrs 0.00 nm 0.11 gal 2.44 gal/hr 0.00 gal/nm 0 msl 0 kts
Mon, May 25, 2020 SCEL SCEL 19:47 20:01 0.22 hrs 0.00 hrs 0.00 nm 1.03 gal 4.63 gal/hr 0.00 gal/nm 0 msl 0 kts
Mon, May 18, 2020     21:49 21:50 0.02 hrs 0.00 hrs 0.00 nm 0.16 gal 7.20 gal/hr 0.00 gal/nm 0 msl 0 kts
Mon, May 18, 2020     21:21 21:22 0.01 hrs 0.00 hrs 0.00 nm 0.20 gal 18.46 gal/hr 0.00 gal/nm 0 msl 0 kts
Mon, May 18, 2020     20:29 20:31 0.03 hrs 0.00 hrs 0.00 nm 0.21 gal 6.25 gal/hr 0.00 gal/nm 0 msl 0 kts
Mon, May 18, 2020     20:24 20:27 0.05 hrs 0.00 hrs 0.00 nm 0.30 gal 5.71 gal/hr 0.00 gal/nm 0 msl 0 kts
Mon, May 18, 2020     20:12 20:14 0.04 hrs 0.00 hrs 0.00 nm 0.34 gal 8.27 gal/hr 0.00 gal/nm 0 msl 0 kts
Mon, May 18, 2020     20:03 20:04 0.02 hrs 0.00 hrs 0.00 nm 0.13 gal 5.85 gal/hr 0.00 gal/nm 0 msl 0 kts
Mon, May 18, 2020     19:25 19:26 0.01 hrs 0.00 hrs 0.00 nm 0.22 gal 14.94 gal/hr 0.00 gal/nm 0 msl 0 kts
Mon, May 18, 2020     18:57 18:58 0.02 hrs 0.00 hrs 0.00 nm 0.08 gal 4.36 gal/hr 0.00 gal/nm 0 msl 0 kts
Mon, May 18, 2020     18:48 18:50 0.03 hrs 0.00 hrs 0.00 nm 0.73 gal 21.72 gal/hr 0.00 gal/nm 0 msl 0 kts
Mon, May 18, 2020     18:43 18:46 0.04 hrs 0.00 hrs 0.00 nm 0.26 gal 6.99 gal/hr 0.00 gal/nm 0 msl 0 kts
Tue, May 12, 2020 SCEL SCEL 17:18 17:49 0.51 hrs 0.00 hrs 0.00 nm 0.49 gal 0.97 gal/hr 0.00 gal/nm 0 msl 0 kts
Tue, May 12, 2020     15:36 15:45 0.14 hrs 0.00 hrs 0.00 nm 0.30 gal 2.15 gal/hr 0.00 gal/nm 0 msl 0 kts
Thu, May 7, 2020     20:09 22:04 1.88 hrs 0.00 hrs 0.00 nm 1.29 gal 0.68 gal/hr 0.00 gal/nm 0 msl 0 kts
Mon, May 4, 2020 SCEL SCEL 21:13 21:28 0.24 hrs 0.00 hrs 0.00 nm 0.17 gal 0.70 gal/hr 0.00 gal/nm 0 msl 0 kts
Mon, May 4, 2020 SCEL SCEL 17:27 18:57 1.49 hrs 0.02 hrs 2.42 nm 0.37 gal 0.25 gal/hr 0.15 gal/nm 1416 msl 268 kts
Tue, Apr 28, 2020 SCEL SCEL 21:46 22:13 0.44 hrs 0.00 hrs 0.01 nm 0.83 gal 1.91 gal/hr 83.00 gal/nm 1364 msl 126 kts
Tue, Apr 28, 2020     19:56 19:57 0.01 hrs 0.00 hrs 0.00 nm 0.36 gal 33.23 gal/hr 0.00 gal/nm 0 msl 0 kts
Tue, Apr 28, 2020 SCEL SCEL 18:16 19:56 1.63 hrs 0.02 hrs 2.80 nm 0.60 gal 0.37 gal/hr 0.21 gal/nm 1361 msl 372 kts
Tue, Apr 28, 2020     15:07 15:07 0 hrs 0.00 hrs 0.00 nm 0.05 gal 15.00 gal/hr 0.00 gal/nm 0 msl 0 kts
Tue, Apr 28, 2020     15:04 15:06 0.04 hrs 0.00 hrs 0.00 nm 1.00 gal 24.16 gal/hr 0.00 gal/nm 0 msl 0 kts
Tue, Apr 28, 2020     15:01 15:02 0.01 hrs 0.00 hrs 0.00 nm 0.05 gal 4.62 gal/hr 0.00 gal/nm 0 msl 0 kts
Tue, Apr 28, 2020     14:58 15:00 0.03 hrs 0.00 hrs 0.00 nm 0.52 gal 15.47 gal/hr 0.00 gal/nm 0 msl 0 kts
Tue, Apr 28, 2020     14:20 14:20 0.01 hrs 0.00 hrs 0.00 nm 0.09 gal 8.10 gal/hr 0.00 gal/nm 0 msl 0 kts
Tue, Apr 28, 2020 SCEL SCEL 13:21 13:26 0.09 hrs 0.00 hrs 0.00 nm 0.90 gal 9.53 gal/hr 0.00 gal/nm 0 msl 0 kts
Tue, Apr 28, 2020 SCEL SCEL 13:08 13:12 0.06 hrs 0.00 hrs 0.00 nm 0.73 gal 13.01 gal/hr 0.00 gal/nm 0 msl 0 kts
Mon, Apr 27, 2020     14:19 14:20 0.01 hrs 0.00 hrs 0.00 nm 0.05 gal 4.62 gal/hr 0.00 gal/nm 0 msl 0 kts
Mon, Apr 27, 2020     14:05 14:05 0 hrs 0.00 hrs 0.00 nm 0.13 gal 39.00 gal/hr 0.00 gal/nm 0 msl 0 kts
Mon, Apr 27, 2020     13:03 13:05 0.03 hrs 0.00 hrs 0.00 nm 0.62 gal 18.76 gal/hr 0.00 gal/nm 0 msl 0 kts
Wed, Apr 22, 2020     19:52 19:52 0 hrs 0.00 hrs 0.00 nm 0.37 gal 111.00 gal/hr 0.00 gal/nm 0 msl 0 kts
Wed, Apr 22, 2020     19:29 19:29 0 hrs 0.00 hrs 0.00 nm 0.06 gal 18.00 gal/hr 0.00 gal/nm 0 msl 0 kts
Wed, Apr 22, 2020 SCEL SCEL 19:16 19:24 0.12 hrs 0.00 hrs 0.00 nm 0.83 gal 6.90 gal/hr 0.00 gal/nm 0 msl 0 kts
Wed, Apr 22, 2020 SCEL SCEL 19:08 19:12 0.06 hrs 0.00 hrs 0.00 nm 0.08 gal 1.24 gal/hr 0.00 gal/nm 0 msl 0 kts
Wed, Apr 22, 2020 SCBQ SCEL 18:42 19:06 0.39 hrs 0.13 hrs 17.10 nm 3.36 gal 8.52 gal/hr 0.20 gal/nm 4009 msl 131 kts
Wed, Apr 22, 2020 SCBQ SCBQ 17:57 18:01 0.06 hrs 0.00 hrs 0.00 nm 0.04 gal 0.64 gal/hr 0.00 gal/nm 0 msl 0 kts
Wed, Apr 22, 2020 SCBQ SCBQ 16:22 16:24 0.03 hrs 0.00 hrs 0.00 nm 0.39 gal 15.10 gal/hr 0.00 gal/nm 0 msl 0 kts
Wed, Apr 22, 2020 SCBQ SCBQ 14:26 14:41 0.25 hrs 0.00 hrs 0.00 nm 1.02 gal 4.08 gal/hr 0.00 gal/nm 0 msl 0 kts
Wed, Apr 22, 2020 SCBQ SCBQ 14:02 14:04 0.03 hrs 0.00 hrs 0.00 nm 0.12 gal 4.04 gal/hr 0.00 gal/nm 0 msl 0 kts
Tue, Apr 21, 2020     14:19 14:19 0.01 hrs 0.00 hrs 0.00 nm 0.03 gal 4.15 gal/hr 0.00 gal/nm 0 msl 0 kts
Thu, Apr 16, 2020 SCBQ SCBQ 14:24 14:27 0.06 hrs 0.00 hrs 0.00 nm 0.19 gal 3.14 gal/hr 0.00 gal/nm 0 msl 0 kts
Thu, Apr 16, 2020 SCBQ SCBQ 14:17 14:19 0.02 hrs 0.00 hrs 0.00 nm 0.20 gal 9.11 gal/hr 0.00 gal/nm 0 msl 0 kts
Mon, Apr 6, 2020 SCBQ SCBQ 17:07 17:17 0.17 hrs 0.00 hrs 0.00 nm 0.68 gal 3.88 gal/hr 0.00 gal/nm 0 msl 0 kts
Mon, Apr 6, 2020 SCBQ SCBQ 13:22 13:24 0.03 hrs 0.00 hrs 0.00 nm 0.16 gal 6.19 gal/hr 0.00 gal/nm 0 msl 0 kts
Fri, Apr 3, 2020 SCBQ SCBQ 12:20 12:27 0.12 hrs 0.00 hrs 0.00 nm 0.04 gal 0.37 gal/hr 0.00 gal/nm 0 msl 0 kts
Wed, Apr 1, 2020 SCBQ SCBQ 15:04 15:09 0.08 hrs 0.00 hrs 0.00 nm 7.97 gal 105.87 gal/hr 0.00 gal/nm 0 msl 0 kts
Wed, Apr 1, 2020 SCBQ SCBQ 15:00 15:03 0.05 hrs 0.00 hrs 0.00 nm 0.91 gal 20.22 gal/hr 0.00 gal/nm 0 msl 0 kts
Wed, Apr 1, 2020 SCBQ SCBQ 12:05 14:50 2.63 hrs 2.28 hrs 349.06 nm 39.56 gal 15.05 gal/hr 0.11 gal/nm 9515 msl 146 kts
Wed, Apr 1, 2020 SCBQ SCBQ 11:58 11:59 0.02 hrs 0.00 hrs 0.00 nm 2.37 gal 129.27 gal/hr 0.00 gal/nm 0 msl 0 kts
Wed, Apr 1, 2020     11:49 11:49 0 hrs 0.00 hrs 0.00 nm 0.00 gal 0.00 gal/hr 0.00 gal/nm 0 msl 0 kts
Wed, Apr 1, 2020 SCBQ SCBQ 11:14 11:18 0.07 hrs 0.00 hrs 0.00 nm 0.02 gal 0.31 gal/hr 0.00 gal/nm 0 msl 0 kts
Tue, Mar 31, 2020 SCBQ SCBQ 19:26 19:28 0.02 hrs 0.00 hrs 0.00 nm 0.06 gal 2.73 gal/hr 0.00 gal/nm 0 msl 0 kts
Tue, Mar 31, 2020 SCBQ SCBQ 16:58 19:20 2.22 hrs 2.05 hrs 327.50 nm 41.22 gal 18.53 gal/hr 0.13 gal/nm 7506 msl 150 kts
Tue, Mar 31, 2020     16:42 16:42 0.01 hrs 0.00 hrs 0.00 nm 0.02 gal 2.77 gal/hr 0.00 gal/nm 0 msl 0 kts
Tue, Mar 31, 2020 SCBQ SCBQ 14:28 16:33 1.97 hrs 1.65 hrs 260.65 nm 33.04 gal 16.75 gal/hr 0.13 gal/nm 7514 msl 148 kts
Tue, Mar 31, 2020     14:24 14:24 0 hrs 0.00 hrs 0.00 nm 0.03 gal 9.00 gal/hr 0.00 gal/nm 0 msl 0 kts
Tue, Mar 31, 2020 SCBQ SCBQ 13:55 13:57 0.03 hrs 0.00 hrs 0.00 nm 0.02 gal 0.68 gal/hr 0.00 gal/nm 0 msl 0 kts
Tue, Mar 31, 2020 SCBQ SCBQ 11:44 13:46 1.95 hrs 1.64 hrs 251.51 nm 32.45 gal 16.60 gal/hr 0.13 gal/nm 7528 msl 146 kts
Tue, Mar 31, 2020     11:38 11:38 0 hrs 0.00 hrs 0.00 nm 0.94 gal 282.00 gal/hr 0.00 gal/nm 0 msl 0 kts
Tue, Mar 31, 2020 SCBQ SCBQ 11:29 11:32 0.06 hrs 0.00 hrs 0.00 nm 0.02 gal 0.37 gal/hr 0.00 gal/nm 0 msl 0 kts
Mon, Mar 30, 2020 SCBQ SCBQ 18:52 18:56 0.08 hrs 0.00 hrs 0.00 nm 44.88 gal 564.92 gal/hr 0.00 gal/nm 0 msl 0 kts
Mon, Mar 30, 2020 SCBQ SCBQ 16:39 18:42 1.96 hrs 1.68 hrs 271.60 nm 36.27 gal 18.49 gal/hr 0.13 gal/nm 7521 msl 153 kts
Mon, Mar 30, 2020 SCBQ SCBQ 14:30 14:34 0.07 hrs 0.00 hrs 0.00 nm 0.02 gal 0.32 gal/hr 0.00 gal/nm 0 msl 0 kts
Mon, Mar 30, 2020     14:11 14:11 0.01 hrs 0.00 hrs 0.00 nm 0.03 gal 4.15 gal/hr 0.00 gal/nm 0 msl 0 kts
Mon, Mar 30, 2020 SCBQ SCBQ 12:29 14:03 1.49 hrs 1.08 hrs 141.87 nm 25.01 gal 16.77 gal/hr 0.18 gal/nm 6501 msl 124 kts
Mon, Mar 30, 2020     12:21 12:21 0.01 hrs 0.00 hrs 0.00 nm 9.12 gal 1262.77 gal/hr 0.00 gal/nm 0 msl 0 kts
Mon, Mar 30, 2020 SCBQ SCBQ 11:55 12:10 0.25 hrs 0.00 hrs 0.00 nm 0.02 gal 0.09 gal/hr 0.00 gal/nm 0 msl 0 kts
Fri, Mar 27, 2020 SCBQ SCBQ 11:15 11:18 0.06 hrs 0.00 hrs 0.00 nm 0.01 gal 0.24 gal/hr 0.00 gal/nm 0 msl 0 kts
Thu, Mar 26, 2020 SCBQ SCBQ 16:38 19:00 2.25 hrs 1.76 hrs 283.67 nm 35.60 gal 15.82 gal/hr 0.13 gal/nm 6575 msl 152 kts
Thu, Mar 26, 2020 SCBQ SCBQ 15:05 15:07 0.03 hrs 0.00 hrs 0.00 nm 0.15 gal 4.46 gal/hr 0.00 gal/nm 0 msl 0 kts
Thu, Mar 26, 2020 SCBQ SCBQ 13:49 14:01 0.2 hrs 0.00 hrs 0.00 nm 1.39 gal 6.82 gal/hr 0.00 gal/nm 0 msl 0 kts
Thu, Mar 26, 2020 SCBQ SCBQ 13:17 13:22 0.09 hrs 0.00 hrs 0.00 nm 0.37 gal 4.27 gal/hr 0.00 gal/nm 0 msl 0 kts
Wed, Mar 25, 2020 SCBQ SCBQ 18:36 18:37 0.01 hrs 0.00 hrs 0.00 nm 9.70 gal 658.87 gal/hr 0.00 gal/nm 0 msl 0 kts
Wed, Mar 25, 2020 SCBQ SCBQ 16:37 18:28 1.75 hrs 1.42 hrs 225.65 nm 28.86 gal 16.45 gal/hr 0.13 gal/nm 4536 msl 151 kts
Wed, Mar 25, 2020     16:33 16:33 0 hrs 0.00 hrs 0.00 nm 6.94 gal 2082.00 gal/hr 0.00 gal/nm 0 msl 0 kts
Wed, Mar 25, 2020     15:59 15:59 0.01 hrs 0.00 hrs 0.00 nm 0.04 gal 3.60 gal/hr 0.00 gal/nm 0 msl 0 kts
Wed, Mar 25, 2020 SCBQ SCBQ 11:59 15:34 3.41 hrs 3.21 hrs 550.44 nm 62.40 gal 18.29 gal/hr 0.11 gal/nm 7509 msl 163 kts
Wed, Mar 25, 2020 SCBQ SCBQ 11:35 11:37 0.03 hrs 0.00 hrs 0.00 nm 0.00 gal 0.00 gal/hr 0.00 gal/nm 0 msl 0 kts
Wed, Mar 25, 2020 SCBQ SCBQ 10:55 11:01 0.11 hrs 0.00 hrs 0.00 nm 0.29 gal 2.74 gal/hr 0.00 gal/nm 0 msl 0 kts
Tue, Mar 24, 2020     19:17 19:18 0.01 hrs 0.00 hrs 0.00 nm 13.02 gal 884.38 gal/hr 0.00 gal/nm 0 msl 0 kts
Tue, Mar 24, 2020 SCBQ SCBQ 17:30 19:13 1.64 hrs 1.35 hrs 234.84 nm 27.30 gal 16.67 gal/hr 0.12 gal/nm 8555 msl 166 kts
Tue, Mar 24, 2020 SCBQ SCBQ 16:53 16:55 0.04 hrs 0.00 hrs 0.00 nm 0.13 gal 3.47 gal/hr 0.00 gal/nm 0 msl 0 kts
Tue, Mar 24, 2020 SCBQ SCBQ 15:20 16:49 1.42 hrs 1.14 hrs 171.33 nm 24.36 gal 17.20 gal/hr 0.14 gal/nm 4526 msl 143 kts
Tue, Mar 24, 2020     15:16 15:16 0 hrs 0.00 hrs 0.00 nm 6.22 gal 1866.00 gal/hr 0.00 gal/nm 0 msl 0 kts
Tue, Mar 24, 2020     14:32 14:32 0 hrs 0.00 hrs 0.00 nm 0.01 gal 3.00 gal/hr 0.00 gal/nm 0 msl 0 kts
Tue, Mar 24, 2020 SCBQ SCBQ 14:19 14:20 0.02 hrs 0.00 hrs 0.00 nm 0.50 gal 27.27 gal/hr 0.00 gal/nm 0 msl 0 kts
Tue, Mar 24, 2020 SCBQ SCBQ 13:06 14:15 1.11 hrs 0.78 hrs 107.77 nm 18.05 gal 16.33 gal/hr 0.17 gal/nm 4571 msl 132 kts
Tue, Mar 24, 2020 SCBQ SCBQ 12:13 12:15 0.03 hrs 0.00 hrs 0.00 nm 0.08 gal 3.10 gal/hr 0.00 gal/nm 0 msl 0 kts
Mon, Mar 23, 2020 SCBQ SCBQ 19:22 19:22 0.01 hrs 0.00 hrs 0.00 nm 8.19 gal 775.89 gal/hr 0.00 gal/nm 0 msl 0 kts
Mon, Mar 23, 2020 SCBQ SCBQ 17:53 19:14 1.28 hrs 0.89 hrs 116.28 nm 19.89 gal 15.50 gal/hr 0.17 gal/nm 6506 msl 123 kts
Mon, Mar 23, 2020 SCBQ SCBQ 17:18 17:19 0.03 hrs 0.00 hrs 0.00 nm 10.30 gal 394.47 gal/hr 0.00 gal/nm 0 msl 0 kts
Mon, Mar 23, 2020 SCBQ SCBQ 14:45 17:02 2.19 hrs 1.87 hrs 280.96 nm 38.61 gal 17.63 gal/hr 0.14 gal/nm 6542 msl 144 kts
Mon, Mar 23, 2020     14:41 14:42 0.01 hrs 0.00 hrs 0.00 nm 11.72 gal 1687.68 gal/hr 0.00 gal/nm 0 msl 0 kts
Mon, Mar 23, 2020 SCBQ SCBQ 11:12 11:16 0.07 hrs 0.00 hrs 0.00 nm 0.71 gal 10.48 gal/hr 0.00 gal/nm 0 msl 0 kts
Fri, Mar 20, 2020 SCBQ SCBQ 18:48 18:50 0.03 hrs 0.00 hrs 0.00 nm 26.16 gal 778.31 gal/hr 0.00 gal/nm 0 msl 0 kts
Fri, Mar 20, 2020 SCBQ SCBQ 16:58 18:43 1.64 hrs 1.35 hrs 214.18 nm 27.01 gal 16.43 gal/hr 0.13 gal/nm 4557 msl 149 kts
Fri, Mar 20, 2020     16:55 16:55 0.01 hrs 0.00 hrs 0.00 nm 9.27 gal 1283.54 gal/hr 0.00 gal/nm 0 msl 0 kts
Fri, Mar 20, 2020 SCBQ SCBQ 12:26 12:28 0.03 hrs 0.00 hrs 0.00 nm 0.06 gal 1.79 gal/hr 0.00 gal/nm 0 msl 0 kts
Fri, Mar 20, 2020 SCBQ SCBQ 11:00 12:15 1.19 hrs 0.82 hrs 111.38 nm 18.35 gal 15.39 gal/hr 0.16 gal/nm 4615 msl 128 kts
Fri, Mar 20, 2020     10:56 10:56 0 hrs 0.00 hrs 0.00 nm 0.08 gal 24.00 gal/hr 0.00 gal/nm 0 msl 0 kts
Fri, Mar 20, 2020 SCBQ SCBQ 10:40 10:43 0.06 hrs 0.00 hrs 0.00 nm 10.43 gal 173.03 gal/hr 0.00 gal/nm 0 msl 0 kts
Thu, Mar 19, 2020 SCBQ SCBQ 19:30 19:34 0.06 hrs 0.00 hrs 0.00 nm 0.00 gal 0.05 gal/hr 0.00 gal/nm 0 msl 0 kts
Thu, Mar 19, 2020 SCBQ SCBQ 17:49 19:00 1.15 hrs 0.84 hrs 114.85 nm 20.87 gal 18.20 gal/hr 0.18 gal/nm 4610 msl 130 kts
Thu, Mar 19, 2020 SCBQ SCBQ 17:44 17:45 0.01 hrs 0.00 hrs 0.00 nm 15.66 gal 1445.54 gal/hr 0.00 gal/nm 0 msl 0 kts
Thu, Mar 19, 2020 SCBQ SCBQ 16:13 16:16 0.04 hrs 0.00 hrs 0.00 nm 10.54 gal 283.16 gal/hr 0.00 gal/nm 0 msl 0 kts
Thu, Mar 19, 2020 SCBQ SCBQ 13:48 16:06 2.21 hrs 1.91 hrs 337.66 nm 35.58 gal 16.11 gal/hr 0.11 gal/nm 8513 msl 168 kts
Thu, Mar 19, 2020 SCBQ SCBQ 13:42 13:43 0.01 hrs 0.00 hrs 0.00 nm 2.22 gal 150.79 gal/hr 0.00 gal/nm 0 msl 0 kts
Thu, Mar 19, 2020 SCBQ SCBQ 10:44 10:45 0.01 hrs 0.00 hrs 0.00 nm 9.73 gal 660.91 gal/hr 0.00 gal/nm 0 msl 0 kts
Wed, Mar 18, 2020 SCBQ SCBQ 19:52 19:54 0.04 hrs 0.00 hrs 0.00 nm 0.17 gal 3.80 gal/hr 0.00 gal/nm 0 msl 0 kts
Wed, Mar 18, 2020 SCBQ SCTB 17:34 19:45 2.08 hrs 1.75 hrs 283.66 nm 35.20 gal 16.96 gal/hr 0.12 gal/nm 5520 msl 152 kts
Wed, Mar 18, 2020     17:31 17:31 0.01 hrs 0.00 hrs 0.00 nm 0.00 gal 0.00 gal/hr 0.00 gal/nm 0 msl 0 kts
Wed, Mar 18, 2020     16:31 16:32 0.01 hrs 0.00 hrs 0.00 nm 0.19 gal 17.54 gal/hr 0.00 gal/nm 0 msl 0 kts
Wed, Mar 18, 2020 SCBQ SCBQ 15:44 16:23 0.61 hrs 0.44 hrs 54.44 nm 10.69 gal 17.45 gal/hr 0.20 gal/nm 4770 msl 114 kts
Wed, Mar 18, 2020 SCBQ SCBQ 15:39 15:44 0.07 hrs 0.00 hrs 0.00 nm 0.05 gal 0.78 gal/hr 0.00 gal/nm 0 msl 0 kts
Wed, Mar 18, 2020 SCBQ SCBQ 15:02 15:06 0.06 hrs 0.00 hrs 0.00 nm 10.57 gal 165.44 gal/hr 0.00 gal/nm 0 msl 0 kts
Wed, Mar 18, 2020 SCEL SCBQ 13:36 14:02 0.41 hrs 0.13 hrs 14.72 nm 3.48 gal 8.60 gal/hr 0.24 gal/nm 3549 msl 107 kts
Wed, Mar 18, 2020     13:34 13:34 0 hrs 0.00 hrs 0.00 nm 0.02 gal 6.00 gal/hr 0.00 gal/nm 0 msl 0 kts
Wed, Mar 18, 2020 SCEL SCEL 12:54 12:57 0.04 hrs 0.00 hrs 0.00 nm 10.47 gal 254.68 gal/hr 0.00 gal/nm 0 msl 0 kts
Wed, Mar 18, 2020     01:26 01:26 0.01 hrs 0.00 hrs 0.00 nm 0.07 gal 9.69 gal/hr 0.00 gal/nm 0 msl 0 kts
Wed, Mar 18, 2020 SCEL SCEL 00:18 01:17 0.95 hrs 0.65 hrs 101.62 nm 13.70 gal 14.41 gal/hr 0.13 gal/nm 7019 msl 150 kts
Tue, Mar 17, 2020 SCBQ SCEL 23:12 00:07 0.89 hrs 0.62 hrs 96.84 nm 12.81 gal 14.46 gal/hr 0.13 gal/nm 7151 msl 150 kts
Tue, Mar 17, 2020     22:58 22:59 0.01 hrs 0.00 hrs 0.00 nm 0.02 gal 2.88 gal/hr 0.00 gal/nm 0 msl 0 kts
Tue, Mar 17, 2020 SCBQ SCBQ 20:29 20:35 0.09 hrs 0.00 hrs 0.00 nm 0.03 gal 0.32 gal/hr 0.00 gal/nm 0 msl 0 kts
Tue, Mar 17, 2020 SCBQ SCBQ 18:24 20:22 1.89 hrs 1.59 hrs 262.93 nm 30.30 gal 16.04 gal/hr 0.12 gal/nm 7512 msl 157 kts
Tue, Mar 17, 2020     18:21 18:21 0 hrs 0.00 hrs 0.00 nm 0.09 gal 27.00 gal/hr 0.00 gal/nm 0 msl 0 kts
Tue, Mar 17, 2020 SCBQ SCBQ 17:49 17:51 0.03 hrs 0.00 hrs 0.00 nm 0.04 gal 1.35 gal/hr 0.00 gal/nm 0 msl 0 kts
Tue, Mar 17, 2020 SCBQ SCBQ 15:46 17:43 1.88 hrs 1.53 hrs 252.67 nm 32.02 gal 17.04 gal/hr 0.13 gal/nm 8505 msl 158 kts
Tue, Mar 17, 2020     15:42 15:42 0.01 hrs 0.00 hrs 0.00 nm 0.09 gal 12.46 gal/hr 0.00 gal/nm 0 msl 0 kts
Tue, Mar 17, 2020 SCBQ SCBQ 12:46 14:51 1.98 hrs 1.66 hrs 273.00 nm 36.35 gal 18.33 gal/hr 0.13 gal/nm 7506 msl 156 kts
Tue, Mar 17, 2020 SCBQ SCBQ 11:40 11:43 0.06 hrs 0.00 hrs 0.00 nm 11.27 gal 199.86 gal/hr 0.00 gal/nm 0 msl 0 kts
Mon, Mar 16, 2020     11:17 11:18 0.01 hrs 0.00 hrs 0.00 nm 0.04 gal 3.69 gal/hr 0.00 gal/nm 0 msl 0 kts
Fri, Mar 13, 2020 SCBQ SCBQ 18:37 18:38 0.02 hrs 0.00 hrs 0.00 nm 17.85 gal 813.42 gal/hr 0.00 gal/nm 0 msl 0 kts
Fri, Mar 13, 2020 SCBQ SCBQ 17:10 18:31 1.29 hrs 0.95 hrs 155.20 nm 19.42 gal 15.08 gal/hr 0.13 gal/nm 4611 msl 154 kts
Fri, Mar 13, 2020     17:05 17:05 0.01 hrs 0.00 hrs 0.00 nm 0.00 gal 0.02 gal/hr 0.00 gal/nm 0 msl 0 kts
Fri, Mar 13, 2020 SCBQ SCBQ 16:34 16:36 0.04 hrs 0.00 hrs 0.00 nm 0.03 gal 0.67 gal/hr 0.00 gal/nm 0 msl 0 kts
Fri, Mar 13, 2020 SCBQ SCBQ 15:45 16:28 0.69 hrs 0.42 hrs 56.76 nm 9.91 gal 14.46 gal/hr 0.17 gal/nm 3597 msl 124 kts
Fri, Mar 13, 2020     15:42 15:42 0 hrs 0.00 hrs 0.00 nm 0.04 gal 12.00 gal/hr 0.00 gal/nm 0 msl 0 kts
Fri, Mar 13, 2020     14:42 14:42 0 hrs 0.00 hrs 0.00 nm 0.07 gal 21.00 gal/hr 0.00 gal/nm 0 msl 0 kts
Fri, Mar 13, 2020 SCBQ SCBQ 13:25 14:38 1.2 hrs 0.83 hrs 114.81 nm 18.08 gal 15.10 gal/hr 0.16 gal/nm 6224 msl 135 kts
Fri, Mar 13, 2020     13:19 13:20 0.01 hrs 0.00 hrs 0.00 nm 9.20 gal 849.23 gal/hr 0.00 gal/nm 0 msl 0 kts
Fri, Mar 13, 2020 SCBQ SCBQ 10:59 11:14 0.26 hrs 0.00 hrs 0.00 nm 0.47 gal 1.83 gal/hr 0.00 gal/nm 0 msl 0 kts
Thu, Mar 12, 2020 SCBQ SCBQ 18:43 18:44 0.02 hrs 0.00 hrs 0.00 nm 0.00 gal 0.20 gal/hr 0.00 gal/nm 0 msl 0 kts
Thu, Mar 12, 2020 SCBQ SCBQ 17:13 18:17 1.04 hrs 0.76 hrs 100.06 nm 15.62 gal 15.00 gal/hr 0.16 gal/nm 6174 msl 129 kts
Thu, Mar 12, 2020 SCBQ SCBQ 17:08 17:10 0.02 hrs 0.00 hrs 0.00 nm 0.00 gal 0.01 gal/hr 0.00 gal/nm 0 msl 0 kts
Thu, Mar 12, 2020 SCBQ SCBQ 16:25 16:27 0.04 hrs 0.00 hrs 0.00 nm 0.29 gal 7.73 gal/hr 0.00 gal/nm 0 msl 0 kts
Thu, Mar 12, 2020 SCBQ SCBQ 14:17 16:15 1.87 hrs 1.65 hrs 277.57 nm 35.61 gal 19.02 gal/hr 0.13 gal/nm 5523 msl 160 kts
Thu, Mar 12, 2020 SCBQ SCBQ 13:51 13:54 0.04 hrs 0.00 hrs 0.00 nm 17.09 gal 415.70 gal/hr 0.00 gal/nm 0 msl 0 kts
Thu, Mar 12, 2020 SCBQ SCBQ 11:58 13:42 1.66 hrs 1.30 hrs 197.48 nm 20.93 gal 12.61 gal/hr 0.11 gal/nm 7509 msl 146 kts
Thu, Mar 12, 2020 SCBQ SCBQ 10:53 10:59 0.1 hrs 0.00 hrs 0.00 nm 0.01 gal 0.08 gal/hr 0.00 gal/nm 0 msl 0 kts
Wed, Mar 11, 2020 SCBQ SCBQ 13:39 13:55 0.27 hrs 0.00 hrs 0.00 nm 0.56 gal 2.11 gal/hr 0.00 gal/nm 0 msl 0 kts
Wed, Mar 11, 2020 SCBQ SCBQ 13:33 13:37 0.07 hrs 0.00 hrs 0.00 nm 0.19 gal 2.80 gal/hr 0.00 gal/nm 0 msl 0 kts
Wed, Mar 11, 2020 SCBQ SCBQ 11:23 11:25 0.02 hrs 0.00 hrs 0.00 nm 0.05 gal 2.77 gal/hr 0.00 gal/nm 0 msl 0 kts
Tue, Mar 10, 2020 SCBQ SCBQ 19:09 19:10 0.01 hrs 0.00 hrs 0.00 nm 10.05 gal 927.69 gal/hr 0.00 gal/nm 0 msl 0 kts
Tue, Mar 10, 2020 SCBQ SCBQ 17:25 19:02 1.57 hrs 1.20 hrs 158.16 nm 25.08 gal 15.96 gal/hr 0.16 gal/nm 4597 msl 127 kts
Tue, Mar 10, 2020 SCBQ SCBQ 17:16 17:17 0.01 hrs 0.00 hrs 0.00 nm 10.31 gal 700.30 gal/hr 0.00 gal/nm 0 msl 0 kts
Tue, Mar 10, 2020 SCBQ SCBQ 15:49 15:52 0.05 hrs 0.00 hrs 0.00 nm 0.10 gal 2.05 gal/hr 0.00 gal/nm 0 msl 0 kts
Tue, Mar 10, 2020 SCBQ SCBQ 12:13 15:41 3.28 hrs 3.03 hrs 540.85 nm 63.31 gal 19.28 gal/hr 0.12 gal/nm 9013 msl 169 kts
Tue, Mar 10, 2020 SCBQ SCBQ 10:54 10:57 0.05 hrs 0.00 hrs 0.00 nm 11.40 gal 253.33 gal/hr 0.00 gal/nm 0 msl 0 kts
Mon, Mar 9, 2020 SCBQ SCBQ 16:17 18:51 2.45 hrs 2.11 hrs 323.72 nm 44.59 gal 18.21 gal/hr 0.14 gal/nm 6529 msl 147 kts
Mon, Mar 9, 2020     16:10 16:10 0 hrs 0.00 hrs 0.00 nm 6.53 gal 1959.00 gal/hr 0.00 gal/nm 0 msl 0 kts
Mon, Mar 9, 2020     16:08 16:08 0 hrs 0.00 hrs 0.00 nm 5.18 gal 1864.80 gal/hr 0.00 gal/nm 0 msl 0 kts
Mon, Mar 9, 2020 SCBQ SCBQ 15:26 15:33 0.11 hrs 0.00 hrs 0.00 nm 30.23 gal 276.21 gal/hr 0.00 gal/nm 0 msl 0 kts
Mon, Mar 9, 2020 SCEL SCBQ 14:14 15:19 1.04 hrs 0.11 hrs 13.90 nm 5.71 gal 5.48 gal/hr 0.41 gal/nm 3629 msl 120 kts
Mon, Mar 9, 2020 SCEL SCEL 14:07 14:10 0.05 hrs 0.00 hrs 0.00 nm 0.01 gal 0.13 gal/hr 0.00 gal/nm 0 msl 0 kts
Fri, Mar 6, 2020     14:40 14:41 0.01 hrs 0.00 hrs 0.00 nm 0.06 gal 4.08 gal/hr 0.00 gal/nm 0 msl 0 kts
Fri, Mar 6, 2020     14:38 14:39 0.02 hrs 0.00 hrs 0.00 nm 0.07 gal 3.82 gal/hr 0.00 gal/nm 0 msl 0 kts
Fri, Mar 6, 2020     14:30 14:31 0.02 hrs 0.00 hrs 0.00 nm 0.07 gal 3.82 gal/hr 0.00 gal/nm 0 msl 0 kts
Fri, Mar 6, 2020     14:23 14:24 0.01 hrs 0.00 hrs 0.00 nm 0.04 gal 2.72 gal/hr 0.00 gal/nm 0 msl 0 kts
Fri, Mar 6, 2020 SCEL SCEL 12:54 13:08 0.23 hrs 0.00 hrs 0.00 nm 1.13 gal 4.92 gal/hr 0.00 gal/nm 0 msl 0 kts
Thu, Mar 5, 2020     17:59 18:00 0.02 hrs 0.00 hrs 0.00 nm 0.17 gal 7.65 gal/hr 0.00 gal/nm 0 msl 0 kts
Thu, Mar 5, 2020 SCEL SCEL 16:21 16:32 0.19 hrs 0.00 hrs 0.00 nm 0.89 gal 4.70 gal/hr 0.00 gal/nm 0 msl 0 kts
Tue, Mar 3, 2020 SCEL SCEL 15:43 15:53 0.16 hrs 0.00 hrs 0.00 nm 1.09 gal 6.70 gal/hr 0.00 gal/nm 0 msl 0 kts
Tue, Mar 3, 2020 SCBQ SCEL 15:13 15:39 0.41 hrs 0.18 hrs 24.41 nm 4.35 gal 10.54 gal/hr 0.18 gal/nm 3604 msl 131 kts
Tue, Mar 3, 2020     15:10 15:10 0 hrs 0.00 hrs 0.00 nm 0.07 gal 21.00 gal/hr 0.00 gal/nm 0 msl 0 kts
Tue, Mar 3, 2020 SCBQ SCBQ 11:48 11:51 0.05 hrs 0.00 hrs 0.00 nm 0.06 gal 1.23 gal/hr 0.00 gal/nm 0 msl 0 kts
Mon, Mar 2, 2020     14:55 14:56 0.01 hrs 0.00 hrs 0.00 nm 0.01 gal 1.44 gal/hr 0.00 gal/nm 0 msl 0 kts
Mon, Mar 2, 2020 SCBQ SCBQ 12:22 12:24 0.05 hrs 0.00 hrs 0.00 nm 10.82 gal 237.51 gal/hr 0.00 gal/nm 0 msl 0 kts
Fri, Feb 28, 2020     16:36 16:37 0.02 hrs 0.00 hrs 0.00 nm 0.06 gal 3.27 gal/hr 0.00 gal/nm 0 msl 0 kts
Fri, Feb 28, 2020 SCEL SCBQ 16:03 16:24 0.34 hrs 0.11 hrs 14.09 nm 3.53 gal 10.34 gal/hr 0.25 gal/nm 3498 msl 118 kts
Fri, Feb 28, 2020     15:30 15:31 0.01 hrs 0.00 hrs 0.00 nm 0.05 gal 3.40 gal/hr 0.00 gal/nm 0 msl 0 kts
Fri, Feb 28, 2020 SCEL SCEL 15:28 15:29 0.02 hrs 0.00 hrs 0.00 nm 10.32 gal 464.40 gal/hr 0.00 gal/nm 0 msl 0 kts
Fri, Feb 28, 2020 SCEL SCEL 00:35 00:39 0.08 hrs 0.00 hrs 0.00 nm 0.13 gal 1.72 gal/hr 0.00 gal/nm 0 msl 0 kts
Thu, Feb 27, 2020 SCBQ SCEL 23:30 00:27 0.89 hrs 0.59 hrs 90.77 nm 11.94 gal 13.37 gal/hr 0.13 gal/nm 7058 msl 144 kts
Thu, Feb 27, 2020 SCBQ SCBQ 22:26 22:29 0.05 hrs 0.00 hrs 0.00 nm 0.14 gal 2.86 gal/hr 0.00 gal/nm 0 msl 0 kts
Thu, Feb 27, 2020 SCBQ SCBQ 20:58 22:20 1.32 hrs 1.06 hrs 161.68 nm 23.46 gal 17.76 gal/hr 0.15 gal/nm 4575 msl 147 kts
Thu, Feb 27, 2020     20:55 20:55 0 hrs 0.00 hrs 0.00 nm 3.88 gal 1164.00 gal/hr 0.00 gal/nm 0 msl 0 kts
Thu, Feb 27, 2020 SCBQ SCBQ 14:07 14:08 0.03 hrs 0.00 hrs 0.00 nm 9.65 gal 369.57 gal/hr 0.00 gal/nm 0 msl 0 kts
Thu, Feb 27, 2020 SCEL SCBQ 13:24 13:46 0.35 hrs 0.09 hrs 12.77 nm 3.59 gal 10.20 gal/hr 0.28 gal/nm 2794 msl 132 kts
Thu, Feb 27, 2020     13:20 13:20 0 hrs 0.00 hrs 0.00 nm 6.10 gal 1996.36 gal/hr 0.00 gal/nm 0 msl 0 kts
Thu, Feb 27, 2020     01:30 01:31 0.01 hrs 0.00 hrs 0.00 nm 0.12 gal 11.08 gal/hr 0.00 gal/nm 0 msl 0 kts
Wed, Feb 26, 2020 SCBQ SCEL 23:41 01:24 1.67 hrs 1.22 hrs 181.32 nm 25.14 gal 15.02 gal/hr 0.14 gal/nm 7170 msl 146 kts
Wed, Feb 26, 2020     23:37 23:38 0.01 hrs 0.00 hrs 0.00 nm 0.21 gal 30.24 gal/hr 0.00 gal/nm 0 msl 0 kts
Wed, Feb 26, 2020 SCBQ SCBQ 17:51 17:57 0.1 hrs 0.00 hrs 0.00 nm 11.65 gal 118.81 gal/hr 0.00 gal/nm 0 msl 0 kts
Wed, Feb 26, 2020 SCBQ SCBQ 13:00 13:09 0.14 hrs 0.00 hrs 0.00 nm 0.50 gal 3.48 gal/hr 0.00 gal/nm 0 msl 0 kts
Tue, Feb 25, 2020 SCBQ SCBQ 15:29 17:12 1.63 hrs 1.38 hrs 213.95 nm 29.34 gal 17.99 gal/hr 0.14 gal/nm 8011 msl 148 kts
Tue, Feb 25, 2020 SCBQ SCBQ 15:05 15:07 0.02 hrs 0.00 hrs 0.00 nm 0.08 gal 3.65 gal/hr 0.00 gal/nm 0 msl 0 kts
Tue, Feb 25, 2020 SCBQ SCBQ 13:36 14:52 1.21 hrs 1.00 hrs 159.59 nm 21.44 gal 17.70 gal/hr 0.13 gal/nm 4541 msl 152 kts
Tue, Feb 25, 2020 SCBQ SCBQ 13:26 13:29 0.05 hrs 0.00 hrs 0.00 nm 0.02 gal 0.39 gal/hr 0.00 gal/nm 0 msl 0 kts
Tue, Feb 25, 2020 SCBQ SCBQ 11:19 11:23 0.07 hrs 0.00 hrs 0.00 nm 10.73 gal 158.31 gal/hr 0.00 gal/nm 0 msl 0 kts
Mon, Feb 24, 2020 SCBQ SCBQ 19:32 19:39 0.12 hrs 0.00 hrs 0.00 nm 0.08 gal 0.66 gal/hr 0.00 gal/nm 0 msl 0 kts
Mon, Feb 24, 2020 SCBQ SCBQ 18:11 19:25 1.17 hrs 0.98 hrs 145.66 nm 20.78 gal 17.77 gal/hr 0.14 gal/nm 4695 msl 141 kts
Mon, Feb 24, 2020     15:40 15:40 0 hrs 0.00 hrs 0.00 nm 0.02 gal 6.00 gal/hr 0.00 gal/nm 0 msl 0 kts
Mon, Feb 24, 2020     15:35 15:36 0.01 hrs 0.00 hrs 0.00 nm 0.06 gal 4.08 gal/hr 0.00 gal/nm 0 msl 0 kts
Mon, Feb 24, 2020 SCBQ SCBQ 14:14 15:31 1.23 hrs 1.03 hrs 180.68 nm 22.61 gal 18.41 gal/hr 0.13 gal/nm 8515 msl 167 kts
Mon, Feb 24, 2020 SCBQ SCBQ 12:18 12:20 0.03 hrs 0.00 hrs 0.00 nm 12.38 gal 479.23 gal/hr 0.00 gal/nm 0 msl 0 kts
Fri, Feb 21, 2020 SCBQ SCBQ 17:13 17:14 0.02 hrs 0.00 hrs 0.00 nm 0.00 gal 0.02 gal/hr 0.00 gal/nm 0 msl 0 kts
Fri, Feb 21, 2020 SCBQ SCBQ 15:09 17:04 1.83 hrs 1.40 hrs 209.61 nm 31.46 gal 17.20 gal/hr 0.15 gal/nm 4506 msl 142 kts
Fri, Feb 21, 2020     15:03 15:03 0 hrs 0.00 hrs 0.00 nm 0.00 gal 0.00 gal/hr 0.00 gal/nm 0 msl 0 kts
Fri, Feb 21, 2020 SCBQ SCBQ 13:56 13:58 0.03 hrs 0.00 hrs 0.00 nm 0.13 gal 5.03 gal/hr 0.00 gal/nm 0 msl 0 kts
Fri, Feb 21, 2020 SCBQ SCBQ 12:44 13:49 1.03 hrs 0.73 hrs 95.43 nm 13.76 gal 13.40 gal/hr 0.14 gal/nm 4539 msl 125 kts
Fri, Feb 21, 2020     12:43 12:43 0 hrs 0.00 hrs 0.00 nm 0.05 gal 15.00 gal/hr 0.00 gal/nm 0 msl 0 kts
Fri, Feb 21, 2020     11:03 11:04 0.01 hrs 0.00 hrs 0.00 nm 0.16 gal 10.87 gal/hr 0.00 gal/nm 0 msl 0 kts
Thu, Feb 20, 2020 SCBQ SCBQ 19:02 19:05 0.06 hrs 0.00 hrs 0.00 nm 23.70 gal 393.18 gal/hr 0.00 gal/nm 0 msl 0 kts
Thu, Feb 20, 2020 SCBQ SCBQ 17:23 18:53 1.47 hrs 1.02 hrs 143.07 nm 21.88 gal 14.86 gal/hr 0.15 gal/nm 7143 msl 136 kts
Thu, Feb 20, 2020     17:14 17:15 0.01 hrs 0.00 hrs 0.00 nm 9.97 gal 1435.68 gal/hr 0.00 gal/nm 0 msl 0 kts
Thu, Feb 20, 2020 SCBQ SCBQ 16:05 16:07 0.04 hrs 0.00 hrs 0.00 nm 0.07 gal 1.70 gal/hr 0.00 gal/nm 0 msl 0 kts
Thu, Feb 20, 2020 SCBQ SCBQ 13:52 16:01 2.03 hrs 1.73 hrs 298.38 nm 35.59 gal 17.50 gal/hr 0.12 gal/nm 7506 msl 163 kts
Thu, Feb 20, 2020 SCBQ SCBQ 13:09 13:11 0.04 hrs 0.00 hrs 0.00 nm 0.01 gal 0.21 gal/hr 0.00 gal/nm 0 msl 0 kts
Thu, Feb 20, 2020 SCBQ SCBQ 13:03 13:06 0.04 hrs 0.00 hrs 0.00 nm 0.00 gal 0.08 gal/hr 0.00 gal/nm 0 msl 0 kts
Thu, Feb 20, 2020 SCBQ SCBQ 11:17 12:45 1.42 hrs 1.09 hrs 152.71 nm 22.93 gal 16.18 gal/hr 0.15 gal/nm 6586 msl 135 kts
Thu, Feb 20, 2020     11:12 11:13 0.01 hrs 0.00 hrs 0.00 nm 9.11 gal 1311.84 gal/hr 0.00 gal/nm 0 msl 0 kts
Wed, Feb 19, 2020 SCBQ SCBQ 18:59 18:59 0.02 hrs 0.00 hrs 0.00 nm 0.05 gal 3.33 gal/hr 0.00 gal/nm 0 msl 0 kts
Wed, Feb 19, 2020 SCBQ SCBQ 17:13 18:47 1.53 hrs 1.15 hrs 152.02 nm 24.97 gal 16.29 gal/hr 0.16 gal/nm 7738 msl 130 kts
Wed, Feb 19, 2020 SCBQ SCBQ 17:08 17:09 0.01 hrs 0.00 hrs 0.00 nm 9.38 gal 1298.77 gal/hr 0.00 gal/nm 0 msl 0 kts
Wed, Feb 19, 2020     17:04 17:05 0.01 hrs 0.00 hrs 0.00 nm 0.04 gal 2.72 gal/hr 0.00 gal/nm 0 msl 0 kts
Wed, Feb 19, 2020 SCBQ SCBQ 13:29 13:32 0.06 hrs 0.00 hrs 0.00 nm 5.83 gal 96.72 gal/hr 0.00 gal/nm 0 msl 0 kts
Wed, Feb 19, 2020 SCBQ SCBQ 12:12 13:24 1.17 hrs 0.86 hrs 109.70 nm 17.46 gal 14.88 gal/hr 0.16 gal/nm 5607 msl 125 kts
Wed, Feb 19, 2020     12:08 12:08 0 hrs 0.00 hrs 0.00 nm 0.00 gal 0.02 gal/hr 0.00 gal/nm 0 msl 0 kts
Wed, Feb 19, 2020 SCBQ SCBQ 11:21 11:23 0.02 hrs 0.00 hrs 0.00 nm 0.05 gal 2.28 gal/hr 0.00 gal/nm 0 msl 0 kts
Tue, Feb 18, 2020 SCBQ SCBQ 17:45 19:32 1.7 hrs 1.20 hrs 163.26 nm 25.88 gal 15.24 gal/hr 0.16 gal/nm 7914 msl 128 kts
Tue, Feb 18, 2020 SCBQ SCBQ 17:39 17:40 0.01 hrs 0.00 hrs 0.00 nm 3.69 gal 531.36 gal/hr 0.00 gal/nm 0 msl 0 kts
Tue, Feb 18, 2020 SCBQ SCBQ 16:29 16:30 0.02 hrs 0.00 hrs 0.00 nm 6.67 gal 363.82 gal/hr 0.00 gal/nm 0 msl 0 kts
Mon, Feb 17, 2020 SCBQ SCBQ 13:05 13:07 0.04 hrs 0.00 hrs 0.00 nm 25.93 gal 691.47 gal/hr 0.00 gal/nm 0 msl 0 kts
Mon, Feb 17, 2020 SCBQ SCBQ 11:30 11:34 0.07 hrs 0.00 hrs 0.00 nm 12.36 gal 182.36 gal/hr 0.00 gal/nm 0 msl 0 kts
Fri, Feb 14, 2020 SCBQ SCBQ 15:48 15:50 0.02 hrs 0.00 hrs 0.00 nm 0.10 gal 4.50 gal/hr 0.00 gal/nm 0 msl 0 kts
Fri, Feb 14, 2020 SCBQ SCBQ 14:11 15:41 1.45 hrs 1.12 hrs 150.00 nm 23.67 gal 16.36 gal/hr 0.16 gal/nm 6186 msl 129 kts
Fri, Feb 14, 2020 SCBQ SCBQ 14:02 14:03 0.02 hrs 0.00 hrs 0.00 nm 0.48 gal 21.60 gal/hr 0.00 gal/nm 0 msl 0 kts
Fri, Feb 14, 2020 SCBQ SCBQ 12:58 13:01 0.05 hrs 0.00 hrs 0.00 nm 11.41 gal 253.56 gal/hr 0.00 gal/nm 0 msl 0 kts
Thu, Feb 13, 2020 SCBQ SCBQ 17:38 17:41 0.05 hrs 0.00 hrs 0.00 nm 0.49 gal 10.02 gal/hr 0.00 gal/nm 0 msl 0 kts
Tue, Feb 11, 2020 SCBQ SCBQ 16:55 18:01 1.03 hrs 0.67 hrs 93.48 nm 14.17 gal 13.73 gal/hr 0.15 gal/nm 4610 msl 130 kts
Tue, Feb 11, 2020     16:48 16:49 0 hrs 0.00 hrs 0.00 nm 5.99 gal 1960.36 gal/hr 0.00 gal/nm 0 msl 0 kts
Tue, Feb 11, 2020 SCBQ SCBQ 16:20 16:25 0.08 hrs 0.00 hrs 0.00 nm 0.22 gal 2.78 gal/hr 0.00 gal/nm 0 msl 0 kts
Mon, Feb 10, 2020     16:48 16:49 0.01 hrs 0.00 hrs 0.00 nm 0.05 gal 4.50 gal/hr 0.00 gal/nm 0 msl 0 kts
Mon, Feb 10, 2020 SCER SCBQ 15:53 16:37 0.7 hrs 0.49 hrs 78.87 nm 11.96 gal 17.00 gal/hr 0.15 gal/nm 5514 msl 154 kts
Mon, Feb 10, 2020 SCER SCER 15:35 15:37 0.05 hrs 0.00 hrs 0.00 nm 0.06 gal 1.43 gal/hr 0.00 gal/nm 0 msl 0 kts
Mon, Feb 10, 2020 SCER SCER 15:21 15:30 0.15 hrs 0.00 hrs 0.00 nm 0.22 gal 1.48 gal/hr 0.00 gal/nm 0 msl 0 kts
Mon, Feb 10, 2020 SCBQ SCER 14:22 15:16 0.87 hrs 0.63 hrs 105.49 nm 14.33 gal 16.45 gal/hr 0.14 gal/nm 4558 msl 159 kts
Mon, Feb 10, 2020     14:14 14:14 0 hrs 0.00 hrs 0.00 nm 7.30 gal 2190.00 gal/hr 0.00 gal/nm 0 msl 0 kts
Mon, Feb 10, 2020 SCBQ SCBQ 11:52 11:56 0.06 hrs 0.00 hrs 0.00 nm 10.68 gal 190.34 gal/hr 0.00 gal/nm 0 msl 0 kts
Fri, Feb 7, 2020 SCBQ SCBQ 18:27 18:28 0.02 hrs 0.00 hrs 0.00 nm 13.95 gal 627.75 gal/hr 0.00 gal/nm 0 msl 0 kts
Fri, Feb 7, 2020 SCBQ SCBQ 17:58 18:20 0.36 hrs 0.16 hrs 17.91 nm 4.02 gal 11.23 gal/hr 0.22 gal/nm 3869 msl 110 kts
Fri, Feb 7, 2020     17:56 17:56 0.01 hrs 0.00 hrs 0.00 nm 0.80 gal 72.00 gal/hr 0.00 gal/nm 0 msl 0 kts
Fri, Feb 7, 2020 SCBQ SCBQ 14:20 14:21 0.02 hrs 0.00 hrs 0.00 nm 0.21 gal 11.45 gal/hr 0.00 gal/nm 0 msl 0 kts
Fri, Feb 7, 2020 SCBQ SCBQ 11:51 14:14 2.28 hrs 2.04 hrs 332.34 nm 44.34 gal 19.48 gal/hr 0.13 gal/nm 6514 msl 155 kts
Fri, Feb 7, 2020     11:49 11:49 0 hrs 0.00 hrs 0.00 nm 0.00 gal 0.00 gal/hr 0.00 gal/nm 0 msl 0 kts
Fri, Feb 7, 2020     11:05 11:06 0.01 hrs 0.00 hrs 0.00 nm 0.00 gal 0.00 gal/hr 0.00 gal/nm 0 msl 0 kts
Thu, Feb 6, 2020 SCBQ SCBQ 23:37 23:42 0.08 hrs 0.00 hrs 0.00 nm 32.84 gal 414.82 gal/hr 0.00 gal/nm 0 msl 0 kts
Thu, Feb 6, 2020 SCBQ SCBQ 23:31 23:33 0.04 hrs 0.00 hrs 0.00 nm 0.03 gal 0.80 gal/hr 0.00 gal/nm 0 msl 0 kts
Thu, Feb 6, 2020 SCTC SCBQ 21:02 23:18 2.16 hrs 1.98 hrs 333.97 nm 43.07 gal 19.91 gal/hr 0.13 gal/nm 8522 msl 160 kts
Thu, Feb 6, 2020 SCBQ SCTC 17:42 19:46 1.99 hrs 1.72 hrs 332.15 nm 36.58 gal 18.39 gal/hr 0.11 gal/nm 9875 msl 184 kts
Thu, Feb 6, 2020     17:37 17:37 0 hrs 0.00 hrs 0.00 nm 0.15 gal 45.00 gal/hr 0.00 gal/nm 0 msl 0 kts
Thu, Feb 6, 2020 SCBQ SCBQ 12:27 12:29 0.03 hrs 0.00 hrs 0.00 nm 0.09 gal 3.03 gal/hr 0.00 gal/nm 0 msl 0 kts
Thu, Feb 6, 2020 SCBQ SCBQ 11:33 11:38 0.09 hrs 0.00 hrs 0.00 nm 11.01 gal 116.58 gal/hr 0.00 gal/nm 0 msl 0 kts
Wed, Feb 5, 2020 SCBQ SCBQ 15:41 15:45 0.07 hrs 0.00 hrs 0.00 nm 0.16 gal 2.22 gal/hr 0.00 gal/nm 0 msl 0 kts
Wed, Feb 5, 2020 SCBQ SCBQ 12:51 15:37 2.63 hrs 2.37 hrs 379.54 nm 39.85 gal 15.16 gal/hr 0.11 gal/nm 5508 msl 152 kts
Wed, Feb 5, 2020     12:48 12:48 0 hrs 0.00 hrs 0.00 nm 0.00 gal 0.00 gal/hr 0.00 gal/nm 0 msl 0 kts
Wed, Feb 5, 2020 SCBQ SCBQ 11:07 11:09 0.03 hrs 0.00 hrs 0.00 nm 0.06 gal 1.80 gal/hr 0.00 gal/nm 0 msl 0 kts
Tue, Feb 4, 2020 SCBQ SCBQ 16:58 17:00 0.03 hrs 0.00 hrs 0.00 nm 12.33 gal 414.84 gal/hr 0.00 gal/nm 0 msl 0 kts
Tue, Feb 4, 2020 SCBQ SCBQ 13:19 16:47 3.29 hrs 3.00 hrs 514.58 nm 56.87 gal 17.31 gal/hr 0.11 gal/nm 11011 msl 162 kts
Tue, Feb 4, 2020 SCBQ SCBQ 13:15 13:17 0.03 hrs 0.00 hrs 0.00 nm 0.00 gal 0.00 gal/hr 0.00 gal/nm 0 msl 0 kts
Tue, Feb 4, 2020 SCBQ SCBQ 11:35 11:39 0.08 hrs 0.00 hrs 0.00 nm 0.51 gal 6.42 gal/hr 0.00 gal/nm 0 msl 0 kts
Mon, Feb 3, 2020     16:44 16:44 0.01 hrs 0.00 hrs 0.00 nm 0.03 gal 2.70 gal/hr 0.00 gal/nm 0 msl 0 kts
Mon, Feb 3, 2020 SCBQ SCBQ 16:38 16:43 0.08 hrs 0.00 hrs 0.00 nm 48.22 gal 609.09 gal/hr 0.00 gal/nm 0 msl 0 kts
Mon, Feb 3, 2020 SCBQ SCBQ 12:58 15:39 2.56 hrs 2.36 hrs 412.75 nm 45.91 gal 17.90 gal/hr 0.11 gal/nm 8507 msl 166 kts
Mon, Feb 3, 2020     12:54 12:55 0.01 hrs 0.00 hrs 0.00 nm 0.05 gal 4.62 gal/hr 0.00 gal/nm 0 msl 0 kts
Mon, Feb 3, 2020     12:16 12:17 0.01 hrs 0.00 hrs 0.00 nm 0.02 gal 1.36 gal/hr 0.00 gal/nm 0 msl 0 kts
Mon, Feb 3, 2020 SCBQ SCBQ 11:58 12:02 0.06 hrs 0.00 hrs 0.00 nm 12.69 gal 211.50 gal/hr 0.00 gal/nm 0 msl 0 kts
Fri, Jan 31, 2020 SCBQ SCBQ 15:43 15:45 0.03 hrs 0.00 hrs 0.00 nm 10.71 gal 360.34 gal/hr 0.00 gal/nm 0 msl 0 kts
Fri, Jan 31, 2020 SCBQ SCBQ 13:54 15:35 1.6 hrs 1.31 hrs 217.37 nm 26.88 gal 16.76 gal/hr 0.12 gal/nm 13510 msl 157 kts
Fri, Jan 31, 2020     13:51 13:51 0.01 hrs 0.00 hrs 0.00 nm 9.12 gal 1313.28 gal/hr 0.00 gal/nm 0 msl 0 kts
Fri, Jan 31, 2020 SCBQ SCBQ 11:29 11:33 0.07 hrs 0.00 hrs 0.00 nm 11.43 gal 159.49 gal/hr 0.00 gal/nm 0 msl 0 kts
Thu, Jan 30, 2020 SCBQ SCBQ 18:37 18:38 0.03 hrs 0.00 hrs 0.00 nm 0.00 gal 0.16 gal/hr 0.00 gal/nm 0 msl 0 kts
Thu, Jan 30, 2020     18:13 18:13 0.02 hrs 0.00 hrs 0.00 nm 0.04 gal 2.67 gal/hr 0.00 gal/nm 0 msl 0 kts
Thu, Jan 30, 2020 SCBQ SCBQ 18:05 18:07 0.03 hrs 0.00 hrs 0.00 nm 0.04 gal 1.55 gal/hr 0.00 gal/nm 0 msl 0 kts
Thu, Jan 30, 2020 SCDA SCBQ 13:07 17:58 4.63 hrs 4.18 hrs 813.06 nm 74.66 gal 16.14 gal/hr 0.09 gal/nm 15011 msl 185 kts
Thu, Jan 30, 2020     12:44 12:45 0.01 hrs 0.00 hrs 0.00 nm 0.09 gal 6.11 gal/hr 0.00 gal/nm 0 msl 0 kts
Wed, Jan 29, 2020 SCDA SCDA 16:58 17:35 0.59 hrs 0.26 hrs 38.30 nm 7.07 gal 11.90 gal/hr 0.18 gal/nm 4882 msl 139 kts
Wed, Jan 29, 2020 SCBQ SCDA 11:54 16:36 4.49 hrs 4.16 hrs 816.81 nm 78.84 gal 17.57 gal/hr 0.10 gal/nm 18009 msl 187 kts
Wed, Jan 29, 2020     11:49 11:50 0.01 hrs 0.00 hrs 0.00 nm 0.00 gal 0.00 gal/hr 0.00 gal/nm 0 msl 0 kts
Wed, Jan 29, 2020 SCBQ SCBQ 10:57 11:02 0.08 hrs 0.00 hrs 0.00 nm 0.00 gal 0.00 gal/hr 0.00 gal/nm 0 msl 0 kts
Tue, Jan 28, 2020 SCBQ SCBQ 18:08 18:13 0.08 hrs 0.00 hrs 0.00 nm 0.13 gal 1.64 gal/hr 0.00 gal/nm 0 msl 0 kts
Tue, Jan 28, 2020 SCTC SCBQ 15:47 18:04 2.16 hrs 1.83 hrs 342.50 nm 39.48 gal 18.28 gal/hr 0.12 gal/nm 10512 msl 177 kts
Tue, Jan 28, 2020 SCTC SCTC 15:32 15:35 0.05 hrs 0.00 hrs 0.00 nm 0.65 gal 12.38 gal/hr 0.00 gal/nm 0 msl 0 kts
Mon, Jan 27, 2020 SCTC SCTC 17:37 17:37 0 hrs 0.00 hrs 0.00 nm 5.82 gal 1746.00 gal/hr 0.00 gal/nm 0 msl 0 kts
Mon, Jan 27, 2020     17:27 17:28 0 hrs 0.00 hrs 0.00 nm 5.82 gal 1904.73 gal/hr 0.00 gal/nm 0 msl 0 kts
Mon, Jan 27, 2020 SCBQ SCTC 13:40 16:05 2.33 hrs 2.02 hrs 352.23 nm 41.75 gal 17.94 gal/hr 0.12 gal/nm 9015 msl 166 kts
Mon, Jan 27, 2020     13:34 13:34 0.01 hrs 0.00 hrs 0.00 nm 0.41 gal 36.90 gal/hr 0.00 gal/nm 0 msl 0 kts
Mon, Jan 27, 2020 SCBQ SCBQ 12:37 12:39 0.02 hrs 0.00 hrs 0.00 nm 6.28 gal 286.18 gal/hr 0.00 gal/nm 0 msl 0 kts
Mon, Jan 27, 2020     12:21 12:22 0.01 hrs 0.00 hrs 0.00 nm 0.05 gal 3.40 gal/hr 0.00 gal/nm 0 msl 0 kts
Mon, Jan 27, 2020     11:27 11:27 0 hrs 0.00 hrs 0.00 nm 0.02 gal 6.00 gal/hr 0.00 gal/nm 0 msl 0 kts
Mon, Jan 27, 2020 SCBQ SCBQ 10:52 11:02 0.16 hrs 0.00 hrs 0.00 nm 0.02 gal 0.12 gal/hr 0.00 gal/nm 0 msl 0 kts
Fri, Jan 24, 2020 SCBQ SCBQ 17:19 17:21 0.03 hrs 0.00 hrs 0.00 nm 0.10 gal 3.87 gal/hr 0.00 gal/nm 0 msl 0 kts
Thu, Jan 16, 2020 SCBQ SCBQ 13:31 13:33 0.04 hrs 0.00 hrs 0.00 nm 0.31 gal 7.49 gal/hr 0.00 gal/nm 0 msl 0 kts
Thu, Jan 16, 2020 SCBQ SCBQ 13:23 13:29 0.11 hrs 0.00 hrs 0.00 nm 0.10 gal 0.94 gal/hr 0.00 gal/nm 0 msl 0 kts
Thu, Jan 16, 2020 SCBQ SCBQ 13:20 13:22 0.02 hrs 0.00 hrs 0.00 nm 0.31 gal 14.13 gal/hr 0.00 gal/nm 0 msl 0 kts
Thu, Jan 16, 2020 SCBQ SCBQ 13:15 13:19 0.06 hrs 0.00 hrs 0.00 nm 0.61 gal 10.12 gal/hr 0.00 gal/nm 0 msl 0 kts
Thu, Jan 16, 2020 SCBQ SCBQ 12:33 12:53 0.33 hrs 0.00 hrs 0.00 nm 11.47 gal 35.23 gal/hr 0.00 gal/nm 0 msl 0 kts
Wed, Jan 15, 2020 SCEL SCBQ 12:57 13:29 0.51 hrs 0.18 hrs 22.12 nm 5.00 gal 9.78 gal/hr 0.23 gal/nm 3497 msl 112 kts
Wed, Jan 15, 2020     12:40 12:45 0.08 hrs 0.00 hrs 0.00 nm 0.33 gal 3.97 gal/hr 0.00 gal/nm 0 msl 0 kts
Wed, Jan 15, 2020     12:36 12:38 0.02 hrs 0.00 hrs 0.00 nm 0.14 gal 6.38 gal/hr 0.00 gal/nm 0 msl 0 kts
Tue, Jan 14, 2020     18:09 18:09 0 hrs 0.00 hrs 0.00 nm 0.11 gal 33.00 gal/hr 0.00 gal/nm 0 msl 0 kts
Tue, Jan 14, 2020     18:01 18:01 0.02 hrs 0.00 hrs 0.00 nm 0.02 gal 1.33 gal/hr 0.00 gal/nm 0 msl 0 kts
Tue, Jan 14, 2020     17:49 17:51 0.03 hrs 0.00 hrs 0.00 nm 0.02 gal 0.60 gal/hr 0.00 gal/nm 0 msl 0 kts
Tue, Jan 14, 2020     17:42 17:46 0.06 hrs 0.00 hrs 0.00 nm 0.23 gal 3.83 gal/hr 0.00 gal/nm 0 msl 0 kts
Tue, Jan 14, 2020     17:37 17:39 0.03 hrs 0.00 hrs 0.00 nm 0.03 gal 0.89 gal/hr 0.00 gal/nm 0 msl 0 kts
Tue, Jan 14, 2020 SCEL SCEL 16:36 16:44 0.13 hrs 0.00 hrs 0.00 nm 0.32 gal 2.42 gal/hr 0.00 gal/nm 0 msl 0 kts
Tue, Jan 14, 2020     14:10 14:12 0.03 hrs 0.00 hrs 0.00 nm 0.18 gal 6.97 gal/hr 0.00 gal/nm 0 msl 0 kts
Tue, Jan 14, 2020     14:05 14:10 0.08 hrs 0.00 hrs 0.00 nm 0.10 gal 1.33 gal/hr 0.00 gal/nm 0 msl 0 kts
Tue, Jan 14, 2020     13:44 13:44 0 hrs 0.00 hrs 0.00 nm 0.01 gal 3.27 gal/hr 0.00 gal/nm 0 msl 0 kts
Tue, Jan 14, 2020     13:42 13:44 0.03 hrs 0.00 hrs 0.00 nm 0.75 gal 29.03 gal/hr 0.00 gal/nm 0 msl 0 kts
Tue, Jan 14, 2020     13:33 13:33 0 hrs 0.00 hrs 0.00 nm 0.03 gal 9.00 gal/hr 0.00 gal/nm 0 msl 0 kts
Tue, Jan 14, 2020     13:29 13:31 0.03 hrs 0.00 hrs 0.00 nm 0.07 gal 2.36 gal/hr 0.00 gal/nm 0 msl 0 kts
Tue, Jan 14, 2020     13:13 13:14 0.01 hrs 0.00 hrs 0.00 nm 0.03 gal 2.04 gal/hr 0.00 gal/nm 0 msl 0 kts
Tue, Jan 14, 2020     13:12 13:13 0.01 hrs 0.00 hrs 0.00 nm 0.02 gal 1.85 gal/hr 0.00 gal/nm 0 msl 0 kts
Tue, Jan 14, 2020     13:09 13:11 0.03 hrs 0.00 hrs 0.00 nm 0.04 gal 1.35 gal/hr 0.00 gal/nm 0 msl 0 kts
Fri, Jan 10, 2020     18:37 18:38 0.01 hrs 0.00 hrs 0.00 nm 0.14 gal 13.26 gal/hr 0.00 gal/nm 0 msl 0 kts
Fri, Jan 10, 2020     18:21 18:23 0.03 hrs 0.00 hrs 0.00 nm 0.19 gal 5.65 gal/hr 0.00 gal/nm 0 msl 0 kts
Fri, Jan 10, 2020     18:10 18:11 0.02 hrs 0.00 hrs 0.00 nm 0.08 gal 4.30 gal/hr 0.00 gal/nm 0 msl 0 kts
Fri, Jan 10, 2020     18:05 18:06 0.01 hrs 0.00 hrs 0.00 nm 0.06 gal 5.54 gal/hr 0.00 gal/nm 0 msl 0 kts
Fri, Jan 10, 2020     18:03 18:04 0.01 hrs 0.00 hrs 0.00 nm 0.18 gal 12.23 gal/hr 0.00 gal/nm 0 msl 0 kts
Fri, Jan 10, 2020 SCEL SCEL 13:03 15:13 2.13 hrs 0.01 hrs 1.35 nm 40.59 gal 19.06 gal/hr 30.07 gal/nm 1583 msl 389 kts
Mon, Jan 6, 2020     17:46 17:54 0.13 hrs 0.00 hrs 0.00 nm 0.50 gal 3.78 gal/hr 0.00 gal/nm 0 msl 0 kts
Mon, Jan 6, 2020     11:43 13:17 1.54 hrs 0.00 hrs 0.00 nm 0.38 gal 0.25 gal/hr 0.00 gal/nm 0 msl 0 kts
Fri, Jan 3, 2020     18:49 19:15 0.42 hrs 0.00 hrs 0.00 nm 1.02 gal 2.40 gal/hr